Time,TemperatureF,DewpointF,PressureIn,WindDirection,WindDirectionDegrees,WindSpeedMPH,WindSpeedGustMPH,Humidity,HourlyPrecipIn,Conditions,Clouds,dailyrainin,SolarRadiationWatts/m^2,SoftwareType,DateUTC
2013-05-04 00:00:00,74.5,40.5,29.21,South,176,9.0,10.8,29,-99.99,,,0.00,0,rob ver 1B,2013-05-04 07:00:00,
2013-05-04 00:01:00,79.8,16.5,29.23,North,10,2.8,2.9,9,-99.99,,,0.00,0,rob ver 1A,2013-05-04 07:01:00,
2013-05-04 00:02:00,74.5,40.2,29.21,South,176,8.1,10.2,29,-99.99,,,0.00,0,rob ver 1B,2013-05-04 07:02:00,
2013-05-04 00:03:00,74.4,40.2,29.21,South,177,8.3,9.9,29,-99.99,,,0.00,0,rob ver 1B,2013-05-04 07:03:00,
2013-05-04 00:04:00,74.4,40.2,29.21,South,174,7.9,9.7,29,-99.99,,,0.00,0,rob ver 1B,2013-05-04 07:04:00,
2013-05-04 00:05:00,74.4,40.1,29.21,South,173,7.9,9.4,28,-99.99,,,0.00,0,rob ver 1B,2013-05-04 07:05:00,
2013-05-04 00:06:00,79.8,16.9,29.23,NNE,22,2.8,3.0,9,-99.99,,,0.00,0,rob ver 1A,2013-05-04 07:06:00,
2013-05-04 00:07:00,74.4,39.8,29.21,South,177,8.2,9.9,28,-99.99,,,0.00,0,rob ver 1B,2013-05-04 07:07:00,
2013-05-04 00:08:00,74.4,39.8,29.21,South,180,7.5,9.5,28,-99.99,,,0.00,0,rob ver 1B,2013-05-04 07:08:00,
2013-05-04 00:09:00,74.4,39.7,29.21,South,175,6.8,8.4,28,-99.99,,,0.00,0,rob ver 1B,2013-05-04 07:09:00,
2013-05-04 00:10:00,74.3,39.5,29.21,South,170,6.8,8.1,28,-99.99,,,0.00,0,rob ver 1B,2013-05-04 07:10:00,
2013-05-04 00:11:00,78.7,16.2,29.23,ENE,69,2.8,3.7,9,-99.99,,,0.00,0,rob ver 1A,2013-05-04 07:11:00,
2013-05-04 00:12:00,74.3,39.1,29.21,South,175,5.7,7.0,27,-99.99,,,0.00,0,rob ver 1B,2013-05-04 07:12:00,
2013-05-04 00:13:00,74.2,39.0,29.21,South,182,5.7,7.2,27,-99.99,,,0.00,0,rob ver 1B,2013-05-04 07:13:00,
2013-05-04 00:14:00,74.2,39.0,29.21,South,180,5.5,6.5,28,-99.99,,,0.00,0,rob ver 1B,2013-05-04 07:14:00,
2013-05-04 00:15:00,74.1,39.0,29.21,South,175,5.2,6.4,28,-99.99,,,0.00,0,rob ver 1B,2013-05-04 07:15:00,
2013-05-04 00:16:00,77.3,15.5,29.23,ENE,70,1.6,2.0,9,-99.99,,,0.00,0,rob ver 1A,2013-05-04 07:16:00,
2013-05-04 00:17:00,74.0,38.8,29.21,SSE,163,5.3,6.1,28,-99.99,,,0.00,0,rob ver 1B,2013-05-04 07:17:00,
2013-05-04 00:18:00,73.9,38.7,29.21,SSE,155,5.1,6.7,27,-99.99,,,0.00,0,rob ver 1B,2013-05-04 07:18:00,
2013-05-04 00:19:00,73.8,38.5,29.21,SSE,155,4.8,6.1,27,-99.99,,,0.00,0,rob ver 1B,2013-05-04 07:19:00,
2013-05-04 00:20:00,73.7,38.4,29.21,SSE,154,4.3,5.8,27,-99.99,,,0.00,0,rob ver 1B,2013-05-04 07:20:00,
2013-05-04 00:21:00,77.0,16.1,29.23,ENE,67,2.8,3.3,9,-99.99,,,0.00,0,rob ver 1A,2013-05-04 07:21:00,
2013-05-04 00:22:00,73.7,37.8,29.21,SSE,153,3.6,4.7,26,-99.99,,,0.00,0,rob ver 1B,2013-05-04 07:22:00,
2013-05-04 00:23:00,73.7,37.5,29.21,SSE,158,3.6,4.3,26,-99.99,,,0.00,0,rob ver 1B,2013-05-04 07:23:00,
2013-05-04 00:24:00,73.6,37.2,29.21,SSE,159,3.6,4.4,26,-99.99,,,0.00,0,rob ver 1B,2013-05-04 07:24:00,
2013-05-04 00:25:00,73.7,37.0,29.21,SSE,151,2.7,3.3,26,-99.99,,,0.00,0,rob ver 1B,2013-05-04 07:25:00,
2013-05-04 00:26:00,77.2,15.7,29.23,ENE,71,2.8,3.5,9,-99.99,,,0.00,0,rob ver 1A,2013-05-04 07:26:00,
2013-05-04 00:27:00,73.8,36.5,29.21,SSE,157,2.5,3.1,25,-99.99,,,0.00,0,rob ver 1B,2013-05-04 07:27:00,
2013-05-04 00:28:00,73.8,36.6,29.21,SSE,164,2.7,3.5,25,-99.99,,,0.00,0,rob ver 1B,2013-05-04 07:28:00,
2013-05-04 00:29:00,73.7,36.4,29.21,SSE,152,2.6,3.5,25,-99.99,,,0.00,0,rob ver 1B,2013-05-04 07:29:00,
2013-05-04 00:30:00,73.6,36.2,29.21,SE,144,2.9,3.7,25,-99.99,,,0.00,0,rob ver 1B,2013-05-04 07:30:00,
2013-05-04 00:31:00,76.9,15.3,29.23,ENE,70,3.3,4.1,9,-99.99,,,0.00,0,rob ver 1A,2013-05-04 07:31:00,
2013-05-04 00:32:00,73.5,36.0,29.21,SE,143,2.8,3.1,25,-99.99,,,0.00,0,rob ver 1B,2013-05-04 07:32:00,
2013-05-04 00:33:00,73.3,35.7,29.21,SSE,154,3.2,4.3,25,-99.99,,,0.00,0,rob ver 1B,2013-05-04 07:33:00,
2013-05-04 00:34:00,73.3,35.3,29.23,SSE,157,3.2,3.5,24,-99.99,,,0.00,0,rob ver 1B,2013-05-04 07:34:00,
2013-05-04 00:35:00,73.2,35.0,29.23,SSE,152,3.4,4.5,24,-99.99,,,0.00,0,rob ver 1B,2013-05-04 07:35:00,
2013-05-04 00:36:00,76.5,14.9,29.23,NE,49,4.7,6.2,9,-99.99,,,0.00,0,rob ver 1A,2013-05-04 07:36:00,
2013-05-04 00:37:00,73.2,34.8,29.23,SSE,166,3.2,4.1,24,-99.99,,,0.00,0,rob ver 1B,2013-05-04 07:37:00,
2013-05-04 00:38:00,73.1,34.5,29.23,South,175,3.2,3.7,24,-99.99,,,0.00,0,rob ver 1B,2013-05-04 07:38:00,
2013-05-04 00:39:00,73.0,34.0,29.23,South,175,3.6,4.6,23,-99.99,,,0.00,0,rob ver 1B,2013-05-04 07:39:00,
2013-05-04 00:40:00,72.9,33.7,29.23,SSE,166,3.7,4.6,23,-99.99,,,0.00,0,rob ver 1B,2013-05-04 07:40:00,
2013-05-04 00:41:00,72.8,33.5,29.23,SSE,162,4.5,5.3,23,-99.99,,,0.00,0,rob ver 1B,2013-05-04 07:41:00,
2013-05-04 00:42:00,76.6,14.9,29.23,NE,50,3.6,5.5,9,-99.99,,,0.00,0,rob ver 1A,2013-05-04 07:42:00,
2013-05-04 00:43:00,72.8,33.3,29.21,SE,146,7.0,8.2,23,-99.99,,,0.00,0,rob ver 1B,2013-05-04 07:43:00,
2013-05-04 00:44:00,72.8,33.1,29.23,SSE,163,7.0,7.9,23,-99.99,,,0.00,0,rob ver 1B,2013-05-04 07:44:00,
2013-05-04 00:45:00,72.9,33.0,29.23,SSE,168,6.6,7.5,23,-99.99,,,0.00,0,rob ver 1B,2013-05-04 07:45:00,
2013-05-04 00:46:00,72.9,33.1,29.23,SSE,159,6.9,7.8,23,-99.99,,,0.00,0,rob ver 1B,2013-05-04 07:46:00,
2013-05-04 00:47:00,76.5,14.8,29.23,NE,50,4.9,6.3,9,-99.99,,,0.00,0,rob ver 1A,2013-05-04 07:47:00,
2013-05-04 00:48:00,72.9,33.1,29.23,SSE,148,6.7,7.5,22,-99.99,,,0.00,0,rob ver 1B,2013-05-04 07:48:00,
2013-05-04 00:49:00,73.0,33.0,29.23,SSE,149,6.6,7.5,22,-99.99,,,0.00,0,rob ver 1B,2013-05-04 07:49:00,
2013-05-04 00:50:00,73.1,33.0,29.23,SSE,155,5.9,6.6,22,-99.99,,,0.00,0,rob ver 1B,2013-05-04 07:50:00,
2013-05-04 00:51:00,73.1,33.0,29.23,SSE,163,6.0,6.6,22,-99.99,,,0.00,0,rob ver 1B,2013-05-04 07:51:00,
2013-05-04 00:52:00,76.2,14.8,29.21,NE,44,5.9,7.1,9,-99.99,,,0.00,0,rob ver 1A,2013-05-04 07:52:00,
2013-05-04 00:53:00,73.0,32.9,29.23,SSE,168,5.4,6.1,22,-99.99,,,0.00,0,rob ver 1B,2013-05-04 07:53:00,
2013-05-04 00:54:00,72.9,32.8,29.23,SSE,164,5.3,5.9,22,-99.99,,,0.00,0,rob ver 1B,2013-05-04 07:54:00,
2013-05-04 00:55:00,72.9,32.6,29.23,SSE,156,5.5,7.0,22,-99.99,,,0.00,0,rob ver 1B,2013-05-04 07:55:00,
2013-05-04 00:56:00,73.0,32.7,29.23,SSE,152,4.7,5.4,22,-99.99,,,0.00,0,rob ver 1B,2013-05-04 07:56:00,
2013-05-04 00:57:00,77.0,14.9,29.21,NNE,32,7.6,8.5,9,-99.99,,,0.00,0,rob ver 1A,2013-05-04 07:57:00,
2013-05-04 00:58:00,72.9,32.6,29.23,SSE,164,4.2,4.7,22,-99.99,,,0.00,0,rob ver 1B,2013-05-04 07:58:00,
2013-05-04 00:59:00,72.8,32.6,29.23,South,172,4.0,4.6,22,-99.99,,,0.00,0,rob ver 1B,2013-05-04 07:59:00,
2013-05-04 01:00:00,72.7,32.5,29.23,South,172,4.1,4.7,22,-99.99,,,0.00,0,rob ver 1B,2013-05-04 08:00:00,
2013-05-04 01:01:00,72.7,32.6,29.23,SSE,159,4.2,4.7,22,-99.99,,,0.00,0,rob ver 1B,2013-05-04 08:01:00,
2013-05-04 01:02:00,77.2,14.9,29.21,NNE,20,7.0,8.0,9,-99.99,,,0.00,0,rob ver 1A,2013-05-04 08:02:00,
2013-05-04 01:03:00,72.5,32.5,29.23,SSE,157,4.8,5.7,22,-99.99,,,0.00,0,rob ver 1B,2013-05-04 08:03:00,
2013-05-04 01:04:00,72.5,32.2,29.23,SSE,167,4.6,5.3,22,-99.99,,,0.00,0,rob ver 1B,2013-05-04 08:04:00,
2013-05-04 01:05:00,72.5,32.1,29.23,South,170,4.1,4.8,22,-99.99,,,0.00,0,rob ver 1B,2013-05-04 08:05:00,
2013-05-04 01:06:00,72.4,32.1,29.23,SSE,161,4.0,5.2,22,-99.99,,,0.00,0,rob ver 1B,2013-05-04 08:06:00,
2013-05-04 01:07:00,77.6,15.1,29.21,NNE,24,7.2,8.0,9,-99.99,,,0.00,0,rob ver 1A,2013-05-04 08:07:00,
2013-05-04 01:08:00,72.4,31.4,29.23,SSE,157,4.9,5.6,21,-99.99,,,0.00,0,rob ver 1B,2013-05-04 08:08:00,
2013-05-04 01:09:00,72.4,31.2,29.23,SSE,159,4.7,5.8,21,-99.99,,,0.00,0,rob ver 1B,2013-05-04 08:09:00,
2013-05-04 01:10:00,72.3,30.5,29.23,SSE,162,4.8,5.7,20,-99.99,,,0.00,0,rob ver 1B,2013-05-04 08:10:00,
2013-05-04 01:11:00,72.4,30.1,29.23,SSE,160,4.4,5.1,20,-99.99,,,0.00,0,rob ver 1B,2013-05-04 08:11:00,
2013-05-04 01:12:00,77.7,15.1,29.21,NNE,32,5.8,6.4,9,-99.99,,,0.00,0,rob ver 1A,2013-05-04 08:12:00,
2013-05-04 01:13:00,72.2,30.2,29.23,SE,145,3.9,5.7,21,-99.99,,,0.00,0,rob ver 1B,2013-05-04 08:13:00,
2013-05-04 01:14:00,72.2,30.2,29.23,SE,142,3.4,4.4,21,-99.99,,,0.00,0,rob ver 1B,2013-05-04 08:14:00,
2013-05-04 01:15:00,72.1,30.0,29.23,SE,142,3.4,4.1,20,-99.99,,,0.00,0,rob ver 1B,2013-05-04 08:15:00,
2013-05-04 01:16:00,72.0,29.8,29.23,SE,134,2.8,3.4,20,-99.99,,,0.00,0,rob ver 1B,2013-05-04 08:16:00,
2013-05-04 01:17:00,77.3,15.0,29.21,NNE,30,5.0,5.4,9,-99.99,,,0.00,0,rob ver 1A,2013-05-04 08:17:00,
2013-05-04 01:18:00,71.7,29.7,29.23,SE,132,2.4,3.1,20,-99.99,,,0.00,0,rob ver 1B,2013-05-04 08:18:00,
2013-05-04 01:19:00,71.6,29.3,29.23,SE,136,2.5,3.2,20,-99.99,,,0.00,0,rob ver 1B,2013-05-04 08:19:00,
2013-05-04 01:20:00,71.8,29.2,29.23,SE,134,2.3,2.9,20,-99.99,,,0.00,0,rob ver 1B,2013-05-04 08:20:00,
2013-05-04 01:21:00,71.9,29.1,29.23,SE,134,2.7,3.3,20,-99.99,,,0.00,0,rob ver 1B,2013-05-04 08:21:00,
2013-05-04 01:22:00,76.7,15.0,29.21,NE,38,4.3,4.9,9,-99.99,,,0.00,0,rob ver 1A,2013-05-04 08:22:00,
2013-05-04 01:23:00,72.0,29.0,29.23,ESE,118,3.0,3.5,20,-99.99,,,0.00,0,rob ver 1B,2013-05-04 08:23:00,
2013-05-04 01:24:00,72.0,28.9,29.23,ESE,122,3.2,3.6,20,-99.99,,,0.00,0,rob ver 1B,2013-05-04 08:24:00,
2013-05-04 01:25:00,72.0,29.1,29.23,ESE,105,3.4,4.0,20,-99.99,,,0.00,0,rob ver 1B,2013-05-04 08:25:00,
2013-05-04 01:26:00,72.0,29.4,29.23,East,99,3.8,4.4,20,-99.99,,,0.00,0,rob ver 1B,2013-05-04 08:26:00,
2013-05-04 01:27:00,76.5,14.9,29.21,NE,37,4.6,5.5,9,-99.99,,,0.00,0,rob ver 1A,2013-05-04 08:27:00,
2013-05-04 01:28:00,71.9,29.4,29.23,East,96,3.9,4.4,20,-99.99,,,0.00,0,rob ver 1B,2013-05-04 08:28:00,
2013-05-04 01:29:00,71.9,28.9,29.23,ESE,102,3.8,4.5,20,-99.99,,,0.00,0,rob ver 1B,2013-05-04 08:29:00,
2013-05-04 01:30:00,71.8,28.5,29.23,East,101,3.6,4.1,19,-99.99,,,0.00,0,rob ver 1B,2013-05-04 08:30:00,
2013-05-04 01:31:00,71.8,28.3,29.23,East,97,3.3,3.8,19,-99.99,,,0.00,0,rob ver 1B,2013-05-04 08:31:00,
2013-05-04 01:32:00,76.4,14.9,29.21,NNE,32,4.7,5.6,9,-99.99,,,0.00,0,rob ver 1A,2013-05-04 08:32:00,
2013-05-04 01:33:00,71.8,27.5,29.23,ESE,107,2.7,3.6,19,-99.99,,,0.00,0,rob ver 1B,2013-05-04 08:33:00,
2013-05-04 01:34:00,71.9,27.2,29.23,ESE,105,2.5,3.6,18,-99.99,,,0.00,0,rob ver 1B,2013-05-04 08:34:00,
2013-05-04 01:35:00,71.9,27.0,29.23,ESE,102,2.7,3.2,18,-99.99,,,0.00,0,rob ver 1B,2013-05-04 08:35:00,
2013-05-04 01:36:00,71.9,27.1,29.23,East,92,2.7,3.0,18,-99.99,,,0.00,0,rob ver 1B,2013-05-04 08:36:00,
2013-05-04 01:37:00,76.3,14.9,29.21,NNE,30,4.0,4.4,9,-99.99,,,0.00,0,rob ver 1A,2013-05-04 08:37:00,
2013-05-04 01:38:00,71.8,27.4,29.23,ENE,75,2.7,3.2,19,-99.99,,,0.00,0,rob ver 1B,2013-05-04 08:38:00,
2013-05-04 01:39:00,71.6,27.6,29.23,East,79,2.7,3.0,19,-99.99,,,0.00,0,rob ver 1B,2013-05-04 08:39:00,
2013-05-04 01:40:00,71.5,27.4,29.23,East,84,2.6,2.9,19,-99.99,,,0.00,0,rob ver 1B,2013-05-04 08:40:00,
2013-05-04 01:41:00,71.4,27.5,29.23,ENE,77,2.7,2.9,19,-99.99,,,0.00,0,rob ver 1B,2013-05-04 08:41:00,
2013-05-04 01:42:00,76.3,15.0,29.21,NNE,32,3.6,4.2,9,-99.99,,,0.00,0,rob ver 1A,2013-05-04 08:42:00,
2013-05-04 01:43:00,71.3,27.3,29.23,East,82,2.6,3.0,19,-99.99,,,0.00,0,rob ver 1B,2013-05-04 08:43:00,
2013-05-04 01:44:00,71.3,27.2,29.23,East,90,2.2,2.7,19,-99.99,,,0.00,0,rob ver 1B,2013-05-04 08:44:00,
2013-05-04 01:45:00,71.4,27.0,29.23,East,99,2.2,2.5,18,-99.99,,,0.00,0,rob ver 1B,2013-05-04 08:45:00,
2013-05-04 01:46:00,71.4,26.8,29.23,ESE,110,2.0,2.6,18,-99.99,,,0.00,0,rob ver 1B,2013-05-04 08:46:00,
2013-05-04 01:47:00,76.7,15.2,29.21,NNE,32,3.7,4.1,9,-99.99,,,0.00,0,rob ver 1A,2013-05-04 08:47:00,
2013-05-04 01:48:00,71.5,26.5,29.23,SE,135,1.7,2.6,18,-99.99,,,0.00,0,rob ver 1B,2013-05-04 08:48:00,
2013-05-04 01:49:00,71.4,26.5,29.23,SE,144,1.7,2.4,18,-99.99,,,0.00,0,rob ver 1B,2013-05-04 08:49:00,
2013-05-04 01:50:00,71.3,26.5,29.23,SSE,163,1.5,2.1,18,-99.99,,,0.00,0,rob ver 1B,2013-05-04 08:50:00,
2013-05-04 01:51:00,71.2,26.3,29.23,South,175,1.6,2.2,18,-99.99,,,0.00,0,rob ver 1B,2013-05-04 08:51:00,
2013-05-04 01:52:00,77.4,15.5,29.21,NE,35,4.9,5.2,9,-99.99,,,0.00,0,rob ver 1A,2013-05-04 08:52:00,
2013-05-04 01:53:00,71.0,26.3,29.23,SW,230,1.4,2.1,18,-99.99,,,0.00,0,rob ver 1B,2013-05-04 08:53:00,
2013-05-04 01:54:00,71.0,26.6,29.23,West,281,1.8,2.5,19,-99.99,,,0.00,0,rob ver 1B,2013-05-04 08:54:00,
2013-05-04 01:55:00,70.9,26.6,29.23,West,272,2.0,2.5,19,-99.99,,,0.00,0,rob ver 1B,2013-05-04 08:55:00,
2013-05-04 01:56:00,70.9,26.6,29.23,West,274,2.1,3.0,19,-99.99,,,0.00,0,rob ver 1B,2013-05-04 08:56:00,
2013-05-04 01:57:00,77.5,15.5,29.21,NE,38,5.1,5.5,9,-99.99,,,0.00,0,rob ver 1A,2013-05-04 08:57:00,
2013-05-04 01:58:00,70.6,26.1,29.23,WSW,246,2.4,3.4,18,-99.99,,,0.00,0,rob ver 1B,2013-05-04 08:58:00,
2013-05-04 01:59:00,70.7,25.5,29.23,WSW,248,2.7,4.5,17,-99.99,,,0.00,0,rob ver 1B,2013-05-04 08:59:00,
2013-05-04 02:00:00,71.0,25.2,29.23,WSW,242,2.3,4.3,17,-99.99,,,0.00,0,rob ver 1B,2013-05-04 09:00:00,
2013-05-04 02:01:00,71.2,25.0,29.23,SW,223,2.4,4.5,17,-99.99,,,0.00,0,rob ver 1B,2013-05-04 09:01:00,
2013-05-04 02:02:00,77.1,15.4,29.21,NE,37,4.6,5.1,9,-99.99,,,0.00,0,rob ver 1A,2013-05-04 09:02:00,
2013-05-04 02:03:00,71.4,25.0,29.23,SSW,213,2.0,3.5,17,-99.99,,,0.00,0,rob ver 1B,2013-05-04 09:03:00,
2013-05-04 02:04:00,71.4,24.9,29.23,SSW,201,1.5,2.2,17,-99.99,,,0.00,0,rob ver 1B,2013-05-04 09:04:00,
2013-05-04 02:05:00,71.5,24.9,29.23,South,187,2.1,3.1,17,-99.99,,,0.00,0,rob ver 1B,2013-05-04 09:05:00,
2013-05-04 02:06:00,71.5,25.0,29.23,SSW,204,2.2,2.9,17,-99.99,,,0.00,0,rob ver 1B,2013-05-04 09:06:00,
2013-05-04 02:07:00,76.8,15.3,29.21,NNE,33,4.3,4.9,9,-99.99,,,0.00,0,rob ver 1A,2013-05-04 09:07:00,
2013-05-04 02:08:00,71.5,24.9,29.23,SSW,203,1.8,2.5,17,-99.99,,,0.00,0,rob ver 1B,2013-05-04 09:08:00,
2013-05-04 02:09:00,71.5,24.9,29.23,SSW,199,1.6,2.8,17,-99.99,,,0.00,0,rob ver 1B,2013-05-04 09:09:00,
2013-05-04 02:10:00,71.5,25.0,29.21,South,188,1.7,2.3,17,-99.99,,,0.00,0,rob ver 1B,2013-05-04 09:10:00,
2013-05-04 02:11:00,71.4,24.9,29.23,South,183,1.7,2.1,17,-99.99,,,0.00,0,rob ver 1B,2013-05-04 09:11:00,
2013-05-04 02:12:00,76.8,15.5,29.21,NE,35,3.8,4.4,9,-99.99,,,0.00,0,rob ver 1A,2013-05-04 09:12:00,
2013-05-04 02:13:00,71.5,24.9,29.23,SSE,165,2.8,3.8,17,-99.99,,,0.00,0,rob ver 1B,2013-05-04 09:13:00,
2013-05-04 02:14:00,71.6,24.8,29.23,SSE,164,2.8,4.3,17,-99.99,,,0.00,0,rob ver 1B,2013-05-04 09:14:00,
2013-05-04 02:15:00,71.7,24.8,29.21,SSE,159,3.2,4.2,17,-99.99,,,0.00,0,rob ver 1B,2013-05-04 09:15:00,
2013-05-04 02:16:00,71.8,24.8,29.23,SSE,161,3.0,3.6,17,-99.99,,,0.00,0,rob ver 1B,2013-05-04 09:16:00,
2013-05-04 02:17:00,77.1,15.7,29.21,NE,36,3.9,4.4,9,-99.99,,,0.00,0,rob ver 1A,2013-05-04 09:17:00,
2013-05-04 02:18:00,71.7,24.7,29.23,SSE,163,2.9,3.7,17,-99.99,,,0.00,0,rob ver 1B,2013-05-04 09:18:00,
2013-05-04 02:19:00,71.6,24.7,29.23,SSE,166,2.9,3.4,17,-99.99,,,0.00,0,rob ver 1B,2013-05-04 09:19:00,
2013-05-04 02:20:00,71.5,24.7,29.23,South,169,2.9,3.4,17,-99.99,,,0.00,0,rob ver 1B,2013-05-04 09:20:00,
2013-05-04 02:21:00,71.4,24.7,29.23,South,172,2.9,3.3,17,-99.99,,,0.00,0,rob ver 1B,2013-05-04 09:21:00,
2013-05-04 02:22:00,77.3,15.7,29.21,NE,36,4.6,4.9,9,-99.99,,,0.00,0,rob ver 1A,2013-05-04 09:22:00,
2013-05-04 02:23:00,71.2,24.7,29.23,South,183,2.9,3.5,17,-99.99,,,0.00,0,rob ver 1B,2013-05-04 09:23:00,
2013-05-04 02:24:00,71.0,24.7,29.23,South,184,3.1,3.6,17,-99.99,,,0.00,0,rob ver 1B,2013-05-04 09:24:00,
2013-05-04 02:25:00,70.9,24.7,29.23,South,185,3.2,3.5,17,-99.99,,,0.00,0,rob ver 1B,2013-05-04 09:25:00,
2013-05-04 02:26:00,70.8,24.7,29.23,South,182,3.1,3.5,17,-99.99,,,0.00,0,rob ver 1B,2013-05-04 09:26:00,
2013-05-04 02:27:00,77.0,15.4,29.18,NE,41,4.8,5.4,9,-99.99,,,0.00,0,rob ver 1A,2013-05-04 09:27:00,
2013-05-04 02:28:00,70.5,24.8,29.23,South,183,3.3,3.6,17,-99.99,,,0.00,0,rob ver 1B,2013-05-04 09:28:00,
2013-05-04 02:29:00,70.3,24.9,29.23,South,188,3.4,3.8,18,-99.99,,,0.00,0,rob ver 1B,2013-05-04 09:29:00,
2013-05-04 02:30:00,70.3,25.1,29.23,South,189,3.1,3.8,18,-99.99,,,0.00,0,rob ver 1B,2013-05-04 09:30:00,
2013-05-04 02:31:00,70.1,25.2,29.23,South,189,3.6,4.2,18,-99.99,,,0.00,0,rob ver 1B,2013-05-04 09:31:00,
2013-05-04 02:32:00,76.4,15.1,29.18,NE,40,4.9,5.5,9,-99.99,,,0.00,0,rob ver 1A,2013-05-04 09:32:00,
2013-05-04 02:33:00,70.0,25.8,29.23,South,191,3.9,4.9,19,-99.99,,,0.00,0,rob ver 1B,2013-05-04 09:33:00,
2013-05-04 02:34:00,70.0,26.1,29.23,South,189,3.9,4.7,19,-99.99,,,0.00,0,rob ver 1B,2013-05-04 09:34:00,
2013-05-04 02:35:00,70.0,26.3,29.23,South,184,4.0,5.1,19,-99.99,,,0.00,0,rob ver 1B,2013-05-04 09:35:00,
2013-05-04 02:36:00,70.0,26.5,29.23,South,182,4.3,5.3,19,-99.99,,,0.00,0,rob ver 1B,2013-05-04 09:36:00,
2013-05-04 02:37:00,75.7,14.9,29.18,NE,39,5.0,6.1,9,-99.99,,,0.00,0,rob ver 1A,2013-05-04 09:37:00,
2013-05-04 02:38:00,70.0,26.8,29.23,South,181,4.3,5.1,19,-99.99,,,0.00,0,rob ver 1B,2013-05-04 09:38:00,
2013-05-04 02:39:00,70.0,26.7,29.23,South,182,4.3,5.3,19,-99.99,,,0.00,0,rob ver 1B,2013-05-04 09:39:00,
2013-05-04 02:40:00,70.0,26.7,29.23,South,180,4.0,5.1,19,-99.99,,,0.00,0,rob ver 1B,2013-05-04 09:40:00,
2013-05-04 02:41:00,70.1,26.6,29.23,South,181,4.3,5.3,19,-99.99,,,0.00,0,rob ver 1B,2013-05-04 09:41:00,
2013-05-04 02:42:00,75.3,14.8,29.18,NE,44,4.5,5.1,9,-99.99,,,0.00,0,rob ver 1A,2013-05-04 09:42:00,
2013-05-04 02:43:00,70.2,26.2,29.23,South,189,4.1,5.2,19,-99.99,,,0.00,0,rob ver 1B,2013-05-04 09:43:00,
2013-05-04 02:44:00,70.2,26.0,29.23,SSW,195,3.8,5.5,18,-99.99,,,0.00,0,rob ver 1B,2013-05-04 09:44:00,
2013-05-04 02:45:00,70.2,25.8,29.23,SSW,194,4.5,6.7,18,-99.99,,,0.00,0,rob ver 1B,2013-05-04 09:45:00,
2013-05-04 02:46:00,70.3,25.6,29.23,SSW,199,4.1,5.5,18,-99.99,,,0.00,0,rob ver 1B,2013-05-04 09:46:00,
2013-05-04 02:47:00,74.7,14.4,29.18,ESE,112,4.4,5.4,10,-99.99,,,0.00,0,rob ver 1A,2013-05-04 09:47:00,
2013-05-04 02:48:00,70.2,25.4,29.23,SW,215,3.5,4.5,18,-99.99,,,0.00,0,rob ver 1B,2013-05-04 09:48:00,
2013-05-04 02:49:00,70.2,25.4,29.23,SW,222,3.0,4.2,18,-99.99,,,0.00,0,rob ver 1B,2013-05-04 09:49:00,
2013-05-04 02:50:00,70.3,25.3,29.23,SW,223,2.3,2.9,18,-99.99,,,0.00,0,rob ver 1B,2013-05-04 09:50:00,
2013-05-04 02:51:00,70.2,25.3,29.23,SW,224,1.2,2.0,18,-99.99,,,0.00,0,rob ver 1B,2013-05-04 09:51:00,
2013-05-04 02:52:00,74.5,14.4,29.18,ENE,57,4.4,5.3,10,-99.99,,,0.00,0,rob ver 1A,2013-05-04 09:52:00,
2013-05-04 02:53:00,70.1,25.2,29.23,ENE,73,0.4,1.4,18,-99.99,,,0.00,0,rob ver 1B,2013-05-04 09:53:00,
2013-05-04 02:54:00,70.1,25.3,29.23,NE,56,1.1,1.6,18,-99.99,,,0.00,0,rob ver 1B,2013-05-04 09:54:00,
2013-05-04 02:55:00,70.0,25.4,29.23,ENE,60,1.0,1.5,18,-99.99,,,0.00,0,rob ver 1B,2013-05-04 09:55:00,
2013-05-04 02:56:00,69.9,25.4,29.23,NE,40,1.4,1.9,18,-99.99,,,0.00,0,rob ver 1B,2013-05-04 09:56:00,
2013-05-04 02:57:00,73.8,14.3,29.18,NE,41,5.0,5.8,10,-99.99,,,0.00,0,rob ver 1A,2013-05-04 09:57:00,
2013-05-04 02:58:00,69.8,25.4,29.23,NE,55,2.0,2.7,18,-99.99,,,0.00,0,rob ver 1B,2013-05-04 09:58:00,
2013-05-04 02:59:00,69.7,25.4,29.23,NE,56,2.9,3.8,18,-99.99,,,0.00,0,rob ver 1B,2013-05-04 09:59:00,
2013-05-04 03:00:00,69.7,25.5,29.23,NE,41,2.7,3.7,19,-99.99,,,0.00,0,rob ver 1B,2013-05-04 10:00:00,
2013-05-04 03:01:00,69.7,25.5,29.23,NE,45,2.7,3.3,19,-99.99,,,0.00,0,rob ver 1B,2013-05-04 10:01:00,
2013-05-04 03:02:00,74.0,14.4,29.18,NNE,29,6.3,7.2,10,-99.99,,,0.00,0,rob ver 1A,2013-05-04 10:02:00,
2013-05-04 03:03:00,69.5,25.7,29.23,NE,47,3.7,4.5,19,-99.99,,,0.00,0,rob ver 1B,2013-05-04 10:03:00,
2013-05-04 03:04:00,69.5,25.6,29.23,NE,50,3.6,4.6,19,-99.99,,,0.00,0,rob ver 1B,2013-05-04 10:04:00,
2013-05-04 03:05:00,69.6,25.7,29.23,ENE,58,3.3,4.1,19,-99.99,,,0.00,0,rob ver 1B,2013-05-04 10:05:00,
2013-05-04 03:06:00,69.5,25.6,29.23,ENE,66,3.1,3.6,19,-99.99,,,0.00,0,rob ver 1B,2013-05-04 10:06:00,
2013-05-04 03:07:00,74.5,14.5,29.18,NNE,30,4.8,5.6,10,-99.99,,,0.00,0,rob ver 1A,2013-05-04 10:07:00,
2013-05-04 03:08:00,69.3,25.9,29.23,NE,50,3.8,4.7,19,-99.99,,,0.00,0,rob ver 1B,2013-05-04 10:08:00,
2013-05-04 03:09:00,69.3,26.0,29.23,NE,48,4.1,4.9,19,-99.99,,,0.00,0,rob ver 1B,2013-05-04 10:09:00,
2013-05-04 03:10:00,69.0,26.0,29.23,NE,54,3.7,5.3,19,-99.99,,,0.00,0,rob ver 1B,2013-05-04 10:10:00,
2013-05-04 03:11:00,68.9,26.0,29.23,ENE,62,2.6,3.8,19,-99.99,,,0.00,0,rob ver 1B,2013-05-04 10:11:00,
2013-05-04 03:12:00,74.9,14.6,29.18,NE,35,4.6,5.3,9,-99.99,,,0.00,0,rob ver 1A,2013-05-04 10:12:00,
2013-05-04 03:13:00,69.2,25.7,29.23,East,84,3.5,4.6,19,-99.99,,,0.00,0,rob ver 1B,2013-05-04 10:13:00,
2013-05-04 03:14:00,69.7,25.6,29.23,East,85,3.3,5.6,18,-99.99,,,0.00,0,rob ver 1B,2013-05-04 10:14:00,
2013-05-04 03:15:00,70.0,25.6,29.23,East,85,3.6,4.6,18,-99.99,,,0.00,0,rob ver 1B,2013-05-04 10:15:00,
2013-05-04 03:16:00,70.2,25.5,29.23,East,88,3.2,4.6,18,-99.99,,,0.00,0,rob ver 1B,2013-05-04 10:16:00,
2013-05-04 03:17:00,70.3,25.3,29.23,East,100,3.6,4.6,18,-99.99,,,0.00,0,rob ver 1B,2013-05-04 10:17:00,
2013-05-04 03:18:00,75.0,14.6,29.18,NE,40,4.5,5.2,9,-99.99,,,0.00,0,rob ver 1A,2013-05-04 10:18:00,
2013-05-04 03:19:00,70.3,25.3,29.23,SE,128,4.3,5.3,18,-99.99,,,0.00,0,rob ver 1B,2013-05-04 10:19:00,
2013-05-04 03:20:00,70.4,25.2,29.23,ESE,118,3.6,4.5,18,-99.99,,,0.00,0,rob ver 1B,2013-05-04 10:20:00,
2013-05-04 03:21:00,70.4,25.2,29.23,ESE,114,3.1,4.7,18,-99.99,,,0.00,0,rob ver 1B,2013-05-04 10:21:00,
2013-05-04 03:22:00,70.4,24.9,29.23,SE,128,3.3,4.0,18,-99.99,,,0.00,0,rob ver 1B,2013-05-04 10:22:00,
2013-05-04 03:23:00,74.7,14.4,29.21,NE,43,4.2,5.1,10,-99.99,,,0.00,0,rob ver 1A,2013-05-04 10:23:00,
2013-05-04 03:24:00,70.4,24.9,29.23,SSE,149,4.1,5.1,17,-99.99,,,0.00,0,rob ver 1B,2013-05-04 10:24:00,
2013-05-04 03:25:00,70.6,24.9,29.23,SSE,148,4.4,5.0,17,-99.99,,,0.00,0,rob ver 1B,2013-05-04 10:25:00,
2013-05-04 03:26:00,70.8,24.8,29.23,SSE,149,4.2,5.1,17,-99.99,,,0.00,0,rob ver 1B,2013-05-04 10:26:00,
2013-05-04 03:27:00,70.8,24.8,29.23,SSE,147,4.5,5.4,17,-99.99,,,0.00,0,rob ver 1B,2013-05-04 10:27:00,
2013-05-04 03:28:00,74.1,14.3,29.18,NE,39,4.9,5.6,10,-99.99,,,0.00,0,rob ver 1A,2013-05-04 10:28:00,
2013-05-04 03:29:00,70.6,24.9,29.23,ESE,120,3.2,4.2,17,-99.99,,,0.00,0,rob ver 1B,2013-05-04 10:29:00,
2013-05-04 03:30:00,70.4,24.9,29.23,ESE,110,3.0,3.6,18,-99.99,,,0.00,0,rob ver 1B,2013-05-04 10:30:00,
2013-05-04 03:31:00,70.2,24.9,29.23,ESE,114,2.9,3.2,18,-99.99,,,0.00,0,rob ver 1B,2013-05-04 10:31:00,
2013-05-04 03:32:00,70.2,24.9,29.23,East,98,2.5,3.1,18,-99.99,,,0.00,0,rob ver 1B,2013-05-04 10:32:00,
2013-05-04 03:33:00,73.4,14.1,29.18,NNE,29,5.0,5.8,10,-99.99,,,0.00,0,rob ver 1A,2013-05-04 10:33:00,
2013-05-04 03:34:00,70.0,25.0,29.23,East,87,2.6,3.0,18,-99.99,,,0.00,0,rob ver 1B,2013-05-04 10:34:00,
2013-05-04 03:35:00,69.9,25.0,29.23,East,82,2.6,3.3,18,-99.99,,,0.00,0,rob ver 1B,2013-05-04 10:35:00,
2013-05-04 03:36:00,69.9,25.1,29.23,East,83,3.2,3.9,18,-99.99,,,0.00,0,rob ver 1B,2013-05-04 10:36:00,
2013-05-04 03:37:00,69.9,25.0,29.23,ENE,77,3.2,4.2,18,-99.99,,,0.00,0,rob ver 1B,2013-05-04 10:37:00,
2013-05-04 03:38:00,74.2,14.4,29.18,NNE,25,5.3,5.7,10,-99.99,,,0.00,0,rob ver 1A,2013-05-04 10:38:00,
2013-05-04 03:39:00,69.9,25.1,29.23,East,82,1.5,2.0,18,-99.99,,,0.00,0,rob ver 1B,2013-05-04 10:39:00,
2013-05-04 03:40:00,69.9,25.0,29.23,East,79,1.6,2.2,18,-99.99,,,0.00,0,rob ver 1B,2013-05-04 10:40:00,
2013-05-04 03:41:00,69.9,25.0,29.23,East,80,1.2,1.6,18,-99.99,,,0.00,0,rob ver 1B,2013-05-04 10:41:00,
2013-05-04 03:42:00,69.9,25.0,29.23,East,82,1.0,1.5,18,-99.99,,,0.00,0,rob ver 1B,2013-05-04 10:42:00,
2013-05-04 03:43:00,74.6,14.4,29.18,NNE,32,3.8,5.0,9,-99.99,,,0.00,0,rob ver 1A,2013-05-04 10:43:00,
2013-05-04 03:44:00,69.9,25.0,29.23,East,100,0.6,1.2,18,-99.99,,,0.00,0,rob ver 1B,2013-05-04 10:44:00,
2013-05-04 03:45:00,69.9,25.0,29.23,SE,128,0.9,1.2,18,-99.99,,,0.00,0,rob ver 1B,2013-05-04 10:45:00,
2013-05-04 03:46:00,70.0,25.0,29.23,SE,143,1.0,1.3,18,-99.99,,,0.00,0,rob ver 1B,2013-05-04 10:46:00,
2013-05-04 03:47:00,70.0,25.0,29.23,SSE,154,1.0,1.3,18,-99.99,,,0.00,0,rob ver 1B,2013-05-04 10:47:00,
2013-05-04 03:48:00,73.8,14.1,29.18,SE,124,2.2,3.0,10,-99.99,,,0.00,0,rob ver 1A,2013-05-04 10:48:00,
2013-05-04 03:49:00,70.0,25.0,29.23,East,100,1.0,1.2,18,-99.99,,,0.00,0,rob ver 1B,2013-05-04 10:49:00,
2013-05-04 03:50:00,70.0,25.0,29.23,East,98,1.4,1.5,18,-99.99,,,0.00,0,rob ver 1B,2013-05-04 10:50:00,
2013-05-04 03:51:00,70.0,25.1,29.23,ESE,105,1.5,1.6,18,-99.99,,,0.00,0,rob ver 1B,2013-05-04 10:51:00,
2013-05-04 03:52:00,70.1,25.1,29.23,ESE,107,1.0,1.3,18,-99.99,,,0.00,0,rob ver 1B,2013-05-04 10:52:00,
2013-05-04 03:53:00,73.0,13.9,29.18,East,80,2.4,3.0,10,-99.99,,,0.00,0,rob ver 1A,2013-05-04 10:53:00,
2013-05-04 03:54:00,70.1,25.1,29.23,ESE,104,0.9,1.2,18,-99.99,,,0.00,0,rob ver 1B,2013-05-04 10:54:00,
2013-05-04 03:55:00,70.1,25.0,29.23,East,90,1.2,1.3,18,-99.99,,,0.00,0,rob ver 1B,2013-05-04 10:55:00,
2013-05-04 03:56:00,70.1,25.1,29.23,ENE,72,1.5,1.8,18,-99.99,,,0.00,0,rob ver 1B,2013-05-04 10:56:00,
2013-05-04 03:57:00,70.0,25.0,29.23,NE,56,1.4,1.6,18,-99.99,,,0.00,0,rob ver 1B,2013-05-04 10:57:00,
2013-05-04 03:58:00,72.2,13.7,29.18,East,83,3.4,3.8,10,-99.99,,,0.00,0,rob ver 1A,2013-05-04 10:58:00,
2013-05-04 03:59:00,69.8,25.0,29.23,NE,36,2.1,2.6,18,-99.99,,,0.00,0,rob ver 1B,2013-05-04 10:59:00,
2013-05-04 04:00:00,69.7,24.9,29.23,NE,44,2.9,3.2,18,-99.99,,,0.00,0,rob ver 1B,2013-05-04 11:00:00,
2013-05-04 04:01:00,69.7,25.0,29.23,NE,51,3.2,3.4,18,-99.99,,,0.00,0,rob ver 1B,2013-05-04 11:01:00,
2013-05-04 04:02:00,69.7,25.0,29.23,NE,56,2.9,3.3,18,-99.99,,,0.00,0,rob ver 1B,2013-05-04 11:02:00,
2013-05-04 04:03:00,71.9,13.7,29.18,ENE,62,3.5,4.0,10,-99.99,,,0.00,0,rob ver 1A,2013-05-04 11:03:00,
2013-05-04 04:04:00,69.6,25.1,29.23,ENE,66,3.1,3.7,18,-99.99,,,0.00,0,rob ver 1B,2013-05-04 11:04:00,
2013-05-04 04:05:00,69.5,25.2,29.23,ENE,70,3.6,4.1,18,-99.99,,,0.00,0,rob ver 1B,2013-05-04 11:05:00,
2013-05-04 04:06:00,69.4,25.4,29.23,ENE,74,4.3,4.7,19,-99.99,,,0.00,0,rob ver 1B,2013-05-04 11:06:00,
2013-05-04 04:07:00,69.4,25.5,29.23,ENE,78,4.7,5.3,19,-99.99,,,0.00,0,rob ver 1B,2013-05-04 11:07:00,
2013-05-04 04:08:00,72.1,13.8,29.18,NE,45,4.0,4.7,10,-99.99,,,0.00,0,rob ver 1A,2013-05-04 11:08:00,
2013-05-04 04:09:00,69.4,25.7,29.23,East,83,4.4,5.3,19,-99.99,,,0.00,0,rob ver 1B,2013-05-04 11:09:00,
2013-05-04 04:10:00,69.4,25.6,29.23,East,84,3.9,4.9,19,-99.99,,,0.00,0,rob ver 1B,2013-05-04 11:10:00,
2013-05-04 04:11:00,69.3,25.7,29.23,East,87,3.7,4.1,19,-99.99,,,0.00,0,rob ver 1B,2013-05-04 11:11:00,
2013-05-04 04:12:00,69.3,25.7,29.23,East,92,3.9,4.3,19,-99.99,,,0.00,0,rob ver 1B,2013-05-04 11:12:00,
2013-05-04 04:13:00,72.8,13.9,29.18,NE,40,3.9,5.0,10,-99.99,,,0.00,0,rob ver 1A,2013-05-04 11:13:00,
2013-05-04 04:14:00,69.3,25.8,29.23,East,99,5.0,5.5,19,-99.99,,,0.00,0,rob ver 1B,2013-05-04 11:14:00,
2013-05-04 04:15:00,69.4,25.9,29.23,ESE,105,5.2,5.5,19,-99.99,,,0.00,0,rob ver 1B,2013-05-04 11:15:00,
2013-05-04 04:16:00,69.5,25.8,29.23,ESE,105,5.4,5.9,19,-99.99,,,0.00,0,rob ver 1B,2013-05-04 11:16:00,
2013-05-04 04:17:00,69.4,25.8,29.23,ESE,104,5.6,5.9,19,-99.99,,,0.00,0,rob ver 1B,2013-05-04 11:17:00,
2013-05-04 04:18:00,72.9,13.8,29.18,NE,36,4.5,5.2,10,-99.99,,,0.00,0,rob ver 1A,2013-05-04 11:18:00,
2013-05-04 04:19:00,69.2,25.7,29.23,East,95,4.6,5.5,19,-99.99,,,0.00,0,rob ver 1B,2013-05-04 11:19:00,
2013-05-04 04:20:00,69.2,25.7,29.23,East,89,4.0,4.6,19,-99.99,,,0.00,0,rob ver 1B,2013-05-04 11:20:00,
2013-05-04 04:21:00,69.1,25.8,29.23,East,89,4.6,5.2,19,-99.99,,,0.00,0,rob ver 1B,2013-05-04 11:21:00,
2013-05-04 04:22:00,69.1,25.8,29.23,East,90,4.5,5.2,19,-99.99,,,0.00,0,rob ver 1B,2013-05-04 11:22:00,
2013-05-04 04:23:00,73.0,13.8,29.18,NE,36,3.7,4.4,10,-99.99,,,0.00,0,rob ver 1A,2013-05-04 11:23:00,
2013-05-04 04:24:00,69.2,25.7,29.23,ESE,103,4.0,4.6,19,-99.99,,,0.00,0,rob ver 1B,2013-05-04 11:24:00,
2013-05-04 04:25:00,69.2,25.7,29.23,ESE,114,3.5,3.9,19,-99.99,,,0.00,0,rob ver 1B,2013-05-04 11:25:00,
2013-05-04 04:26:00,69.1,25.7,29.23,ESE,112,3.7,4.5,19,-99.99,,,0.00,0,rob ver 1B,2013-05-04 11:26:00,
2013-05-04 04:27:00,69.1,25.7,29.23,ESE,108,4.3,5.0,19,-99.99,,,0.00,0,rob ver 1B,2013-05-04 11:27:00,
2013-05-04 04:28:00,73.7,13.9,29.18,NNE,26,4.2,4.8,10,-99.99,,,0.00,0,rob ver 1A,2013-05-04 11:28:00,
2013-05-04 04:29:00,69.2,25.6,29.23,East,98,4.3,4.7,19,-99.99,,,0.00,0,rob ver 1B,2013-05-04 11:29:00,
2013-05-04 04:30:00,69.3,25.6,29.23,East,97,4.4,5.0,19,-99.99,,,0.00,0,rob ver 1B,2013-05-04 11:30:00,
2013-05-04 04:31:00,69.2,25.5,29.23,East,101,3.9,4.4,19,-99.99,,,0.00,0,rob ver 1B,2013-05-04 11:31:00,
2013-05-04 04:32:00,69.2,25.4,29.23,ESE,107,3.9,4.4,19,-99.99,,,0.00,0,rob ver 1B,2013-05-04 11:32:00,
2013-05-04 04:33:00,72.1,13.1,29.18,SE,144,3.1,3.6,10,-99.99,,,0.00,0,rob ver 1A,2013-05-04 11:33:00,
2013-05-04 04:34:00,69.2,25.4,29.23,ESE,113,3.7,4.1,19,-99.99,,,0.00,0,rob ver 1B,2013-05-04 11:34:00,
2013-05-04 04:35:00,69.2,25.3,29.23,ESE,111,3.0,3.5,19,-99.99,,,0.00,0,rob ver 1B,2013-05-04 11:35:00,
2013-05-04 04:36:00,69.2,25.3,29.23,ESE,110,2.8,3.4,19,-99.99,,,0.00,0,rob ver 1B,2013-05-04 11:36:00,
2013-05-04 04:37:00,69.1,25.3,29.23,ESE,114,2.8,3.1,19,-99.99,,,0.00,0,rob ver 1B,2013-05-04 11:37:00,
2013-05-04 04:38:00,71.3,13.3,29.18,East,82,3.9,4.9,10,-99.99,,,0.00,0,rob ver 1A,2013-05-04 11:38:00,
2013-05-04 04:39:00,69.2,25.4,29.23,ESE,114,3.1,3.5,19,-99.99,,,0.00,0,rob ver 1B,2013-05-04 11:39:00,
2013-05-04 04:40:00,69.3,25.3,29.23,ESE,111,3.4,3.7,19,-99.99,,,0.00,0,rob ver 1B,2013-05-04 11:40:00,
2013-05-04 04:41:00,69.3,25.3,29.23,ESE,106,3.6,4.0,18,-99.99,,,0.00,0,rob ver 1B,2013-05-04 11:41:00,
2013-05-04 04:42:00,69.3,25.3,29.23,ESE,102,3.3,3.8,18,-99.99,,,0.00,0,rob ver 1B,2013-05-04 11:42:00,
2013-05-04 04:43:00,71.3,13.2,29.18,ENE,57,3.2,4.3,10,-99.99,,,0.00,0,rob ver 1A,2013-05-04 11:43:00,
2013-05-04 04:44:00,69.0,25.0,29.23,ESE,112,3.4,3.8,19,-99.99,,,0.00,0,rob ver 1B,2013-05-04 11:44:00,
2013-05-04 04:45:00,68.7,25.0,29.23,ESE,117,3.8,4.2,19,-99.99,,,0.00,0,rob ver 1B,2013-05-04 11:45:00,
2013-05-04 04:46:00,68.6,25.1,29.23,ESE,119,3.8,4.2,19,-99.99,,,0.00,0,rob ver 1B,2013-05-04 11:46:00,
2013-05-04 04:47:00,68.6,25.2,29.23,ESE,123,3.7,4.1,19,-99.99,,,0.00,0,rob ver 1B,2013-05-04 11:47:00,
2013-05-04 04:48:00,70.3,13.0,29.18,NE,41,4.0,4.5,10,-99.99,,,0.00,0,rob ver 1A,2013-05-04 11:48:00,
2013-05-04 04:49:00,68.7,25.3,29.26,ESE,116,4.0,4.4,19,-99.99,,,0.00,0,rob ver 1B,2013-05-04 11:49:00,
2013-05-04 04:50:00,68.7,25.2,29.23,East,98,3.8,4.2,19,-99.99,,,0.00,0,rob ver 1B,2013-05-04 11:50:00,
2013-05-04 04:51:00,68.6,25.2,29.23,East,86,4.0,4.5,19,-99.99,,,0.00,0,rob ver 1B,2013-05-04 11:51:00,
2013-05-04 04:52:00,68.6,25.1,29.23,ENE,74,4.2,4.9,19,-99.99,,,0.00,0,rob ver 1B,2013-05-04 11:52:00,
2013-05-04 04:53:00,68.6,25.0,29.23,ENE,69,4.2,4.9,19,-99.99,,,0.00,0,rob ver 1B,2013-05-04 11:53:00,
2013-05-04 04:54:00,70.3,13.0,29.18,NE,38,5.7,6.3,10,-99.99,,,0.00,0,rob ver 1A,2013-05-04 11:54:00,
2013-05-04 04:55:00,68.5,25.1,29.26,ENE,62,4.3,5.1,19,-99.99,,,0.00,0,rob ver 1B,2013-05-04 11:55:00,
2013-05-04 04:56:00,68.4,25.0,29.26,ENE,58,4.0,4.5,19,-99.99,,,0.00,0,rob ver 1B,2013-05-04 11:56:00,
2013-05-04 04:57:00,68.3,25.0,29.23,ENE,62,3.3,4.1,19,-99.99,,,0.00,0,rob ver 1B,2013-05-04 11:57:00,
2013-05-04 04:58:00,68.2,25.0,29.26,ENE,66,2.6,3.7,19,-99.99,,,0.00,0,rob ver 1B,2013-05-04 11:58:00,
2013-05-04 04:59:00,70.9,13.0,29.18,NE,40,6.0,7.2,10,-99.99,,,0.00,0,rob ver 1A,2013-05-04 11:59:00,
2013-05-04 05:00:00,67.9,25.1,29.26,ENE,72,3.4,3.9,19,-99.99,,,0.00,0,rob ver 1B,2013-05-04 12:00:00,
2013-05-04 05:01:00,67.7,25.3,29.23,ENE,77,3.6,4.2,20,-99.99,,,0.00,0,rob ver 1B,2013-05-04 12:01:00,
2013-05-04 05:02:00,67.7,25.5,29.23,East,86,3.4,4.2,20,-99.99,,,0.00,0,rob ver 1B,2013-05-04 12:02:00,
2013-05-04 05:03:00,67.7,25.8,29.23,East,93,3.5,3.9,20,-99.99,,,0.00,0,rob ver 1B,2013-05-04 12:03:00,
2013-05-04 05:04:00,67.7,25.9,29.23,East,96,3.6,4.2,20,-99.99,,,0.00,0,rob ver 1B,2013-05-04 12:04:00,
2013-05-04 05:05:00,67.9,26.2,29.23,East,96,3.5,4.2,20,-99.99,,,0.00,0,rob ver 1B,2013-05-04 12:05:00,
2013-05-04 05:06:00,71.8,13.1,29.18,NE,42,4.9,6.2,10,-99.99,,,0.00,0,rob ver 1A,2013-05-04 12:06:00,
2013-05-04 05:07:00,68.2,26.4,29.23,East,95,3.0,3.4,20,-99.99,,,0.00,0,rob ver 1B,2013-05-04 12:07:00,
2013-05-04 05:08:00,68.2,26.4,29.23,East,89,2.5,2.9,20,-99.99,,,0.00,0,rob ver 1B,2013-05-04 12:08:00,
2013-05-04 05:09:00,68.3,26.3,29.23,East,83,2.0,2.6,20,-99.99,,,0.00,0,rob ver 1B,2013-05-04 12:09:00,
2013-05-04 05:10:00,68.3,26.3,29.23,ENE,74,1.8,2.4,20,-99.99,,,0.00,0,rob ver 1B,2013-05-04 12:10:00,
2013-05-04 05:11:00,71.6,13.1,29.18,NE,48,3.9,4.9,10,-99.99,,,0.00,0,rob ver 1A,2013-05-04 12:11:00,
2013-05-04 05:12:00,68.2,26.1,29.23,East,94,2.3,2.6,20,-99.99,,,0.00,0,rob ver 1B,2013-05-04 12:12:00,
2013-05-04 05:13:00,68.0,26.1,29.23,East,92,2.6,3.3,20,-99.99,,,0.00,0,rob ver 1B,2013-05-04 12:13:00,
2013-05-04 05:14:00,67.9,26.2,29.23,East,92,2.4,2.9,20,-99.99,,,0.00,0,rob ver 1B,2013-05-04 12:14:00,
2013-05-04 05:15:00,67.8,26.0,29.26,ESE,103,2.2,2.6,20,-99.99,,,0.00,0,rob ver 1B,2013-05-04 12:15:00,
2013-05-04 05:16:00,71.0,13.0,29.18,NE,40,5.5,6.3,10,-99.99,,,0.00,0,rob ver 1A,2013-05-04 12:16:00,
2013-05-04 05:17:00,67.4,26.2,29.23,East,87,3.2,4.4,21,-99.99,,,0.00,0,rob ver 1B,2013-05-04 12:17:00,
2013-05-04 05:18:00,67.4,26.8,29.23,East,85,4.5,5.3,21,-99.99,,,0.00,0,rob ver 1B,2013-05-04 12:18:00,
2013-05-04 05:19:00,67.6,27.1,29.23,East,81,4.2,4.9,21,-99.99,,,0.00,0,rob ver 1B,2013-05-04 12:19:00,
2013-05-04 05:20:00,67.8,27.2,29.26,East,82,4.4,5.4,21,-99.99,,,0.00,0,rob ver 1B,2013-05-04 12:20:00,
2013-05-04 05:21:00,71.2,13.0,29.18,NE,51,2.9,3.6,10,-99.99,,,0.00,0,rob ver 1A,2013-05-04 12:21:00,
2013-05-04 05:22:00,68.0,27.1,29.23,East,93,4.0,4.4,21,-99.99,,,0.00,0,rob ver 1B,2013-05-04 12:22:00,
2013-05-04 05:23:00,68.0,27.0,29.23,East,96,3.9,4.4,21,-99.99,,,0.00,0,rob ver 1B,2013-05-04 12:23:00,
2013-05-04 05:24:00,67.9,26.9,29.23,East,97,4.0,4.5,21,-99.99,,,0.00,0,rob ver 1B,2013-05-04 12:24:00,
2013-05-04 05:25:00,67.8,26.9,29.26,East,98,4.9,5.7,21,-99.99,,,0.00,0,rob ver 1B,2013-05-04 12:25:00,
2013-05-04 05:26:00,71.0,13.0,29.18,ENE,65,3.8,4.4,10,-99.99,,,0.00,0,rob ver 1A,2013-05-04 12:26:00,
2013-05-04 05:27:00,67.9,27.1,29.23,East,100,5.0,5.5,21,-99.99,,,0.00,0,rob ver 1B,2013-05-04 12:27:00,
2013-05-04 05:28:00,68.0,27.0,29.23,East,96,4.4,4.9,21,-99.99,,,0.00,0,rob ver 1B,2013-05-04 12:28:00,
2013-05-04 05:29:00,68.0,27.0,29.26,East,93,4.6,5.2,21,-99.99,,,0.00,0,rob ver 1B,2013-05-04 12:29:00,
2013-05-04 05:30:00,67.9,26.9,29.26,East,92,4.3,4.8,21,-99.99,,,0.00,.328,rob ver 1B,2013-05-04 12:30:00,
2013-05-04 05:31:00,67.9,26.8,29.26,East,98,4.1,4.6,21,-99.99,,,0.00,.328,rob ver 1B,2013-05-04 12:31:00,
2013-05-04 05:32:00,67.8,26.8,29.26,ESE,105,4.6,5.1,21,-99.99,,,0.00,.328,rob ver 1B,2013-05-04 12:32:00,
2013-05-04 05:33:00,71.0,12.8,29.18,ENE,69,3.7,4.6,10,-99.99,,,0.00,.328,rob ver 1A,2013-05-04 12:33:00,
2013-05-04 05:34:00,67.9,26.8,29.26,ESE,108,4.6,5.0,21,-99.99,,,0.00,.328,rob ver 1B,2013-05-04 12:34:00,
2013-05-04 05:35:00,67.9,26.7,29.26,ESE,107,4.8,5.1,21,-99.99,,,0.00,.328,rob ver 1B,2013-05-04 12:35:00,
2013-05-04 05:36:00,67.8,26.6,29.26,ESE,102,4.9,5.5,21,-99.99,,,0.00,.492,rob ver 1B,2013-05-04 12:36:00,
2013-05-04 05:37:00,67.7,26.6,29.26,East,94,4.6,5.2,21,-99.99,,,0.00,.985,rob ver 1B,2013-05-04 12:37:00,
2013-05-04 05:38:00,70.2,12.4,29.18,East,87,2.4,3.0,10,-99.99,,,0.00,.984,rob ver 1A,2013-05-04 12:38:00,
2013-05-04 05:39:00,67.5,26.8,29.26,East,91,4.3,5.0,21,-99.99,,,0.00,.985,rob ver 1B,2013-05-04 12:39:00,
2013-05-04 05:40:00,67.5,27.0,29.26,East,96,4.3,5.2,21,-99.99,,,0.00,.985,rob ver 1B,2013-05-04 12:40:00,
2013-05-04 05:41:00,67.6,27.2,29.26,East,101,4.1,4.8,21,-99.99,,,0.00,1.477,rob ver 1B,2013-05-04 12:41:00,
2013-05-04 05:42:00,67.6,27.4,29.26,East,101,5.1,6.4,22,-99.99,,,0.00,1.641,rob ver 1B,2013-05-04 12:42:00,
2013-05-04 05:43:00,69.7,12.5,29.18,ENE,72,2.4,3.0,10,-99.99,,,0.00,1.641,rob ver 1A,2013-05-04 12:43:00,
2013-05-04 05:44:00,67.7,28.0,29.26,ESE,108,4.9,5.5,22,-99.99,,,0.00,2.297,rob ver 1B,2013-05-04 12:44:00,
2013-05-04 05:45:00,67.7,28.2,29.26,ESE,110,4.7,5.2,22,-99.99,,,0.00,2.297,rob ver 1B,2013-05-04 12:45:00,
2013-05-04 05:46:00,67.7,28.2,29.26,ESE,112,4.4,5.0,22,-99.99,,,0.00,2.297,rob ver 1B,2013-05-04 12:46:00,
2013-05-04 05:47:00,67.7,28.2,29.26,ESE,110,4.2,4.6,22,-99.99,,,0.00,2.626,rob ver 1B,2013-05-04 12:47:00,
2013-05-04 05:48:00,69.4,12.3,29.18,ENE,63,3.2,3.5,10,-99.99,,,0.00,3.281,rob ver 1A,2013-05-04 12:48:00,
2013-05-04 05:49:00,67.6,28.3,29.26,ESE,110,4.2,4.8,22,-99.99,,,0.00,2.954,rob ver 1B,2013-05-04 12:49:00,
2013-05-04 05:50:00,67.7,28.5,29.26,ESE,110,4.0,4.5,22,-99.99,,,0.00,3.118,rob ver 1B,2013-05-04 12:50:00,
2013-05-04 05:51:00,67.7,28.5,29.26,ESE,105,4.0,4.7,22,-99.99,,,0.00,3.282,rob ver 1B,2013-05-04 12:51:00,
2013-05-04 05:52:00,67.7,28.3,29.26,ESE,104,4.3,5.3,22,-99.99,,,0.00,3.939,rob ver 1B,2013-05-04 12:52:00,
2013-05-04 05:53:00,69.6,12.2,29.18,East,79,3.4,4.0,10,-99.99,,,0.00,6.563,rob ver 1A,2013-05-04 12:53:00,
2013-05-04 05:54:00,67.7,28.6,29.26,ESE,105,5.5,6.0,23,-99.99,,,0.00,4.595,rob ver 1B,2013-05-04 12:54:00,
2013-05-04 05:55:00,67.7,28.7,29.26,ESE,105,5.5,6.2,23,-99.99,,,0.00,4.923,rob ver 1B,2013-05-04 12:55:00,
2013-05-04 05:56:00,67.8,28.6,29.26,ESE,102,4.8,5.9,22,-99.99,,,0.00,5.58,rob ver 1B,2013-05-04 12:56:00,
2013-05-04 05:57:00,67.7,28.5,29.26,East,101,4.8,5.3,22,-99.99,,,0.00,6.564,rob ver 1B,2013-05-04 12:57:00,
2013-05-04 05:58:00,69.7,12.4,29.18,ENE,63,4.2,5.7,10,-99.99,,,0.00,9.19,rob ver 1A,2013-05-04 12:58:00,
2013-05-04 05:59:00,67.7,28.5,29.26,East,96,5.1,5.7,22,-99.99,,,0.00,7.88,rob ver 1B,2013-05-04 12:59:00,
2013-05-04 06:00:00,67.7,28.4,29.26,East,96,5.1,5.9,22,-99.99,,,0.00,9.19,rob ver 1B,2013-05-04 13:00:00,
2013-05-04 06:01:00,67.7,28.4,29.26,East,94,5.2,5.8,22,-99.99,,,0.00,9.85,rob ver 1B,2013-05-04 13:01:00,
2013-05-04 06:02:00,67.7,28.3,29.26,East,94,5.7,6.3,22,-99.99,,,0.00,11.16,rob ver 1B,2013-05-04 13:02:00,
2013-05-04 06:03:00,70.1,12.5,29.18,East,87,4.2,5.3,10,-99.99,,,0.00,12.47,rob ver 1A,2013-05-04 13:03:00,
2013-05-04 06:04:00,67.7,28.2,29.26,East,93,5.8,6.7,22,-99.99,,,0.00,13.95,rob ver 1B,2013-05-04 13:04:00,
2013-05-04 06:05:00,69.6,12.3,29.18,East,96,3.9,4.6,10,-99.99,,,0.00,13.78,rob ver 1A,2013-05-04 13:05:00,
2013-05-04 06:06:00,67.7,28.1,29.26,East,90,5.4,6.3,22,-99.99,,,0.00,11.82,rob ver 1B,2013-05-04 13:06:00,
2013-05-04 06:07:00,67.7,28.0,29.26,East,84,5.6,6.6,22,-99.99,,,0.00,11.49,rob ver 1B,2013-05-04 13:07:00,
2013-05-04 06:08:00,67.7,28.0,29.26,East,79,5.4,6.4,22,-99.99,,,0.00,11.16,rob ver 1B,2013-05-04 13:08:00,
2013-05-04 06:09:00,67.7,28.0,29.26,ENE,74,5.2,6.5,22,-99.99,,,0.00,11.82,rob ver 1B,2013-05-04 13:09:00,
2013-05-04 06:10:00,69.0,12.1,29.18,East,86,3.4,4.0,11,-99.99,,,0.00,21,rob ver 1A,2013-05-04 13:10:00,
2013-05-04 06:11:00,67.7,27.9,29.26,ENE,66,4.0,5.5,22,-99.99,,,0.00,13.13,rob ver 1B,2013-05-04 13:11:00,
2013-05-04 06:12:00,67.6,27.8,29.26,ENE,65,3.9,5.0,22,-99.99,,,0.00,14.44,rob ver 1B,2013-05-04 13:12:00,
2013-05-04 06:13:00,67.6,27.7,29.26,ENE,64,4.4,5.8,22,-99.99,,,0.00,15.75,rob ver 1B,2013-05-04 13:13:00,
2013-05-04 06:14:00,67.6,27.7,29.26,ENE,64,4.4,5.9,22,-99.99,,,0.00,17.07,rob ver 1B,2013-05-04 13:14:00,
2013-05-04 06:15:00,69.6,12.3,29.18,ENE,62,4.2,5.1,10,-99.99,,,0.00,29.54,rob ver 1A,2013-05-04 13:15:00,
2013-05-04 06:16:00,67.6,27.6,29.26,ENE,67,3.5,5.0,22,-99.99,,,0.00,19.04,rob ver 1B,2013-05-04 13:16:00,
2013-05-04 06:17:00,67.6,27.6,29.26,ENE,72,4.0,5.2,22,-99.99,,,0.00,20.35,rob ver 1B,2013-05-04 13:17:00,
2013-05-04 06:18:00,67.6,27.6,29.26,East,79,4.4,5.5,22,-99.99,,,0.00,21.66,rob ver 1B,2013-05-04 13:18:00,
2013-05-04 06:19:00,67.7,27.5,29.26,East,85,4.3,5.3,21,-99.99,,,0.00,23.63,rob ver 1B,2013-05-04 13:19:00,
2013-05-04 06:20:00,69.6,12.4,29.18,ENE,57,4.5,5.6,10,-99.99,,,0.00,50.54,rob ver 1A,2013-05-04 13:20:00,
2013-05-04 06:21:00,67.8,27.4,29.26,East,86,4.4,5.4,21,-99.99,,,0.00,27.24,rob ver 1B,2013-05-04 13:21:00,
2013-05-04 06:22:00,67.9,27.3,29.29,East,87,4.2,4.7,21,-99.99,,,0.00,29.54,rob ver 1B,2013-05-04 13:22:00,
2013-05-04 06:23:00,68.0,27.4,29.26,East,88,4.6,5.9,21,-99.99,,,0.00,31.84,rob ver 1B,2013-05-04 13:23:00,
2013-05-04 06:24:00,68.0,27.4,29.26,East,88,4.9,5.8,21,-99.99,,,0.00,34.79,rob ver 1B,2013-05-04 13:24:00,
2013-05-04 06:25:00,68.1,27.5,29.26,East,86,5.2,6.6,21,-99.99,,,0.00,37.42,rob ver 1B,2013-05-04 13:25:00,
2013-05-04 06:26:00,69.7,12.5,29.18,ENE,57,4.5,5.1,10,-99.99,,,0.00,44.63,rob ver 1A,2013-05-04 13:26:00,
2013-05-04 06:27:00,68.4,27.9,29.29,East,82,5.7,7.2,21,-99.99,,,0.00,43.98,rob ver 1B,2013-05-04 13:27:00,
2013-05-04 06:28:00,68.4,28.3,29.29,East,82,5.9,7.5,22,-99.99,,,0.00,47.26,rob ver 1B,2013-05-04 13:28:00,
2013-05-04 06:29:00,68.5,28.6,29.29,East,85,6.0,7.1,22,-99.99,,,0.00,49.89,rob ver 1B,2013-05-04 13:29:00,
2013-05-04 06:30:00,68.5,29.0,29.26,East,86,6.0,7.0,22,-99.99,,,0.00,52.35,rob ver 1B,2013-05-04 13:30:00,
2013-05-04 06:31:00,69.8,12.7,29.18,NE,50,4.7,6.0,10,-99.99,,,0.00,45.95,rob ver 1A,2013-05-04 13:31:00,
2013-05-04 06:32:00,68.6,31.0,29.29,East,81,7.5,9.0,24,-99.99,,,0.00,55.63,rob ver 1B,2013-05-04 13:32:00,
2013-05-04 06:33:00,68.6,31.5,29.29,ENE,77,7.6,9.3,24,-99.99,,,0.00,56.45,rob ver 1B,2013-05-04 13:33:00,
2013-05-04 06:34:00,68.6,31.5,29.26,ENE,72,6.7,8.4,24,-99.99,,,0.00,57.11,rob ver 1B,2013-05-04 13:34:00,
2013-05-04 06:35:00,68.6,31.5,29.26,ENE,69,5.7,7.4,25,-99.99,,,0.00,56.45,rob ver 1B,2013-05-04 13:35:00,
2013-05-04 06:36:00,70.2,12.8,29.21,NE,48,4.5,5.5,10,-99.99,,,0.00,54.65,rob ver 1A,2013-05-04 13:36:00,
2013-05-04 06:37:00,68.6,31.7,29.26,ENE,71,8.0,9.8,25,-99.99,,,0.00,55.8,rob ver 1B,2013-05-04 13:37:00,
2013-05-04 06:38:00,68.6,31.7,29.26,ENE,70,7.2,9.0,25,-99.99,,,0.00,54.81,rob ver 1B,2013-05-04 13:38:00,
2013-05-04 06:39:00,68.6,31.6,29.26,ENE,70,6.4,8.8,25,-99.99,,,0.00,53.83,rob ver 1B,2013-05-04 13:39:00,
2013-05-04 06:40:00,68.6,31.6,29.26,ENE,66,5.7,7.9,25,-99.99,,,0.00,53.17,rob ver 1B,2013-05-04 13:40:00,
2013-05-04 06:41:00,70.6,12.9,29.21,NE,49,3.7,4.4,10,-99.99,,,0.00,103.1,rob ver 1A,2013-05-04 13:41:00,
2013-05-04 06:42:00,68.7,31.9,29.29,ENE,71,4.4,6.5,25,-99.99,,,0.00,51.86,rob ver 1B,2013-05-04 13:42:00,
2013-05-04 06:43:00,68.6,31.9,29.29,ENE,75,5.3,6.3,25,-99.99,,,0.00,51.86,rob ver 1B,2013-05-04 13:43:00,
2013-05-04 06:44:00,68.7,32.1,29.29,East,80,5.1,6.2,25,-99.99,,,0.00,51.86,rob ver 1B,2013-05-04 13:44:00,
2013-05-04 06:45:00,68.7,32.2,29.29,East,82,4.7,6.0,25,-99.99,,,0.00,52.51,rob ver 1B,2013-05-04 13:45:00,
2013-05-04 06:46:00,71.8,13.2,29.21,NE,47,2.2,2.9,10,-99.99,,,0.00,132.6,rob ver 1A,2013-05-04 13:46:00,
2013-05-04 06:47:00,68.7,32.4,29.29,East,80,4.4,5.4,25,-99.99,,,0.00,54.98,rob ver 1B,2013-05-04 13:47:00,
2013-05-04 06:48:00,68.7,32.4,29.29,ENE,78,5.3,6.6,25,-99.99,,,0.00,56.45,rob ver 1B,2013-05-04 13:48:00,
2013-05-04 06:49:00,68.7,32.2,29.29,ENE,76,5.8,7.7,25,-99.99,,,0.00,58.42,rob ver 1B,2013-05-04 13:49:00,
2013-05-04 06:50:00,68.7,32.1,29.29,ENE,77,6.5,7.6,25,-99.99,,,0.00,61.05,rob ver 1B,2013-05-04 13:50:00,
2013-05-04 06:51:00,72.7,13.5,29.21,SSE,167,1.5,2.3,10,-99.99,,,0.00,146.4,rob ver 1A,2013-05-04 13:51:00,
2013-05-04 06:52:00,68.6,32.5,29.29,ENE,75,7.2,8.9,26,-99.99,,,0.00,65.64,rob ver 1B,2013-05-04 13:52:00,
2013-05-04 06:53:00,68.6,32.4,29.29,ENE,73,6.8,8.5,26,-99.99,,,0.00,68.27,rob ver 1B,2013-05-04 13:53:00,
2013-05-04 06:54:00,68.6,32.3,29.29,ENE,74,6.3,7.9,25,-99.99,,,0.00,70.9,rob ver 1B,2013-05-04 13:54:00,
2013-05-04 06:55:00,68.6,32.1,29.29,ENE,72,5.9,7.1,25,-99.99,,,0.00,73,rob ver 1B,2013-05-04 13:55:00,
2013-05-04 06:56:00,71.7,12.9,29.21,SE,144,1.7,1.9,10,-99.99,,,0.00,160.8,rob ver 1A,2013-05-04 13:56:00,
2013-05-04 06:57:00,68.5,31.9,29.29,ENE,71,5.0,6.2,25,-99.99,,,0.00,75.3,rob ver 1B,2013-05-04 13:57:00,
2013-05-04 06:58:00,68.5,31.9,29.29,ENE,71,4.6,5.7,25,-99.99,,,0.00,75.8,rob ver 1B,2013-05-04 13:58:00,
2013-05-04 06:59:00,68.5,31.8,29.29,ENE,72,4.2,5.3,25,-99.99,,,0.00,76.8,rob ver 1B,2013-05-04 13:59:00,
2013-05-04 07:00:00,68.6,31.7,29.29,ENE,69,4.1,5.2,25,-99.99,,,0.00,78.4,rob ver 1B,2013-05-04 14:00:00,
2013-05-04 07:01:00,71.6,13.2,29.21,ESE,119,1.6,1.7,10,-99.99,,,0.00,182.2,rob ver 1A,2013-05-04 14:01:00,
2013-05-04 07:02:00,68.6,31.8,29.29,ENE,64,4.0,5.8,25,-99.99,,,0.00,82.4,rob ver 1B,2013-05-04 14:02:00,
2013-05-04 07:03:00,68.6,32.1,29.29,ENE,64,4.4,5.4,25,-99.99,,,0.00,84.7,rob ver 1B,2013-05-04 14:03:00,
2013-05-04 07:04:00,68.6,32.0,29.29,ENE,63,4.1,5.1,25,-99.99,,,0.00,87.3,rob ver 1B,2013-05-04 14:04:00,
2013-05-04 07:05:00,68.6,32.3,29.29,ENE,62,4.1,5.0,26,-99.99,,,0.00,91.1,rob ver 1B,2013-05-04 14:05:00,
2013-05-04 07:06:00,72.6,13.7,29.21,East,88,2.8,3.5,10,-99.99,,,0.00,199.5,rob ver 1A,2013-05-04 14:06:00,
2013-05-04 07:07:00,68.6,33.2,29.29,ENE,61,3.9,4.9,26,-99.99,,,0.00,99.1,rob ver 1B,2013-05-04 14:07:00,
2013-05-04 07:08:00,68.7,32.8,29.29,ENE,60,3.5,5.2,26,-99.99,,,0.00,102.4,rob ver 1B,2013-05-04 14:08:00,
2013-05-04 07:09:00,68.7,33.3,29.29,ENE,68,3.1,4.5,27,-99.99,,,0.00,104.7,rob ver 1B,2013-05-04 14:09:00,
2013-05-04 07:10:00,68.8,34.4,29.29,ENE,66,3.4,4.6,28,-99.99,,,0.00,105.8,rob ver 1B,2013-05-04 14:10:00,
2013-05-04 07:11:00,73.8,13.6,29.21,East,96,3.3,4.2,9,-99.99,,,0.00,215.9,rob ver 1A,2013-05-04 14:11:00,
2013-05-04 07:12:00,68.9,37.5,29.29,ENE,61,4.6,6.5,32,-99.99,,,0.00,107.7,rob ver 1B,2013-05-04 14:12:00,
2013-05-04 07:13:00,69.0,38.3,29.29,ENE,65,5.2,6.5,32,-99.99,,,0.00,108.5,rob ver 1B,2013-05-04 14:13:00,
2013-05-04 07:14:00,69.0,38.7,29.29,ENE,64,4.6,6.4,33,-99.99,,,0.00,109.6,rob ver 1B,2013-05-04 14:14:00,
2013-05-04 07:15:00,69.1,39.0,29.29,ENE,69,4.9,6.3,33,-99.99,,,0.00,110.3,rob ver 1B,2013-05-04 14:15:00,
2013-05-04 07:16:00,74.2,14.2,29.21,SE,133,2.3,3.1,9,-99.99,,,0.00,233.7,rob ver 1A,2013-05-04 14:16:00,
2013-05-04 07:17:00,69.2,40.5,29.29,ENE,72,5.0,7.4,37,-99.99,,,0.00,111.6,rob ver 1B,2013-05-04 14:17:00,
2013-05-04 07:18:00,69.3,42.9,29.29,ENE,70,7.0,9.5,39,-99.99,,,0.00,111.6,rob ver 1B,2013-05-04 14:18:00,
2013-05-04 07:19:00,69.3,42.9,29.29,ENE,65,5.3,6.7,37,-99.99,,,0.00,111.6,rob ver 1B,2013-05-04 14:19:00,
2013-05-04 07:20:00,69.4,43.2,29.29,ENE,69,5.9,6.9,39,-99.99,,,0.00,111.4,rob ver 1B,2013-05-04 14:20:00,
2013-05-04 07:21:00,74.6,14.0,29.21,ESE,112,4.0,5.4,9,-99.99,,,0.00,254.6,rob ver 1A,2013-05-04 14:21:00,
2013-05-04 07:22:00,69.5,43.7,29.29,ENE,65,5.3,6.9,39,-99.99,,,0.00,108.3,rob ver 1B,2013-05-04 14:22:00,
2013-05-04 07:23:00,69.6,44.4,29.29,ENE,62,5.3,7.9,40,-99.99,,,0.00,106.3,rob ver 1B,2013-05-04 14:23:00,
2013-05-04 07:24:00,69.7,44.9,29.29,ENE,58,6.1,7.7,40,-99.99,,,0.00,105,rob ver 1B,2013-05-04 14:24:00,
2013-05-04 07:25:00,69.7,45.2,29.29,ENE,58,6.3,7.8,41,-99.99,,,0.00,104.4,rob ver 1B,2013-05-04 14:25:00,
2013-05-04 07:26:00,75.1,14.2,29.21,ESE,118,5.0,6.2,9,-99.99,,,0.00,271.7,rob ver 1A,2013-05-04 14:26:00,
2013-05-04 07:27:00,69.7,45.3,29.29,ENE,58,5.3,6.6,41,-99.99,,,0.00,106.3,rob ver 1B,2013-05-04 14:27:00,
2013-05-04 07:28:00,69.8,45.2,29.29,ENE,62,4.5,6.2,41,-99.99,,,0.00,108.3,rob ver 1B,2013-05-04 14:28:00,
2013-05-04 07:29:00,70.0,45.3,29.29,ENE,57,4.1,5.4,41,-99.99,,,0.00,110.3,rob ver 1B,2013-05-04 14:29:00,
2013-05-04 07:30:00,70.1,45.4,29.29,ENE,58,4.6,6.1,41,-99.99,,,0.00,113.6,rob ver 1B,2013-05-04 14:30:00,
2013-05-04 07:31:00,75.5,14.4,29.21,ESE,119,5.1,6.5,9,-99.99,,,0.00,290.9,rob ver 1A,2013-05-04 14:31:00,
2013-05-04 07:32:00,70.2,45.7,29.29,ENE,67,5.7,7.6,41,-99.99,,,0.00,119.5,rob ver 1B,2013-05-04 14:32:00,
2013-05-04 07:33:00,70.2,45.7,29.29,ENE,72,5.8,7.7,41,-99.99,,,0.00,121.8,rob ver 1B,2013-05-04 14:33:00,
2013-05-04 07:34:00,70.2,45.7,29.29,ENE,73,6.1,7.9,41,-99.99,,,0.00,124.4,rob ver 1B,2013-05-04 14:34:00,
2013-05-04 07:35:00,70.2,45.7,29.29,ENE,77,6.6,7.8,41,-99.99,,,0.00,127.3,rob ver 1B,2013-05-04 14:35:00,
2013-05-04 07:36:00,75.9,14.5,29.21,ESE,119,7.4,8.6,9,-99.99,,,0.00,309.1,rob ver 1A,2013-05-04 14:36:00,
2013-05-04 07:37:00,70.2,45.7,29.29,ENE,76,5.3,6.7,41,-99.99,,,0.00,134.9,rob ver 1B,2013-05-04 14:37:00,
2013-05-04 07:38:00,70.3,45.6,29.29,East,84,4.3,5.7,40,-99.99,,,0.00,139.2,rob ver 1B,2013-05-04 14:38:00,
2013-05-04 07:39:00,70.5,45.5,29.29,ENE,78,5.9,7.4,40,-99.99,,,0.00,142.9,rob ver 1B,2013-05-04 14:39:00,
2013-05-04 07:40:00,70.5,45.6,29.29,ENE,75,6.3,7.7,40,-99.99,,,0.00,146.4,rob ver 1B,2013-05-04 14:40:00,
2013-05-04 07:41:00,76.4,14.9,29.21,ESE,114,7.8,9.4,9,-99.99,,,0.00,327.4,rob ver 1A,2013-05-04 14:41:00,
2013-05-04 07:42:00,70.6,45.5,29.29,ENE,70,5.9,7.5,40,-99.99,,,0.00,153.6,rob ver 1B,2013-05-04 14:42:00,
2013-05-04 07:43:00,70.6,45.5,29.29,East,82,5.5,7.5,40,-99.99,,,0.00,158.2,rob ver 1B,2013-05-04 14:43:00,
2013-05-04 07:44:00,70.7,45.5,29.29,East,80,5.9,6.7,40,-99.99,,,0.00,162.1,rob ver 1B,2013-05-04 14:44:00,
2013-05-04 07:45:00,70.7,45.4,29.29,ENE,73,5.1,6.4,40,-99.99,,,0.00,167,rob ver 1B,2013-05-04 14:45:00,
2013-05-04 07:46:00,77.1,15.0,29.21,ESE,103,7.8,9.3,9,-99.99,,,0.00,345,rob ver 1A,2013-05-04 14:46:00,
2013-05-04 07:47:00,70.9,45.2,29.29,East,85,6.2,7.8,39,-99.99,,,0.00,233.2,rob ver 1B,2013-05-04 14:47:00,
2013-05-04 07:48:00,71.1,45.2,29.29,ENE,70,6.2,8.3,39,-99.99,,,0.00,304.5,rob ver 1B,2013-05-04 14:48:00,
2013-05-04 07:49:00,71.2,45.2,29.29,ENE,76,5.9,7.9,39,-99.99,,,0.00,156.9,rob ver 1B,2013-05-04 14:49:00,
2013-05-04 07:50:00,71.3,45.0,29.29,East,88,6.9,8.9,38,-99.99,,,0.00,153.6,rob ver 1B,2013-05-04 14:50:00,
2013-05-04 07:51:00,77.4,15.2,29.21,SE,124,6.6,8.5,9,-99.99,,,0.00,363.5,rob ver 1A,2013-05-04 14:51:00,
2013-05-04 07:52:00,71.2,44.7,29.29,East,85,5.9,7.6,38,-99.99,,,0.00,166.1,rob ver 1B,2013-05-04 14:52:00,
2013-05-04 07:53:00,71.4,44.7,29.29,East,79,6.0,7.9,38,-99.99,,,0.00,155.5,rob ver 1B,2013-05-04 14:53:00,
2013-05-04 07:54:00,71.3,44.6,29.29,East,80,6.8,8.5,38,-99.99,,,0.00,154.2,rob ver 1B,2013-05-04 14:54:00,
2013-05-04 07:55:00,71.2,44.6,29.29,ENE,77,6.5,8.7,38,-99.99,,,0.00,152.3,rob ver 1B,2013-05-04 14:55:00,
2013-05-04 07:56:00,77.5,15.2,29.21,SE,130,6.7,8.4,9,-99.99,,,0.00,382.5,rob ver 1A,2013-05-04 14:56:00,
2013-05-04 07:57:00,71.2,44.4,29.29,ENE,75,7.5,9.6,38,-99.99,,,0.00,147,rob ver 1B,2013-05-04 14:57:00,
2013-05-04 07:58:00,71.2,44.0,29.29,East,80,8.7,10.3,37,-99.99,,,0.00,156.9,rob ver 1B,2013-05-04 14:58:00,
2013-05-04 07:59:00,71.1,44.3,29.29,ENE,74,7.7,9.5,38,-99.99,,,0.00,151,rob ver 1B,2013-05-04 14:59:00,
2013-05-04 08:00:00,71.3,44.6,29.29,ENE,68,7.4,9.5,38,-99.99,,,0.00,148.5,rob ver 1B,2013-05-04 15:00:00,
2013-05-04 08:01:00,77.9,15.4,29.21,ESE,121,7.3,9.9,9,-99.99,,,0.00,400,rob ver 1A,2013-05-04 15:01:00,
2013-05-04 08:02:00,71.3,44.6,29.29,ENE,73,8.4,10.5,38,-99.99,,,0.00,153.6,rob ver 1B,2013-05-04 15:02:00,
2013-05-04 08:03:00,71.4,44.5,29.29,ENE,70,7.5,9.2,37,-99.99,,,0.00,183.1,rob ver 1B,2013-05-04 15:03:00,
2013-05-04 08:04:00,71.5,44.3,29.29,ENE,69,7.1,9.8,37,-99.99,,,0.00,147.7,rob ver 1B,2013-05-04 15:04:00,
2013-05-04 08:05:00,71.6,44.2,29.29,ENE,74,8.5,11.3,36,-99.99,,,0.00,145,rob ver 1B,2013-05-04 15:05:00,
2013-05-04 08:06:00,78.1,15.5,29.21,ESE,121,7.0,8.9,9,-99.99,,,0.00,419.4,rob ver 1A,2013-05-04 15:06:00,
2013-05-04 08:07:00,71.7,43.6,29.29,ENE,68,9.3,11.9,36,-99.99,,,0.00,147.7,rob ver 1B,2013-05-04 15:07:00,
2013-05-04 08:08:00,71.6,43.7,29.29,ENE,67,8.5,11.3,36,-99.99,,,0.00,150.1,rob ver 1B,2013-05-04 15:08:00,
2013-05-04 08:09:00,71.6,43.8,29.29,ENE,73,8.7,11.4,36,-99.99,,,0.00,149.8,rob ver 1B,2013-05-04 15:09:00,
2013-05-04 08:10:00,71.7,43.8,29.29,ENE,72,7.8,10.9,36,-99.99,,,0.00,146.4,rob ver 1B,2013-05-04 15:10:00,
2013-05-04 08:11:00,78.1,16.0,29.21,SE,125,6.2,8.8,9,-99.99,,,0.00,437.4,rob ver 1A,2013-05-04 15:11:00,
2013-05-04 08:12:00,71.8,43.5,29.29,ENE,68,7.5,9.5,35,-99.99,,,0.00,145,rob ver 1B,2013-05-04 15:12:00,
2013-05-04 08:13:00,71.9,43.3,29.29,ENE,68,7.8,9.8,35,-99.99,,,0.00,150.3,rob ver 1B,2013-05-04 15:13:00,
2013-05-04 08:14:00,71.9,43.0,29.29,ENE,69,8.1,11.5,35,-99.99,,,0.00,166.4,rob ver 1B,2013-05-04 15:14:00,
2013-05-04 08:15:00,71.9,43.0,29.29,ENE,68,7.5,9.2,35,-99.99,,,0.00,179.8,rob ver 1B,2013-05-04 15:15:00,
2013-05-04 08:16:00,78.5,16.2,29.21,ESE,117,7.5,8.8,9,-99.99,,,0.00,455.9,rob ver 1A,2013-05-04 15:16:00,
2013-05-04 08:17:00,72.1,42.6,29.32,ENE,77,9.2,11.4,34,-99.99,,,0.00,175.9,rob ver 1B,2013-05-04 15:17:00,
2013-05-04 08:18:00,72.0,42.5,29.29,East,79,9.4,11.3,34,-99.99,,,0.00,180.5,rob ver 1B,2013-05-04 15:18:00,
2013-05-04 08:19:00,72.0,42.5,29.29,East,85,8.6,11.5,34,-99.99,,,0.00,184.4,rob ver 1B,2013-05-04 15:19:00,
2013-05-04 08:20:00,72.0,42.6,29.32,East,84,8.9,11.9,34,-99.99,,,0.00,248.9,rob ver 1B,2013-05-04 15:20:00,
2013-05-04 08:21:00,72.1,42.4,29.32,East,84,8.1,10.3,34,-99.99,,,0.00,215.9,rob ver 1B,2013-05-04 15:21:00,
2013-05-04 08:22:00,79.3,16.4,29.21,SE,127,6.5,7.8,9,-99.99,,,0.00,474.3,rob ver 1A,2013-05-04 15:22:00,
2013-05-04 08:23:00,72.2,42.5,29.32,East,83,7.9,9.4,34,-99.99,,,0.00,146.3,rob ver 1B,2013-05-04 15:23:00,
2013-05-04 08:24:00,72.3,42.4,29.32,East,80,8.5,10.6,33,-99.99,,,0.00,143.7,rob ver 1B,2013-05-04 15:24:00,
2013-05-04 08:25:00,72.2,42.3,29.32,ENE,78,10.3,11.7,34,-99.99,,,0.00,146.3,rob ver 1B,2013-05-04 15:25:00,
2013-05-04 08:26:00,72.1,42.3,29.32,ENE,75,9.1,11.4,33,-99.99,,,0.00,142.7,rob ver 1B,2013-05-04 15:26:00,
2013-05-04 08:27:00,79.6,16.3,29.21,ESE,118,6.4,8.0,9,-99.99,,,0.00,492.6,rob ver 1A,2013-05-04 15:27:00,
2013-05-04 08:28:00,72.1,42.6,29.32,ENE,75,9.6,12.1,34,-99.99,,,0.00,252.2,rob ver 1B,2013-05-04 15:28:00,
2013-05-04 08:29:00,72.1,42.5,29.32,East,80,9.6,11.3,34,-99.99,,,0.00,218.9,rob ver 1B,2013-05-04 15:29:00,
2013-05-04 08:30:00,72.2,42.4,29.32,ENE,78,7.9,10.4,33,-99.99,,,0.00,560.4,rob ver 1B,2013-05-04 15:30:00,
2013-05-04 08:31:00,72.4,42.2,29.32,ENE,69,8.2,10.8,33,-99.99,,,0.00,337.6,rob ver 1B,2013-05-04 15:31:00,
2013-05-04 08:32:00,79.6,16.3,29.21,SE,124,7.3,8.7,9,-99.99,,,0.00,509,rob ver 1A,2013-05-04 15:32:00,
2013-05-04 08:33:00,73.0,42.6,29.32,ENE,72,7.0,9.4,33,-99.99,,,0.00,249.4,rob ver 1B,2013-05-04 15:33:00,
2013-05-04 08:34:00,73.2,42.7,29.32,ENE,64,7.2,10.9,33,-99.99,,,0.00,537.6,rob ver 1B,2013-05-04 15:34:00,
2013-05-04 08:35:00,73.3,42.8,29.32,ENE,62,8.4,10.7,33,-99.99,,,0.00,318.9,rob ver 1B,2013-05-04 15:35:00,
2013-05-04 08:36:00,73.3,41.9,29.32,East,83,7.8,9.6,32,-99.99,,,0.00,578.8,rob ver 1B,2013-05-04 15:36:00,
2013-05-04 08:37:00,80.0,16.5,29.21,ESE,120,6.4,8.2,9,-99.99,,,0.00,526.6,rob ver 1A,2013-05-04 15:37:00,
2013-05-04 08:38:00,73.3,41.5,29.32,East,86,8.4,10.0,32,-99.99,,,0.00,431.6,rob ver 1B,2013-05-04 15:38:00,
2013-05-04 08:39:00,73.4,42.2,29.32,ENE,73,7.5,10.8,32,-99.99,,,0.00,275.6,rob ver 1B,2013-05-04 15:39:00,
2013-05-04 08:40:00,73.5,41.6,29.32,ENE,76,7.7,9.3,30,-99.99,,,0.00,234.9,rob ver 1B,2013-05-04 15:40:00,
2013-05-04 08:41:00,73.4,40.4,29.32,East,81,7.9,10.2,30,-99.99,,,0.00,222.9,rob ver 1B,2013-05-04 15:41:00,
2013-05-04 08:42:00,80.5,16.7,29.21,ESE,119,6.6,8.0,9,-99.99,,,0.00,532.3,rob ver 1A,2013-05-04 15:42:00,
2013-05-04 08:43:00,73.4,40.2,29.32,ENE,78,7.9,10.3,30,-99.99,,,0.00,444.7,rob ver 1B,2013-05-04 15:43:00,
2013-05-04 08:44:00,73.8,40.5,29.32,ENE,67,10.0,12.7,30,-99.99,,,0.00,609.3,rob ver 1B,2013-05-04 15:44:00,
2013-05-04 08:45:00,73.8,41.0,29.32,ENE,60,11.0,13.2,30,-99.99,,,0.00,625.7,rob ver 1B,2013-05-04 15:45:00,
2013-05-04 08:46:00,73.9,41.0,29.32,ENE,68,8.8,11.4,30,-99.99,,,0.00,614.5,rob ver 1B,2013-05-04 15:46:00,
2013-05-04 08:47:00,80.2,16.0,29.21,SE,144,7.8,9.4,8,-99.99,,,0.00,524.9,rob ver 1A,2013-05-04 15:47:00,
2013-05-04 08:48:00,74.3,39.9,29.32,ENE,67,8.2,10.2,29,-99.99,,,0.00,158.8,rob ver 1B,2013-05-04 15:48:00,
2013-05-04 08:49:00,74.3,40.5,29.32,ENE,73,8.0,10.8,29,-99.99,,,0.00,564,rob ver 1B,2013-05-04 15:49:00,
2013-05-04 08:50:00,74.2,40.7,29.32,ENE,67,8.4,11.2,29,-99.99,,,0.00,421.7,rob ver 1B,2013-05-04 15:50:00,
2013-05-04 08:51:00,74.4,40.8,29.32,ENE,66,7.5,9.8,29,-99.99,,,0.00,505.9,rob ver 1B,2013-05-04 15:51:00,
2013-05-04 08:52:00,80.1,15.7,29.21,SE,141,6.9,8.7,9,-99.99,,,0.00,574.9,rob ver 1A,2013-05-04 15:52:00,
2013-05-04 08:53:00,75.0,40.1,29.32,East,95,8.5,11.5,27,-99.99,,,0.00,620.4,rob ver 1B,2013-05-04 15:53:00,
2013-05-04 08:54:00,74.8,39.9,29.32,East,84,7.7,9.0,27,-99.99,,,0.00,623,rob ver 1B,2013-05-04 15:54:00,
2013-05-04 08:55:00,74.9,39.8,29.32,East,79,8.0,10.0,28,-99.99,,,0.00,628.3,rob ver 1B,2013-05-04 15:55:00,
2013-05-04 08:56:00,74.8,39.8,29.32,East,82,8.9,11.0,28,-99.99,,,0.00,636.8,rob ver 1B,2013-05-04 15:56:00,
2013-05-04 08:57:00,80.4,17.3,29.21,SSE,157,5.6,7.1,9,-99.99,,,0.00,590,rob ver 1A,2013-05-04 15:57:00,
2013-05-04 08:58:00,75.2,39.8,29.32,East,85,8.9,11.4,27,-99.99,,,0.00,645.6,rob ver 1B,2013-05-04 15:58:00,
2013-05-04 08:59:00,75.3,39.6,29.32,East,79,9.0,12.6,27,-99.99,,,0.00,650.9,rob ver 1B,2013-05-04 15:59:00,
2013-05-04 09:00:00,75.3,39.9,29.32,East,84,8.5,10.8,27,-99.99,,,0.00,609.1,rob ver 1B,2013-05-04 16:00:00,
2013-05-04 09:01:00,75.4,39.9,29.32,East,79,8.0,10.7,27,-99.99,,,0.00,683.5,rob ver 1B,2013-05-04 16:01:00,
2013-05-04 09:02:00,81.0,18.8,29.21,SE,127,5.5,6.6,9,-99.99,,,0.00,607.2,rob ver 1A,2013-05-04 16:02:00,
2013-05-04 09:03:00,75.7,40.1,29.32,ENE,69,8.3,10.8,27,-99.99,,,0.00,637.8,rob ver 1B,2013-05-04 16:03:00,
2013-05-04 09:04:00,75.4,39.8,29.32,ENE,70,7.3,9.7,28,-99.99,,,0.00,487.7,rob ver 1B,2013-05-04 16:04:00,
2013-05-04 09:05:00,75.3,39.9,29.32,ENE,72,8.4,12.4,27,-99.99,,,0.00,539.2,rob ver 1B,2013-05-04 16:05:00,
2013-05-04 09:06:00,75.0,40.0,29.32,East,88,9.2,11.1,28,-99.99,,,0.00,638.9,rob ver 1B,2013-05-04 16:06:00,
2013-05-04 09:07:00,81.4,20.2,29.21,SSE,147,5.9,7.6,10,-99.99,,,0.00,619.6,rob ver 1A,2013-05-04 16:07:00,
2013-05-04 09:08:00,75.0,40.1,29.32,ESE,103,8.0,10.5,28,-99.99,,,0.00,743,rob ver 1B,2013-05-04 16:08:00,
2013-05-04 09:09:00,75.0,39.9,29.32,ENE,75,8.6,11.3,27,-99.99,,,0.00,753,rob ver 1B,2013-05-04 16:09:00,
2013-05-04 09:10:00,75.2,39.8,29.32,ENE,69,7.7,11.3,27,-99.99,,,0.00,760,rob ver 1B,2013-05-04 16:10:00,
2013-05-04 09:11:00,75.6,40.1,29.32,East,88,8.7,12.0,27,-99.99,,,0.00,773,rob ver 1B,2013-05-04 16:11:00,
2013-05-04 09:12:00,81.0,20.4,29.21,SSE,154,5.5,7.7,10,-99.99,,,0.00,637,rob ver 1A,2013-05-04 16:12:00,
2013-05-04 09:13:00,75.8,39.4,29.32,ENE,65,7.0,10.0,26,-99.99,,,0.00,717,rob ver 1B,2013-05-04 16:13:00,
2013-05-04 09:14:00,75.9,39.8,29.32,ENE,67,6.0,10.1,27,-99.99,,,0.00,466.3,rob ver 1B,2013-05-04 16:14:00,
2013-05-04 09:15:00,76.0,40.1,29.32,ENE,59,7.6,10.4,27,-99.99,,,0.00,570.6,rob ver 1B,2013-05-04 16:15:00,
2013-05-04 09:16:00,76.1,39.7,29.32,East,81,8.1,10.1,27,-99.99,,,0.00,787,rob ver 1B,2013-05-04 16:16:00,
2013-05-04 09:17:00,81.4,20.4,29.23,SE,144,5.2,7.3,10,-99.99,,,0.00,652.6,rob ver 1A,2013-05-04 16:17:00,
2013-05-04 09:18:00,75.8,39.4,29.32,ESE,106,7.8,10.3,26,-99.99,,,0.00,764,rob ver 1B,2013-05-04 16:18:00,
2013-05-04 09:19:00,76.0,39.3,29.32,East,81,7.7,10.0,26,-99.99,,,0.00,733,rob ver 1B,2013-05-04 16:19:00,
2013-05-04 09:20:00,76.3,39.0,29.32,ENE,71,8.1,9.9,25,-99.99,,,0.00,591.6,rob ver 1B,2013-05-04 16:20:00,
2013-05-04 09:21:00,76.5,38.4,29.32,ENE,75,7.0,8.8,25,-99.99,,,0.00,411.7,rob ver 1B,2013-05-04 16:21:00,
2013-05-04 09:22:00,82.1,21.0,29.21,SSE,153,5.8,8.4,10,-99.99,,,0.00,666.8,rob ver 1A,2013-05-04 16:22:00,
2013-05-04 09:23:00,76.5,39.3,29.32,ENE,75,11.0,13.4,26,-99.99,,,0.00,412.5,rob ver 1B,2013-05-04 16:23:00,
2013-05-04 09:24:00,76.1,39.1,29.32,East,96,9.0,11.3,26,-99.99,,,0.00,573.7,rob ver 1B,2013-05-04 16:24:00,
2013-05-04 09:25:00,75.8,38.5,29.32,East,88,8.3,11.8,25,-99.99,,,0.00,357.9,rob ver 1B,2013-05-04 16:25:00,
2013-05-04 09:26:00,76.1,37.5,29.32,East,79,8.8,10.7,24,-99.99,,,0.00,697.8,rob ver 1B,2013-05-04 16:26:00,
2013-05-04 09:27:00,82.5,20.1,29.21,South,184,6.8,8.5,9,-99.99,,,0.00,682.4,rob ver 1A,2013-05-04 16:27:00,
2013-05-04 09:28:00,76.6,37.6,29.32,ENE,75,7.4,9.8,24,-99.99,,,0.00,365.2,rob ver 1B,2013-05-04 16:28:00,
2013-05-04 09:29:00,76.9,37.7,29.32,ENE,63,7.0,9.8,24,-99.99,,,0.00,303.7,rob ver 1B,2013-05-04 16:29:00,
2013-05-04 09:30:00,77.0,38.3,29.32,ENE,69,5.7,8.0,25,-99.99,,,0.00,422.6,rob ver 1B,2013-05-04 16:30:00,
2013-05-04 09:31:00,76.9,38.8,29.32,ENE,66,6.0,9.1,24,-99.99,,,0.00,422.5,rob ver 1B,2013-05-04 16:31:00,
2013-05-04 09:32:00,83.1,19.6,29.21,South,177,7.5,9.2,9,-99.99,,,0.00,695.4,rob ver 1A,2013-05-04 16:32:00,
2013-05-04 09:33:00,77.0,38.0,29.32,East,86,7.9,10.9,24,-99.99,,,0.00,829,rob ver 1B,2013-05-04 16:33:00,
2013-05-04 09:34:00,77.1,38.2,29.32,East,95,7.9,9.4,24,-99.99,,,0.00,832,rob ver 1B,2013-05-04 16:34:00,
2013-05-04 09:35:00,77.4,37.8,29.32,East,96,7.3,8.7,23,-99.99,,,0.00,836,rob ver 1B,2013-05-04 16:35:00,
2013-05-04 09:36:00,77.5,38.1,29.32,East,88,6.9,9.7,24,-99.99,,,0.00,845,rob ver 1B,2013-05-04 16:36:00,
2013-05-04 09:37:00,83.5,20.6,29.21,SSE,158,8.1,11.0,9,-99.99,,,0.00,710,rob ver 1A,2013-05-04 16:37:00,
2013-05-04 09:38:00,77.8,37.2,29.32,ESE,109,7.1,9.8,23,-99.99,,,0.00,731,rob ver 1B,2013-05-04 16:38:00,
2013-05-04 09:39:00,77.5,35.8,29.32,ESE,110,9.9,12.6,21,-99.99,,,0.00,455.1,rob ver 1B,2013-05-04 16:39:00,
2013-05-04 09:40:00,77.5,34.9,29.32,ESE,108,9.5,11.1,22,-99.99,,,0.00,824,rob ver 1B,2013-05-04 16:40:00,
2013-05-04 09:41:00,77.7,36.5,29.32,East,92,7.0,9.6,22,-99.99,,,0.00,842,rob ver 1B,2013-05-04 16:41:00,
2013-05-04 09:42:00,83.6,21.0,29.23,SSE,148,7.1,8.9,9,-99.99,,,0.00,727,rob ver 1A,2013-05-04 16:42:00,
2013-05-04 09:43:00,78.3,34.9,29.32,East,89,7.4,9.2,20,-99.99,,,0.00,787,rob ver 1B,2013-05-04 16:43:00,
2013-05-04 09:44:00,78.3,36.2,29.32,East,100,5.9,9.7,22,-99.99,,,0.00,789,rob ver 1B,2013-05-04 16:44:00,
2013-05-04 09:45:00,78.1,37.2,29.32,East,94,7.7,10.4,22,-99.99,,,0.00,784,rob ver 1B,2013-05-04 16:45:00,
2013-05-04 09:46:00,78.0,36.8,29.32,ESE,105,7.4,9.5,22,-99.99,,,0.00,779,rob ver 1B,2013-05-04 16:46:00,
2013-05-04 09:47:00,83.5,21.4,29.21,SSE,160,5.0,7.6,10,-99.99,,,0.00,741,rob ver 1A,2013-05-04 16:47:00,
2013-05-04 09:48:00,78.0,36.9,29.32,East,95,8.3,11.2,23,-99.99,,,0.00,786,rob ver 1B,2013-05-04 16:48:00,
2013-05-04 09:49:00,77.9,36.9,29.32,ESE,103,4.9,8.1,23,-99.99,,,0.00,809,rob ver 1B,2013-05-04 16:49:00,
2013-05-04 09:50:00,78.0,37.2,29.32,East,99,5.4,10.5,22,-99.99,,,0.00,777,rob ver 1B,2013-05-04 16:50:00,
2013-05-04 09:51:00,78.4,35.9,29.32,East,91,7.0,10.9,20,-99.99,,,0.00,737,rob ver 1B,2013-05-04 16:51:00,
2013-05-04 09:52:00,84.0,22.7,29.21,South,185,7.3,9.5,10,-99.99,,,0.00,754,rob ver 1A,2013-05-04 16:52:00,
2013-05-04 09:53:00,78.9,33.9,29.32,ENE,71,7.1,9.0,19,-99.99,,,0.00,876,rob ver 1B,2013-05-04 16:53:00,
2013-05-04 09:54:00,78.8,34.0,29.32,East,95,7.3,9.4,19,-99.99,,,0.00,846,rob ver 1B,2013-05-04 16:54:00,
2013-05-04 09:55:00,78.7,35.8,29.32,ESE,117,7.4,9.8,21,-99.99,,,0.00,836,rob ver 1B,2013-05-04 16:55:00,
2013-05-04 09:56:00,78.5,36.2,29.32,ESE,123,6.7,10.0,21,-99.99,,,0.00,832,rob ver 1B,2013-05-04 16:56:00,
2013-05-04 09:57:00,84.5,23.4,29.23,SSE,162,5.6,8.3,10,-99.99,,,0.00,768,rob ver 1A,2013-05-04 16:57:00,
2013-05-04 09:58:00,79.0,34.8,29.32,ESE,111,8.9,10.5,20,-99.99,,,0.00,853,rob ver 1B,2013-05-04 16:58:00,
2013-05-04 09:59:00,79.6,34.5,29.32,ESE,114,9.8,13.0,19,-99.99,,,0.00,881,rob ver 1B,2013-05-04 16:59:00,
2013-05-04 10:00:00,79.4,34.8,29.32,ESE,113,9.2,11.3,20,-99.99,,,0.00,935,rob ver 1B,2013-05-04 17:00:00,
2013-05-04 10:01:00,79.2,34.7,29.32,ESE,109,8.6,10.4,20,-99.99,,,0.00,1020,rob ver 1B,2013-05-04 17:01:00,
2013-05-04 10:02:00,84.6,25.3,29.21,SSE,148,8.4,11.0,11,-99.99,,,0.00,781,rob ver 1A,2013-05-04 17:02:00,
2013-05-04 10:03:00,79.3,34.7,29.32,SE,130,6.0,9.1,20,-99.99,,,0.00,406.3,rob ver 1B,2013-05-04 17:03:00,
2013-05-04 10:04:00,79.4,34.6,29.32,East,83,7.2,10.8,18,-99.99,,,0.00,401,rob ver 1B,2013-05-04 17:04:00,
2013-05-04 10:05:00,79.7,34.5,29.32,ENE,62,8.6,10.8,20,-99.99,,,0.00,391.2,rob ver 1B,2013-05-04 17:05:00,
2013-05-04 10:06:00,79.3,35.1,29.32,NE,49,5.6,8.0,20,-99.99,,,0.00,417.4,rob ver 1B,2013-05-04 17:06:00,
2013-05-04 10:07:00,84.0,26.9,29.23,South,173,7.0,8.8,12,-99.99,,,0.00,790,rob ver 1A,2013-05-04 17:07:00,
2013-05-04 10:08:00,79.2,35.6,29.32,ENE,77,8.3,10.6,20,-99.99,,,0.00,437.4,rob ver 1B,2013-05-04 17:08:00,
2013-05-04 10:09:00,79.2,35.4,29.32,ENE,58,7.3,10.1,20,-99.99,,,0.00,472.8,rob ver 1B,2013-05-04 17:09:00,
2013-05-04 10:10:00,79.2,35.2,29.32,ENE,66,7.1,11.3,19,-99.99,,,0.00,586.6,rob ver 1B,2013-05-04 17:10:00,
2013-05-04 10:11:00,79.5,33.9,29.32,ENE,76,9.6,12.5,19,-99.99,,,0.00,529.5,rob ver 1B,2013-05-04 17:11:00,
2013-05-04 10:12:00,84.8,27.9,29.21,SE,142,8.5,11.8,12,-99.99,,,0.00,807,rob ver 1A,2013-05-04 17:12:00,
2013-05-04 10:13:00,79.4,33.0,29.32,East,80,7.5,11.2,17,-99.99,,,0.00,1023,rob ver 1B,2013-05-04 17:13:00,
2013-05-04 10:14:00,79.4,33.4,29.32,East,82,9.2,11.2,19,-99.99,,,0.00,994,rob ver 1B,2013-05-04 17:14:00,
2013-05-04 10:15:00,79.5,33.8,29.32,ENE,77,7.4,9.6,18,-99.99,,,0.00,947,rob ver 1B,2013-05-04 17:15:00,
2013-05-04 10:16:00,79.9,34.1,29.32,ENE,67,5.0,7.4,19,-99.99,,,0.00,985,rob ver 1B,2013-05-04 17:16:00,
2013-05-04 10:17:00,85.1,31.7,29.21,SSE,161,6.6,10.3,13,-99.99,,,0.00,812,rob ver 1A,2013-05-04 17:17:00,
2013-05-04 10:18:00,80.3,33.8,29.32,ENE,71,5.8,8.1,18,-99.99,,,0.00,946,rob ver 1B,2013-05-04 17:18:00,
2013-05-04 10:19:00,80.7,33.9,29.32,East,88,9.1,12.8,18,-99.99,,,0.00,964,rob ver 1B,2013-05-04 17:19:00,
2013-05-04 10:20:00,80.5,33.5,29.32,East,95,5.9,8.2,17,-99.99,,,0.00,983,rob ver 1B,2013-05-04 17:20:00,
2013-05-04 10:21:00,80.3,32.6,29.32,East,89,4.5,7.7,18,-99.99,,,0.00,980,rob ver 1B,2013-05-04 17:21:00,
2013-05-04 10:22:00,85.7,33.6,29.21,South,181,10.0,12.3,16,-99.99,,,0.00,822,rob ver 1A,2013-05-04 17:22:00,
2013-05-04 10:23:00,81.5,28.0,29.32,ENE,73,6.6,10.6,14,-99.99,,,0.00,974,rob ver 1B,2013-05-04 17:23:00,
2013-05-04 10:24:00,81.3,29.9,29.32,East,88,9.2,12.6,15,-99.99,,,0.00,989,rob ver 1B,2013-05-04 17:24:00,
2013-05-04 10:25:00,81.1,31.5,29.32,East,83,10.1,12.3,16,-99.99,,,0.00,1020,rob ver 1B,2013-05-04 17:25:00,
2013-05-04 10:26:00,81.4,31.8,29.32,East,92,10.1,12.7,16,-99.99,,,0.00,1085,rob ver 1B,2013-05-04 17:26:00,
2013-05-04 10:27:00,85.8,32.8,29.21,South,174,6.8,11.6,14,-99.99,,,0.00,834,rob ver 1A,2013-05-04 17:27:00,
2013-05-04 10:28:00,81.9,31.7,29.32,ENE,65,6.2,10.3,16,-99.99,,,0.00,1205,rob ver 1B,2013-05-04 17:28:00,
2013-05-04 10:29:00,81.9,31.7,29.32,ENE,74,9.4,13.8,15,-99.99,,,0.00,606.8,rob ver 1B,2013-05-04 17:29:00,
2013-05-04 10:30:00,81.5,31.4,29.32,East,81,8.6,10.4,16,-99.99,,,0.00,549.1,rob ver 1B,2013-05-04 17:30:00,
2013-05-04 10:31:00,80.9,31.4,29.32,ENE,73,4.9,7.6,16,-99.99,,,0.00,536.7,rob ver 1B,2013-05-04 17:31:00,
2013-05-04 10:32:00,85.9,32.5,29.21,SSE,158,6.9,9.8,14,-99.99,,,0.00,842,rob ver 1A,2013-05-04 17:32:00,
2013-05-04 10:33:00,80.9,32.6,29.32,East,81,5.4,8.3,17,-99.99,,,0.00,524.5,rob ver 1B,2013-05-04 17:33:00,
2013-05-04 10:34:00,80.7,33.0,29.32,East,97,1.5,2.5,17,-99.99,,,0.00,1176,rob ver 1B,2013-05-04 17:34:00,
2013-05-04 10:35:00,81.3,32.6,29.32,East,83,0.5,1.3,16,-99.99,,,0.00,545.8,rob ver 1B,2013-05-04 17:35:00,
2013-05-04 10:36:00,82.3,32.3,29.32,ENE,63,3.1,7.3,15,-99.99,,,0.00,903,rob ver 1B,2013-05-04 17:36:00,
2013-05-04 10:37:00,86.5,34.2,29.21,South,176,9.2,13.0,15,-99.99,,,0.00,850,rob ver 1A,2013-05-04 17:37:00,
2013-05-04 10:38:00,82.4,31.3,29.32,East,87,8.7,12.0,15,-99.99,,,0.00,600.4,rob ver 1B,2013-05-04 17:38:00,
2013-05-04 10:39:00,81.7,31.7,29.32,East,85,9.1,12.5,16,-99.99,,,0.00,632.2,rob ver 1B,2013-05-04 17:39:00,
2013-05-04 10:40:00,81.5,31.6,29.32,East,81,10.8,12.9,16,-99.99,,,0.00,576.8,rob ver 1B,2013-05-04 17:40:00,
2013-05-04 10:41:00,81.4,31.5,29.32,ENE,70,8.3,13.0,16,-99.99,,,0.00,1233,rob ver 1B,2013-05-04 17:41:00,
2013-05-04 10:42:00,87.6,31.2,29.21,South,179,10.3,15.5,13,-99.99,,,0.00,863,rob ver 1A,2013-05-04 17:42:00,
2013-05-04 10:43:00,81.4,32.1,29.32,ENE,67,4.8,6.6,16,-99.99,,,0.00,561.9,rob ver 1B,2013-05-04 17:43:00,
2013-05-04 10:44:00,81.6,32.2,29.32,ENE,68,5.7,8.0,16,-99.99,,,0.00,411.4,rob ver 1B,2013-05-04 17:44:00,
2013-05-04 10:45:00,81.4,31.5,29.32,East,88,8.3,11.1,15,-99.99,,,0.00,396.8,rob ver 1B,2013-05-04 17:45:00,
2013-05-04 10:46:00,81.1,30.9,29.32,ENE,72,7.0,12.2,16,-99.99,,,0.00,439.4,rob ver 1B,2013-05-04 17:46:00,
2013-05-04 10:47:00,86.8,32.3,29.21,South,171,7.4,10.8,14,-99.99,,,0.00,871,rob ver 1A,2013-05-04 17:47:00,
2013-05-04 10:48:00,81.1,30.8,29.32,NNE,24,4.0,7.5,16,-99.99,,,0.00,369.1,rob ver 1B,2013-05-04 17:48:00,
2013-05-04 10:49:00,81.3,30.7,29.32,ENE,58,5.6,9.2,15,-99.99,,,0.00,384.5,rob ver 1B,2013-05-04 17:49:00,
2013-05-04 10:50:00,81.2,30.7,29.32,NE,54,4.8,6.3,15,-99.99,,,0.00,401.2,rob ver 1B,2013-05-04 17:50:00,
2013-05-04 10:51:00,81.1,30.6,29.32,East,91,5.6,7.2,15,-99.99,,,0.00,459.8,rob ver 1B,2013-05-04 17:51:00,
2013-05-04 10:52:00,81.1,30.5,29.32,ESE,121,5.8,9.8,15,-99.99,,,0.00,765,rob ver 1B,2013-05-04 17:52:00,
2013-05-04 10:53:00,87.8,32.0,29.21,SSE,167,7.5,12.4,13,-99.99,,,0.00,878,rob ver 1A,2013-05-04 17:53:00,
2013-05-04 10:54:00,81.6,30.2,29.32,South,170,3.6,4.9,15,-99.99,,,0.00,519.3,rob ver 1B,2013-05-04 17:54:00,
2013-05-04 10:55:00,81.6,30.1,29.32,South,169,3.8,5.3,15,-99.99,,,0.00,1219,rob ver 1B,2013-05-04 17:55:00,
2013-05-04 10:56:00,81.8,30.7,29.32,SSE,161,4.9,7.9,15,-99.99,,,0.00,436.3,rob ver 1B,2013-05-04 17:56:00,
2013-05-04 10:57:00,82.0,30.8,29.32,SE,144,3.9,6.6,15,-99.99,,,0.00,381.9,rob ver 1B,2013-05-04 17:57:00,
2013-05-04 10:58:00,87.7,30.4,29.21,SSE,160,7.4,12.1,12,-99.99,,,0.00,892,rob ver 1A,2013-05-04 17:58:00,
2013-05-04 10:59:00,81.5,30.3,29.32,South,180,5.8,7.0,15,-99.99,,,0.00,360.9,rob ver 1B,2013-05-04 17:59:00,
2013-05-04 11:00:00,81.5,30.6,29.32,SE,146,6.8,9.3,15,-99.99,,,0.00,371.4,rob ver 1B,2013-05-04 18:00:00,
2013-05-04 11:01:00,81.1,30.2,29.32,SE,131,5.6,7.3,15,-99.99,,,0.00,371.4,rob ver 1B,2013-05-04 18:01:00,
2013-05-04 11:02:00,80.9,29.7,29.32,ESE,119,3.6,7.1,15,-99.99,,,0.00,352,rob ver 1B,2013-05-04 18:02:00,
2013-05-04 11:03:00,88.1,30.5,29.21,South,174,6.5,9.8,13,-99.99,,,0.00,900,rob ver 1A,2013-05-04 18:03:00,
2013-05-04 11:04:00,81.1,29.7,29.32,SE,124,2.4,3.7,15,-99.99,,,0.00,365.5,rob ver 1B,2013-05-04 18:04:00,
2013-05-04 11:05:00,81.3,29.7,29.32,ENE,63,2.2,4.2,15,-99.99,,,0.00,391,rob ver 1B,2013-05-04 18:05:00,
2013-05-04 11:06:00,81.7,30.0,29.32,SSW,210,0.9,2.1,15,-99.99,,,0.00,403,rob ver 1B,2013-05-04 18:06:00,
2013-05-04 11:07:00,82.1,29.8,29.32,SSW,199,1.8,3.1,14,-99.99,,,0.00,384.4,rob ver 1B,2013-05-04 18:07:00,
2013-05-04 11:08:00,88.4,30.3,29.21,SSE,158,11.8,14.0,12,-99.99,,,0.00,908,rob ver 1A,2013-05-04 18:08:00,
2013-05-04 11:09:00,82.3,28.3,29.32,South,189,6.5,10.8,13,-99.99,,,0.00,506,rob ver 1B,2013-05-04 18:09:00,
2013-05-04 11:10:00,82.3,27.6,29.32,SSE,157,8.8,11.3,13,-99.99,,,0.00,467,rob ver 1B,2013-05-04 18:10:00,
2013-05-04 11:11:00,82.0,26.9,29.32,South,170,9.6,11.5,13,-99.99,,,0.00,450,rob ver 1B,2013-05-04 18:11:00,
2013-05-04 11:12:00,82.2,25.1,29.32,SSE,165,11.3,13.7,11,-99.99,,,0.00,651.2,rob ver 1B,2013-05-04 18:12:00,
2013-05-04 11:13:00,88.2,29.7,29.21,SSE,160,8.9,14.1,12,-99.99,,,0.00,920,rob ver 1A,2013-05-04 18:13:00,
2013-05-04 11:14:00,81.6,25.1,29.32,South,181,5.6,6.4,12,-99.99,,,0.00,504.4,rob ver 1B,2013-05-04 18:14:00,
2013-05-04 11:15:00,81.6,25.7,29.32,South,170,4.5,5.9,12,-99.99,,,0.00,592.4,rob ver 1B,2013-05-04 18:15:00,
2013-05-04 11:16:00,81.8,25.5,29.32,South,184,5.1,7.3,12,-99.99,,,0.00,624.5,rob ver 1B,2013-05-04 18:16:00,
2013-05-04 11:17:00,82.0,25.9,29.32,SSW,197,5.8,7.7,12,-99.99,,,0.00,449.3,rob ver 1B,2013-05-04 18:17:00,
2013-05-04 11:18:00,88.7,30.5,29.21,SSE,163,10.0,13.4,12,-99.99,,,0.00,920,rob ver 1A,2013-05-04 18:18:00,
2013-05-04 11:19:00,82.2,26.1,29.32,SW,223,5.2,6.6,12,-99.99,,,0.00,1268,rob ver 1B,2013-05-04 18:19:00,
2013-05-04 11:20:00,82.6,26.2,29.32,WSW,239,4.3,5.3,12,-99.99,,,0.00,1041,rob ver 1B,2013-05-04 18:20:00,
2013-05-04 11:21:00,83.1,26.9,29.32,SW,214,3.1,4.8,12,-99.99,,,0.00,1252,rob ver 1B,2013-05-04 18:21:00,
2013-05-04 11:22:00,83.6,27.2,29.32,SE,131,4.3,6.3,12,-99.99,,,0.00,1110,rob ver 1B,2013-05-04 18:22:00,
2013-05-04 11:23:00,88.9,29.9,29.21,SSE,160,7.7,10.3,12,-99.99,,,0.00,930,rob ver 1A,2013-05-04 18:23:00,
2013-05-04 11:24:00,83.6,27.8,29.32,South,171,6.2,11.3,13,-99.99,,,0.00,484,rob ver 1B,2013-05-04 18:24:00,
2013-05-04 11:25:00,83.5,27.7,29.32,SSE,157,7.9,10.4,13,-99.99,,,0.00,737,rob ver 1B,2013-05-04 18:25:00,
2013-05-04 11:26:00,83.1,27.4,29.32,South,178,8.1,10.7,12,-99.99,,,0.00,587.9,rob ver 1B,2013-05-04 18:26:00,
2013-05-04 11:27:00,82.9,27.2,29.32,South,190,10.2,15.7,13,-99.99,,,0.00,555.1,rob ver 1B,2013-05-04 18:27:00,
2013-05-04 11:28:00,89.5,28.7,29.21,SSE,149,9.4,11.8,11,-99.99,,,0.00,939,rob ver 1A,2013-05-04 18:28:00,
2013-05-04 11:29:00,82.9,27.3,29.32,SSE,157,5.6,7.4,13,-99.99,,,0.00,1178,rob ver 1B,2013-05-04 18:29:00,
2013-05-04 11:30:00,82.7,27.3,29.32,SE,124,3.9,7.5,13,-99.99,,,0.00,480.9,rob ver 1B,2013-05-04 18:30:00,
2013-05-04 11:31:00,82.6,27.3,29.32,ESE,103,4.0,8.8,13,-99.99,,,0.00,555.1,rob ver 1B,2013-05-04 18:31:00,
2013-05-04 11:32:00,82.5,27.2,29.32,SE,138,5.4,8.3,13,-99.99,,,0.00,1199,rob ver 1B,2013-05-04 18:32:00,
2013-05-04 11:33:00,89.0,29.1,29.21,SSE,165,7.6,10.5,11,-99.99,,,0.00,944,rob ver 1A,2013-05-04 18:33:00,
2013-05-04 11:34:00,83.5,27.7,29.32,North,1,1.8,2.9,12,-99.99,,,0.00,674.2,rob ver 1B,2013-05-04 18:34:00,
2013-05-04 11:35:00,84.1,27.9,29.32,SSE,166,3.7,6.1,12,-99.99,,,0.00,1234,rob ver 1B,2013-05-04 18:35:00,
2013-05-04 11:36:00,84.1,27.0,29.32,South,186,7.1,9.7,12,-99.99,,,0.00,473.9,rob ver 1B,2013-05-04 18:36:00,
2013-05-04 11:37:00,83.8,26.2,29.32,South,190,5.6,7.7,12,-99.99,,,0.00,1304,rob ver 1B,2013-05-04 18:37:00,
2013-05-04 11:38:00,90.1,28.4,29.21,SSW,192,10.3,12.0,11,-99.99,,,0.00,939,rob ver 1A,2013-05-04 18:38:00,
2013-05-04 11:39:00,84.0,26.3,29.32,SW,214,5.4,8.5,12,-99.99,,,0.00,729,rob ver 1B,2013-05-04 18:39:00,
2013-05-04 11:40:00,83.9,25.9,29.32,SE,144,6.7,11.0,11,-99.99,,,0.00,555.9,rob ver 1B,2013-05-04 18:40:00,
2013-05-04 11:41:00,83.6,25.9,29.32,SSE,155,7.6,10.7,12,-99.99,,,0.00,508.3,rob ver 1B,2013-05-04 18:41:00,
2013-05-04 11:42:00,83.6,26.2,29.32,SE,146,6.7,12.2,12,-99.99,,,0.00,584.9,rob ver 1B,2013-05-04 18:42:00,
2013-05-04 11:43:00,89.5,27.1,29.21,ESE,118,8.7,12.5,10,-99.99,,,0.00,951,rob ver 1A,2013-05-04 18:43:00,
2013-05-04 11:44:00,83.9,26.0,29.32,SSE,156,10.3,12.6,12,-99.99,,,0.00,318.2,rob ver 1B,2013-05-04 18:44:00,
2013-05-04 11:45:00,83.2,25.8,29.32,SSE,157,7.3,11.1,12,-99.99,,,0.00,321.5,rob ver 1B,2013-05-04 18:45:00,
2013-05-04 11:46:00,83.2,25.4,29.32,South,185,8.4,15.0,12,-99.99,,,0.00,340.5,rob ver 1B,2013-05-04 18:46:00,
2013-05-04 11:47:00,82.9,25.2,29.32,SSW,192,6.0,7.8,12,-99.99,,,0.00,368.7,rob ver 1B,2013-05-04 18:47:00,
2013-05-04 11:48:00,90.0,27.7,29.21,South,175,8.9,12.6,10,-99.99,,,0.00,951,rob ver 1A,2013-05-04 18:48:00,
2013-05-04 11:49:00,83.1,25.4,29.32,South,174,12.3,15.5,12,-99.99,,,0.00,444,rob ver 1B,2013-05-04 18:49:00,
2013-05-04 11:50:00,82.8,25.5,29.32,South,177,9.2,13.2,12,-99.99,,,0.00,527.3,rob ver 1B,2013-05-04 18:50:00,
2013-05-04 11:51:00,82.6,25.3,29.32,South,181,4.8,8.8,12,-99.99,,,0.00,489.9,rob ver 1B,2013-05-04 18:51:00,
2013-05-04 11:52:00,82.6,25.3,29.32,SSE,156,11.3,13.8,12,-99.99,,,0.00,428.9,rob ver 1B,2013-05-04 18:52:00,
2013-05-04 11:53:00,90.1,27.8,29.21,South,186,5.2,8.6,10,-99.99,,,0.00,963,rob ver 1A,2013-05-04 18:53:00,
2013-05-04 11:54:00,82.4,25.1,29.32,SSE,147,4.2,6.4,12,-99.99,,,0.00,368,rob ver 1B,2013-05-04 18:54:00,
2013-05-04 11:55:00,82.3,25.0,29.32,South,169,4.7,7.2,12,-99.99,,,0.00,346.4,rob ver 1B,2013-05-04 18:55:00,
2013-05-04 11:56:00,82.3,24.9,29.32,SE,134,5.1,8.2,12,-99.99,,,0.00,343.7,rob ver 1B,2013-05-04 18:56:00,
2013-05-04 11:57:00,82.6,24.8,29.32,SSE,149,8.5,11.4,11,-99.99,,,0.00,409.3,rob ver 1B,2013-05-04 18:57:00,
2013-05-04 11:58:00,90.0,28.4,29.21,South,189,4.6,6.4,11,-99.99,,,0.00,969,rob ver 1A,2013-05-04 18:58:00,
2013-05-04 11:59:00,83.0,24.9,29.32,SSW,204,8.3,10.5,11,-99.99,,,0.00,392.9,rob ver 1B,2013-05-04 18:59:00,
2013-05-04 12:00:00,83.0,24.8,29.32,SSW,212,8.1,9.8,11,-99.99,,,0.00,394.9,rob ver 1B,2013-05-04 19:00:00,
2013-05-04 12:01:00,83.0,24.8,29.32,South,178,7.9,9.2,11,-99.99,,,0.00,408.1,rob ver 1B,2013-05-04 19:01:00,
2013-05-04 12:02:00,82.8,25.0,29.32,South,180,6.5,8.3,12,-99.99,,,0.00,427,rob ver 1B,2013-05-04 19:02:00,
2013-05-04 12:03:00,90.1,27.0,29.21,SSE,159,8.7,12.3,10,-99.99,,,0.00,966,rob ver 1A,2013-05-04 19:03:00,
2013-05-04 12:04:00,83.0,24.5,29.32,SSE,154,9.7,12.0,11,-99.99,,,0.00,1356,rob ver 1B,2013-05-04 19:04:00,
2013-05-04 12:05:00,82.7,24.6,29.32,SSE,162,8.6,10.4,11,-99.99,,,0.00,1038,rob ver 1B,2013-05-04 19:05:00,
2013-05-04 12:06:00,82.9,25.1,29.32,South,170,10.4,13.7,12,-99.99,,,0.00,482.7,rob ver 1B,2013-05-04 19:06:00,
2013-05-04 12:07:00,83.1,25.5,29.32,SSE,160,11.2,15.8,12,-99.99,,,0.00,473.5,rob ver 1B,2013-05-04 19:07:00,
2013-05-04 12:08:00,90.0,26.8,29.21,SSE,168,7.5,14.8,10,-99.99,,,0.00,968,rob ver 1A,2013-05-04 19:08:00,
2013-05-04 12:09:00,83.8,25.2,29.32,SSE,156,10.4,13.1,11,-99.99,,,0.00,520,rob ver 1B,2013-05-04 19:09:00,
2013-05-04 12:10:00,83.3,25.3,29.32,South,172,9.1,14.9,12,-99.99,,,0.00,572.5,rob ver 1B,2013-05-04 19:10:00,
2013-05-04 12:11:00,83.2,25.6,29.32,SSE,160,7.0,11.9,12,-99.99,,,0.00,733,rob ver 1B,2013-05-04 19:11:00,
2013-05-04 12:12:00,83.4,25.8,29.32,SSE,156,7.9,13.3,12,-99.99,,,0.00,711,rob ver 1B,2013-05-04 19:12:00,
2013-05-04 12:13:00,91.3,27.6,29.18,SSW,196,9.7,13.5,10,-99.99,,,0.00,968,rob ver 1A,2013-05-04 19:13:00,
2013-05-04 12:14:00,83.7,25.9,29.32,SSW,198,8.5,12.5,12,-99.99,,,0.00,531.8,rob ver 1B,2013-05-04 19:14:00,
2013-05-04 12:15:00,83.4,25.9,29.32,SSW,198,7.7,14.0,12,-99.99,,,0.00,691.4,rob ver 1B,2013-05-04 19:15:00,
2013-05-04 12:16:00,83.5,25.9,29.32,SSW,206,9.6,14.5,12,-99.99,,,0.00,647.2,rob ver 1B,2013-05-04 19:16:00,
2013-05-04 12:17:00,83.7,26.5,29.32,South,188,11.9,14.2,12,-99.99,,,0.00,443.3,rob ver 1B,2013-05-04 19:17:00,
2013-05-04 12:18:00,90.3,27.9,29.18,South,177,9.9,14.1,10,-99.99,,,0.00,969,rob ver 1A,2013-05-04 19:18:00,
2013-05-04 12:19:00,83.3,26.3,29.32,SSW,199,8.4,11.1,12,-99.99,,,0.00,442,rob ver 1B,2013-05-04 19:19:00,
2013-05-04 12:20:00,83.2,26.3,29.32,SSE,151,7.8,11.5,12,-99.99,,,0.00,1030,rob ver 1B,2013-05-04 19:20:00,
2013-05-04 12:21:00,83.2,26.4,29.32,SSE,163,10.3,13.0,12,-99.99,,,0.00,516.1,rob ver 1B,2013-05-04 19:21:00,
2013-05-04 12:22:00,83.5,26.4,29.32,SSW,192,8.3,10.8,12,-99.99,,,0.00,461.7,rob ver 1B,2013-05-04 19:22:00,
2013-05-04 12:23:00,91.5,27.3,29.18,South,186,11.4,15.1,10,-99.99,,,0.00,973,rob ver 1A,2013-05-04 19:23:00,
2013-05-04 12:24:00,83.9,27.0,29.32,SSW,194,10.1,13.6,12,-99.99,,,0.00,1237,rob ver 1B,2013-05-04 19:24:00,
2013-05-04 12:25:00,84.2,26.7,29.32,South,172,11.6,16.1,12,-99.99,,,0.00,586.4,rob ver 1B,2013-05-04 19:25:00,
2013-05-04 12:26:00,84.3,26.1,29.32,South,184,10.6,13.1,11,-99.99,,,0.00,1283,rob ver 1B,2013-05-04 19:26:00,
2013-05-04 12:27:00,84.6,26.3,29.32,South,169,9.0,10.6,11,-99.99,,,0.00,1268,rob ver 1B,2013-05-04 19:27:00,
2013-05-04 12:28:00,92.6,26.9,29.18,South,190,10.9,14.7,9,-99.99,,,0.00,984,rob ver 1A,2013-05-04 19:28:00,
2013-05-04 12:29:00,85.2,25.7,29.32,South,171,6.6,9.0,11,-99.99,,,0.00,1144,rob ver 1B,2013-05-04 19:29:00,
2013-05-04 12:30:00,85.2,26.7,29.32,South,174,7.4,12.1,11,-99.99,,,0.00,1209,rob ver 1B,2013-05-04 19:30:00,
2013-05-04 12:31:00,85.6,26.9,29.32,SSE,155,12.0,15.5,11,-99.99,,,0.00,1193,rob ver 1B,2013-05-04 19:31:00,
2013-05-04 12:32:00,84.8,26.8,29.32,SSE,147,10.0,12.7,12,-99.99,,,0.00,1190,rob ver 1B,2013-05-04 19:32:00,
2013-05-04 12:33:00,91.3,27.1,29.18,SSW,199,15.0,17.9,9,-99.99,,,0.00,975,rob ver 1A,2013-05-04 19:33:00,
2013-05-04 12:34:00,84.1,26.8,29.32,South,174,4.0,6.1,12,-99.99,,,0.00,1193,rob ver 1B,2013-05-04 19:34:00,
2013-05-04 12:35:00,84.8,26.9,29.32,SSW,193,4.3,7.6,12,-99.99,,,0.00,1223,rob ver 1B,2013-05-04 19:35:00,
2013-05-04 12:36:00,85.3,27.0,29.29,SSE,157,9.7,14.0,12,-99.99,,,0.00,876,rob ver 1B,2013-05-04 19:36:00,
2013-05-04 12:37:00,85.4,26.6,29.29,SE,141,9.4,12.6,11,-99.99,,,0.00,771,rob ver 1B,2013-05-04 19:37:00,
2013-05-04 12:38:00,91.4,26.8,29.18,SSW,201,10.6,16.2,9,-99.99,,,0.00,969,rob ver 1A,2013-05-04 19:38:00,
2013-05-04 12:39:00,84.7,25.9,29.29,South,171,10.2,12.2,11,-99.99,,,0.00,1098,rob ver 1B,2013-05-04 19:39:00,
2013-05-04 12:40:00,84.3,25.8,29.29,South,175,8.9,11.2,11,-99.99,,,0.00,482.7,rob ver 1B,2013-05-04 19:40:00,
2013-05-04 12:41:00,84.0,25.6,29.29,South,173,10.5,14.9,11,-99.99,,,0.00,1187,rob ver 1B,2013-05-04 19:41:00,
2013-05-04 12:42:00,84.4,25.6,29.29,SSE,153,11.1,14.1,11,-99.99,,,0.00,1300,rob ver 1B,2013-05-04 19:42:00,
2013-05-04 12:43:00,91.6,26.0,29.18,SSW,203,13.3,16.7,9,-99.99,,,0.00,986,rob ver 1A,2013-05-04 19:43:00,
2013-05-04 12:44:00,84.8,24.6,29.29,South,169,11.0,14.0,11,-99.99,,,0.00,748,rob ver 1B,2013-05-04 19:44:00,
2013-05-04 12:45:00,84.8,24.4,29.29,South,172,11.8,15.8,11,-99.99,,,0.00,1246,rob ver 1B,2013-05-04 19:45:00,
2013-05-04 12:46:00,84.8,24.7,29.29,SSE,166,11.2,13.6,11,-99.99,,,0.00,1250,rob ver 1B,2013-05-04 19:46:00,
2013-05-04 12:47:00,84.6,25.3,29.29,SSE,165,10.3,12.9,11,-99.99,,,0.00,627.2,rob ver 1B,2013-05-04 19:47:00,
2013-05-04 12:48:00,91.5,26.8,29.18,SSE,168,12.0,16.9,9,-99.99,,,0.00,985,rob ver 1A,2013-05-04 19:48:00,
2013-05-04 12:49:00,84.9,26.3,29.29,South,187,9.5,12.5,11,-99.99,,,0.00,1228,rob ver 1B,2013-05-04 19:49:00,
2013-05-04 12:50:00,85.8,26.2,29.29,South,175,12.3,15.9,11,-99.99,,,0.00,1224,rob ver 1B,2013-05-04 19:50:00,
2013-05-04 12:51:00,86.2,26.0,29.29,South,172,10.2,13.8,11,-99.99,,,0.00,1229,rob ver 1B,2013-05-04 19:51:00,
2013-05-04 12:52:00,85.9,26.0,29.29,South,183,12.0,14.3,11,-99.99,,,0.00,1212,rob ver 1B,2013-05-04 19:52:00,
2013-05-04 12:53:00,91.5,27.7,29.18,SE,136,9.6,12.0,10,-99.99,,,0.00,976,rob ver 1A,2013-05-04 19:53:00,
2013-05-04 12:54:00,85.7,26.8,29.29,South,186,11.9,15.0,11,-99.99,,,0.00,1059,rob ver 1B,2013-05-04 19:54:00,
2013-05-04 12:55:00,85.7,26.7,29.29,South,191,10.1,12.0,11,-99.99,,,0.00,518.9,rob ver 1B,2013-05-04 19:55:00,
2013-05-04 12:56:00,85.4,26.6,29.29,South,172,11.7,13.8,11,-99.99,,,0.00,1279,rob ver 1B,2013-05-04 19:56:00,
2013-05-04 12:57:00,85.0,26.1,29.29,South,170,10.4,14.2,11,-99.99,,,0.00,1131,rob ver 1B,2013-05-04 19:57:00,
2013-05-04 12:58:00,91.1,26.9,29.18,SE,146,7.8,12.2,9,-99.99,,,0.00,969,rob ver 1A,2013-05-04 19:58:00,
2013-05-04 12:59:00,85.3,26.2,29.29,South,184,9.6,11.8,11,-99.99,,,0.00,739,rob ver 1B,2013-05-04 19:59:00,
2013-05-04 13:00:00,84.9,26.2,29.29,South,187,8.1,13.8,11,-99.99,,,0.00,1189,rob ver 1B,2013-05-04 20:00:00,
2013-05-04 13:01:00,85.1,26.3,29.29,SSW,196,10.4,13.2,11,-99.99,,,0.00,433.3,rob ver 1B,2013-05-04 20:01:00,
2013-05-04 13:02:00,85.0,26.3,29.29,SSW,193,7.7,10.7,11,-99.99,,,0.00,617.3,rob ver 1B,2013-05-04 20:02:00,
2013-05-04 13:03:00,92.6,25.8,29.18,South,170,15.6,21.0,9,-99.99,,,0.00,982,rob ver 1A,2013-05-04 20:03:00,
2013-05-04 13:04:00,84.8,26.6,29.29,SSW,210,8.4,12.8,12,-99.99,,,0.00,1207,rob ver 1B,2013-05-04 20:04:00,
2013-05-04 13:05:00,84.7,26.0,29.29,SSW,195,10.4,13.4,11,-99.99,,,0.00,1084,rob ver 1B,2013-05-04 20:05:00,
2013-05-04 13:06:00,84.9,26.2,29.29,South,184,9.2,13.0,11,-99.99,,,0.00,1134,rob ver 1B,2013-05-04 20:06:00,
2013-05-04 13:07:00,85.2,26.2,29.29,SSE,168,11.0,14.2,11,-99.99,,,0.00,644.5,rob ver 1B,2013-05-04 20:07:00,
2013-05-04 13:08:00,92.1,25.7,29.18,SSE,158,11.4,14.0,9,-99.99,,,0.00,977,rob ver 1A,2013-05-04 20:08:00,
2013-05-04 13:09:00,85.1,26.1,29.29,SE,145,8.0,10.9,11,-99.99,,,0.00,455.1,rob ver 1B,2013-05-04 20:09:00,
2013-05-04 13:10:00,84.9,26.7,29.29,SE,132,9.7,13.0,12,-99.99,,,0.00,458.4,rob ver 1B,2013-05-04 20:10:00,
2013-05-04 13:11:00,85.1,26.9,29.29,SE,124,10.9,13.2,11,-99.99,,,0.00,601.4,rob ver 1B,2013-05-04 20:11:00,
2013-05-04 13:12:00,84.5,26.5,29.29,SE,129,8.4,11.0,12,-99.99,,,0.00,661.7,rob ver 1B,2013-05-04 20:12:00,
2013-05-04 13:13:00,84.3,26.5,29.29,SSE,165,12.2,14.1,12,-99.99,,,0.00,443.3,rob ver 1B,2013-05-04 20:13:00,
2013-05-04 13:14:00,92.1,25.1,29.18,SSE,156,14.0,17.6,8,-99.99,,,0.00,972,rob ver 1A,2013-05-04 20:14:00,
2013-05-04 13:15:00,84.1,26.4,29.29,SSE,148,8.8,12.0,12,-99.99,,,0.00,389.9,rob ver 1B,2013-05-04 20:15:00,
2013-05-04 13:16:00,84.0,26.6,29.29,SE,144,7.8,11.4,12,-99.99,,,0.00,429.5,rob ver 1B,2013-05-04 20:16:00,
2013-05-04 13:17:00,84.3,27.1,29.29,SE,134,6.5,8.8,12,-99.99,,,0.00,1113,rob ver 1B,2013-05-04 20:17:00,
2013-05-04 13:18:00,84.3,26.8,29.29,ESE,118,10.0,12.8,12,-99.99,,,0.00,762,rob ver 1B,2013-05-04 20:18:00,
2013-05-04 13:19:00,92.2,24.1,29.18,SSE,165,10.0,15.1,8,-99.99,,,0.00,975,rob ver 1A,2013-05-04 20:19:00,
2013-05-04 13:20:00,83.8,26.6,29.29,SE,132,6.9,9.6,12,-99.99,,,0.00,651.7,rob ver 1B,2013-05-04 20:20:00,
2013-05-04 13:21:00,83.5,26.5,29.29,SSE,151,4.9,7.2,12,-99.99,,,0.00,417.6,rob ver 1B,2013-05-04 20:21:00,
2013-05-04 13:22:00,83.4,26.6,29.29,SSE,155,6.9,11.4,12,-99.99,,,0.00,1235,rob ver 1B,2013-05-04 20:22:00,
2013-05-04 13:23:00,84.1,26.9,29.29,SSE,152,9.4,10.7,12,-99.99,,,0.00,1130,rob ver 1B,2013-05-04 20:23:00,
2013-05-04 13:24:00,92.6,23.8,29.15,SSE,147,10.0,13.2,8,-99.99,,,0.00,963,rob ver 1A,2013-05-04 20:24:00,
2013-05-04 13:25:00,84.2,26.9,29.29,South,171,6.2,13.7,12,-99.99,,,0.00,855,rob ver 1B,2013-05-04 20:25:00,
2013-05-04 13:26:00,84.2,27.0,29.29,SSE,157,3.3,4.6,12,-99.99,,,0.00,732,rob ver 1B,2013-05-04 20:26:00,
2013-05-04 13:27:00,84.5,27.2,29.29,SE,133,4.9,8.3,12,-99.99,,,0.00,626.4,rob ver 1B,2013-05-04 20:27:00,
2013-05-04 13:28:00,84.7,27.3,29.29,SE,140,9.8,13.1,12,-99.99,,,0.00,974,rob ver 1B,2013-05-04 20:28:00,
2013-05-04 13:29:00,93.2,25.6,29.15,SSW,192,11.3,14.0,8,-99.99,,,0.00,956,rob ver 1A,2013-05-04 20:29:00,
2013-05-04 13:30:00,84.5,27.0,29.29,ESE,114,8.2,11.6,12,-99.99,,,0.00,952,rob ver 1B,2013-05-04 20:30:00,
2013-05-04 13:31:00,84.3,26.8,29.29,ESE,107,4.0,6.4,12,-99.99,,,0.00,581.7,rob ver 1B,2013-05-04 20:31:00,
2013-05-04 13:32:00,84.3,26.9,29.29,SSE,154,5.0,6.6,12,-99.99,,,0.00,468.8,rob ver 1B,2013-05-04 20:32:00,
2013-05-04 13:33:00,84.3,26.9,29.29,South,177,4.8,8.3,12,-99.99,,,0.00,749,rob ver 1B,2013-05-04 20:33:00,
2013-05-04 13:34:00,93.0,24.0,29.15,SSE,161,13.5,19.7,8,-99.99,,,0.00,962,rob ver 1A,2013-05-04 20:34:00,
2013-05-04 13:35:00,84.6,26.7,29.29,SE,126,8.2,10.7,12,-99.99,,,0.00,1021,rob ver 1B,2013-05-04 20:35:00,
2013-05-04 13:36:00,84.5,26.9,29.29,ESE,119,3.8,6.0,12,-99.99,,,0.00,986,rob ver 1B,2013-05-04 20:36:00,
2013-05-04 13:37:00,84.9,27.2,29.29,SW,215,2.2,4.0,12,-99.99,,,0.00,1052,rob ver 1B,2013-05-04 20:37:00,
2013-05-04 13:38:00,85.5,27.6,29.29,SSE,154,2.9,7.8,11,-99.99,,,0.00,985,rob ver 1B,2013-05-04 20:38:00,
2013-05-04 13:39:00,93.3,24.8,29.15,South,190,10.7,14.0,8,-99.99,,,0.00,945,rob ver 1A,2013-05-04 20:39:00,
2013-05-04 13:40:00,85.5,27.4,29.29,East,100,3.3,4.7,12,-99.99,,,0.00,960,rob ver 1B,2013-05-04 20:40:00,
2013-05-04 13:41:00,85.6,27.4,29.29,SE,132,4.4,7.9,12,-99.99,,,0.00,954,rob ver 1B,2013-05-04 20:41:00,
2013-05-04 13:42:00,85.6,27.5,29.29,SE,136,5.6,10.6,12,-99.99,,,0.00,943,rob ver 1B,2013-05-04 20:42:00,
2013-05-04 13:43:00,85.5,27.4,29.29,SE,131,8.5,11.9,12,-99.99,,,0.00,938,rob ver 1B,2013-05-04 20:43:00,
2013-05-04 13:44:00,93.2,24.6,29.15,SW,222,10.9,18.3,8,-99.99,,,0.00,948,rob ver 1A,2013-05-04 20:44:00,
2013-05-04 13:45:00,85.2,27.2,29.29,SE,142,4.6,5.7,12,-99.99,,,0.00,932,rob ver 1B,2013-05-04 20:45:00,
2013-05-04 13:46:00,85.4,27.5,29.29,SSE,153,5.8,8.9,12,-99.99,,,0.00,930,rob ver 1B,2013-05-04 20:46:00,
2013-05-04 13:47:00,85.4,27.4,29.29,SSE,150,5.6,7.6,12,-99.99,,,0.00,929,rob ver 1B,2013-05-04 20:47:00,
2013-05-04 13:48:00,85.5,27.2,29.29,SSE,148,7.8,10.9,12,-99.99,,,0.00,928,rob ver 1B,2013-05-04 20:48:00,
2013-05-04 13:49:00,92.7,23.7,29.15,South,189,6.0,9.1,8,-99.99,,,0.00,939,rob ver 1A,2013-05-04 20:49:00,
2013-05-04 13:50:00,85.1,27.4,29.29,South,169,3.5,9.2,12,-99.99,,,0.00,925,rob ver 1B,2013-05-04 20:50:00,
2013-05-04 13:51:00,85.6,27.4,29.29,SSE,147,6.9,8.6,12,-99.99,,,0.00,924,rob ver 1B,2013-05-04 20:51:00,
2013-05-04 13:52:00,85.3,27.1,29.29,SE,145,5.4,7.3,12,-99.99,,,0.00,922,rob ver 1B,2013-05-04 20:52:00,
2013-05-04 13:53:00,85.2,27.3,29.29,East,90,8.2,16.6,12,-99.99,,,0.00,920,rob ver 1B,2013-05-04 20:53:00,
2013-05-04 13:54:00,93.7,26.0,29.15,South,172,13.5,15.8,8,-99.99,,,0.00,925,rob ver 1A,2013-05-04 20:54:00,
2013-05-04 13:55:00,85.6,27.5,29.29,East,101,6.7,9.1,12,-99.99,,,0.00,919,rob ver 1B,2013-05-04 20:55:00,
2013-05-04 13:56:00,85.5,27.4,29.29,ESE,120,4.9,10.7,12,-99.99,,,0.00,917,rob ver 1B,2013-05-04 20:56:00,
2013-05-04 13:57:00,85.2,27.3,29.29,ESE,113,5.0,9.4,12,-99.99,,,0.00,916,rob ver 1B,2013-05-04 20:57:00,
2013-05-04 13:58:00,85.3,27.4,29.29,ENE,78,6.5,11.3,12,-99.99,,,0.00,914,rob ver 1B,2013-05-04 20:58:00,
2013-05-04 13:59:00,92.9,24.3,29.15,South,183,15.2,23.5,8,-99.99,,,0.00,912,rob ver 1A,2013-05-04 20:59:00,
2013-05-04 14:00:00,85.3,27.5,29.29,SE,130,2.7,4.2,12,-99.99,,,0.00,912,rob ver 1B,2013-05-04 21:00:00,
2013-05-04 14:01:00,85.5,27.6,29.29,ESE,111,4.1,6.4,12,-99.99,,,0.00,910,rob ver 1B,2013-05-04 21:01:00,
2013-05-04 14:02:00,86.0,27.8,29.29,SE,128,7.0,12.5,12,-99.99,,,0.00,910,rob ver 1B,2013-05-04 21:02:00,
2013-05-04 14:03:00,85.7,27.6,29.29,East,83,4.0,6.1,12,-99.99,,,0.00,910,rob ver 1B,2013-05-04 21:03:00,
2013-05-04 14:04:00,94.1,25.0,29.15,South,180,13.2,16.2,8,-99.99,,,0.00,910,rob ver 1A,2013-05-04 21:04:00,
2013-05-04 14:05:00,85.7,27.7,29.26,South,172,5.5,9.4,12,-99.99,,,0.00,906,rob ver 1B,2013-05-04 21:05:00,
2013-05-04 14:06:00,86.3,27.7,29.26,South,187,11.4,14.8,11,-99.99,,,0.00,905,rob ver 1B,2013-05-04 21:06:00,
2013-05-04 14:07:00,86.4,27.6,29.26,South,191,10.1,12.6,11,-99.99,,,0.00,903,rob ver 1B,2013-05-04 21:07:00,
2013-05-04 14:08:00,86.2,27.6,29.29,SSW,196,7.4,10.2,12,-99.99,,,0.00,903,rob ver 1B,2013-05-04 21:08:00,
2013-05-04 14:09:00,94.4,23.6,29.15,SSE,158,15.0,18.5,7,-99.99,,,0.00,911,rob ver 1A,2013-05-04 21:09:00,
2013-05-04 14:10:00,86.7,27.7,29.26,SSE,157,7.2,12.0,11,-99.99,,,0.00,898,rob ver 1B,2013-05-04 21:10:00,
2013-05-04 14:11:00,86.6,27.7,29.26,SSW,201,9.2,11.7,11,-99.99,,,0.00,897,rob ver 1B,2013-05-04 21:11:00,
2013-05-04 14:12:00,86.5,27.8,29.26,South,176,6.8,9.6,11,-99.99,,,0.00,897,rob ver 1B,2013-05-04 21:12:00,
2013-05-04 14:13:00,86.3,27.7,29.26,South,173,4.9,8.0,12,-99.99,,,0.00,897,rob ver 1B,2013-05-04 21:13:00,
2013-05-04 14:14:00,93.8,23.4,29.15,SSE,164,10.0,13.2,7,-99.99,,,0.00,897,rob ver 1A,2013-05-04 21:14:00,
2013-05-04 14:15:00,86.3,27.8,29.26,SE,138,5.5,9.8,12,-99.99,,,0.00,891,rob ver 1B,2013-05-04 21:15:00,
2013-05-04 14:16:00,86.5,27.9,29.26,SSW,194,6.2,8.0,11,-99.99,,,0.00,888,rob ver 1B,2013-05-04 21:16:00,
2013-05-04 14:17:00,86.6,28.0,29.26,South,169,8.2,16.0,11,-99.99,,,0.00,885,rob ver 1B,2013-05-04 21:17:00,
2013-05-04 14:18:00,86.8,28.0,29.26,SSE,149,9.5,12.1,11,-99.99,,,0.00,888,rob ver 1B,2013-05-04 21:18:00,
2013-05-04 14:19:00,94.0,24.2,29.15,South,172,13.3,16.7,8,-99.99,,,0.00,885,rob ver 1A,2013-05-04 21:19:00,
2013-05-04 14:20:00,86.6,28.1,29.26,SSE,160,8.2,13.2,12,-99.99,,,0.00,880,rob ver 1B,2013-05-04 21:20:00,
2013-05-04 14:21:00,87.2,28.3,29.26,SSE,163,9.6,11.7,11,-99.99,,,0.00,877,rob ver 1B,2013-05-04 21:21:00,
2013-05-04 14:22:00,86.9,28.0,29.26,SSE,162,7.5,10.5,12,-99.99,,,0.00,874,rob ver 1B,2013-05-04 21:22:00,
2013-05-04 14:23:00,86.6,27.9,29.26,SSW,208,5.7,8.1,11,-99.99,,,0.00,874,rob ver 1B,2013-05-04 21:23:00,
2013-05-04 14:24:00,93.7,24.4,29.15,South,182,8.9,12.5,8,-99.99,,,0.00,874,rob ver 1A,2013-05-04 21:24:00,
2013-05-04 14:25:00,86.9,27.9,29.26,SSE,157,9.1,12.3,11,-99.99,,,0.00,878,rob ver 1B,2013-05-04 21:25:00,
2013-05-04 14:26:00,86.6,28.1,29.26,SSE,167,6.5,12.5,11,-99.99,,,0.00,879,rob ver 1B,2013-05-04 21:26:00,
2013-05-04 14:27:00,86.7,28.2,29.26,South,176,4.7,11.5,12,-99.99,,,0.00,872,rob ver 1B,2013-05-04 21:27:00,
2013-05-04 14:28:00,87.2,28.2,29.26,South,170,12.7,17.8,11,-99.99,,,0.00,872,rob ver 1B,2013-05-04 21:28:00,
2013-05-04 14:29:00,95.0,24.6,29.12,South,182,17.4,21.2,8,-99.99,,,0.00,875,rob ver 1A,2013-05-04 21:29:00,
2013-05-04 14:30:00,86.9,28.0,29.26,South,185,8.4,10.6,11,-99.99,,,0.00,869,rob ver 1B,2013-05-04 21:30:00,
2013-05-04 14:31:00,87.2,28.2,29.26,SSW,200,9.6,13.4,11,-99.99,,,0.00,867,rob ver 1B,2013-05-04 21:31:00,
2013-05-04 14:32:00,87.6,28.4,29.26,SSW,200,11.2,13.6,11,-99.99,,,0.00,865,rob ver 1B,2013-05-04 21:32:00,
2013-05-04 14:33:00,87.7,28.4,29.26,SSW,196,12.8,16.4,11,-99.99,,,0.00,861,rob ver 1B,2013-05-04 21:33:00,
2013-05-04 14:34:00,95.4,23.8,29.15,South,183,14.2,19.8,7,-99.99,,,0.00,859,rob ver 1A,2013-05-04 21:34:00,
2013-05-04 14:35:00,86.8,28.2,29.26,South,191,9.1,17.0,12,-99.99,,,0.00,856,rob ver 1B,2013-05-04 21:35:00,
2013-05-04 14:36:00,86.3,28.2,29.26,West,263,5.6,8.0,12,-99.99,,,0.00,853,rob ver 1B,2013-05-04 21:36:00,
2013-05-04 14:37:00,86.5,28.3,29.26,SW,226,7.8,12.9,12,-99.99,,,0.00,851,rob ver 1B,2013-05-04 21:37:00,
2013-05-04 14:38:00,86.8,28.4,29.26,SW,219,8.3,11.9,12,-99.99,,,0.00,845,rob ver 1B,2013-05-04 21:38:00,
2013-05-04 14:39:00,94.1,24.4,29.12,South,176,16.4,20.2,7,-99.99,,,0.00,854,rob ver 1A,2013-05-04 21:39:00,
2013-05-04 14:40:00,86.7,28.4,29.26,SW,215,7.4,10.1,12,-99.99,,,0.00,827,rob ver 1B,2013-05-04 21:40:00,
2013-05-04 14:41:00,86.6,28.5,29.26,South,189,5.6,7.7,12,-99.99,,,0.00,814,rob ver 1B,2013-05-04 21:41:00,
2013-05-04 14:42:00,86.7,28.5,29.26,SSE,167,5.8,8.1,12,-99.99,,,0.00,802,rob ver 1B,2013-05-04 21:42:00,
2013-05-04 14:43:00,87.2,28.8,29.26,SSE,153,9.9,14.4,12,-99.99,,,0.00,816,rob ver 1B,2013-05-04 21:43:00,
2013-05-04 14:44:00,94.4,24.0,29.15,South,177,10.7,13.0,8,-99.99,,,0.00,842,rob ver 1A,2013-05-04 21:44:00,
2013-05-04 14:45:00,87.2,28.9,29.26,ESE,121,8.0,10.9,12,-99.99,,,0.00,826,rob ver 1B,2013-05-04 21:45:00,
2013-05-04 14:46:00,87.0,28.9,29.26,ESE,110,3.2,6.5,12,-99.99,,,0.00,829,rob ver 1B,2013-05-04 21:46:00,
2013-05-04 14:47:00,87.0,29.0,29.26,SSE,158,7.6,11.3,12,-99.99,,,0.00,830,rob ver 1B,2013-05-04 21:47:00,
2013-05-04 14:48:00,86.6,28.7,29.26,SE,144,3.1,7.9,12,-99.99,,,0.00,813,rob ver 1B,2013-05-04 21:48:00,
2013-05-04 14:49:00,95.3,24.4,29.12,South,182,18.2,24.1,7,-99.99,,,0.00,834,rob ver 1A,2013-05-04 21:49:00,
2013-05-04 14:50:00,87.2,29.3,29.26,SE,133,9.2,12.3,12,-99.99,,,0.00,799,rob ver 1B,2013-05-04 21:50:00,
2013-05-04 14:51:00,87.1,29.7,29.26,SE,140,8.8,12.3,12,-99.99,,,0.00,795,rob ver 1B,2013-05-04 21:51:00,
2013-05-04 14:52:00,87.2,29.7,29.26,SSE,151,6.1,7.8,12,-99.99,,,0.00,790,rob ver 1B,2013-05-04 21:52:00,
2013-05-04 14:53:00,87.0,29.3,29.26,SSE,147,4.7,9.0,12,-99.99,,,0.00,811,rob ver 1B,2013-05-04 21:53:00,
2013-05-04 14:54:00,95.5,25.0,29.15,SSE,152,14.6,18.1,8,-99.99,,,0.00,822,rob ver 1A,2013-05-04 21:54:00,
2013-05-04 14:55:00,87.3,30.2,29.26,SE,141,10.2,15.7,12,-99.99,,,0.00,791,rob ver 1B,2013-05-04 21:55:00,
2013-05-04 14:56:00,87.0,30.0,29.26,SE,134,9.2,11.2,12,-99.99,,,0.00,813,rob ver 1B,2013-05-04 21:56:00,
2013-05-04 14:57:00,86.7,30.0,29.26,SSE,151,5.1,8.3,13,-99.99,,,0.00,792,rob ver 1B,2013-05-04 21:57:00,
2013-05-04 14:58:00,86.6,29.8,29.26,SE,130,6.6,12.5,12,-99.99,,,0.00,780,rob ver 1B,2013-05-04 21:58:00,
2013-05-04 14:59:00,94.2,25.2,29.12,SE,136,18.1,22.4,8,-99.99,,,0.00,817,rob ver 1A,2013-05-04 21:59:00,
2013-05-04 15:00:00,86.8,32.5,29.26,South,175,11.6,15.2,14,-99.99,,,0.00,786,rob ver 1B,2013-05-04 22:00:00,
2013-05-04 15:01:00,86.7,32.7,29.26,SSW,203,6.6,9.7,14,-99.99,,,0.00,774,rob ver 1B,2013-05-04 22:01:00,
2013-05-04 15:02:00,87.3,32.5,29.26,South,181,10.4,15.1,13,-99.99,,,0.00,771,rob ver 1B,2013-05-04 22:02:00,
2013-05-04 15:03:00,87.8,32.5,29.26,South,182,10.7,14.4,13,-99.99,,,0.00,777,rob ver 1B,2013-05-04 22:03:00,
2013-05-04 15:04:00,94.4,25.5,29.12,South,176,15.2,20.2,8,-99.99,,,0.00,801,rob ver 1A,2013-05-04 22:04:00,
2013-05-04 15:05:00,87.6,32.5,29.23,South,187,9.7,18.5,13,-99.99,,,0.00,764,rob ver 1B,2013-05-04 22:05:00,
2013-05-04 15:06:00,88.6,32.8,29.23,South,185,15.6,20.4,13,-99.99,,,0.00,762,rob ver 1B,2013-05-04 22:06:00,
2013-05-04 15:07:00,88.6,32.6,29.23,South,172,16.2,21.1,13,-99.99,,,0.00,763,rob ver 1B,2013-05-04 22:07:00,
2013-05-04 15:08:00,88.2,32.6,29.23,SSE,156,16.5,19.7,13,-99.99,,,0.00,761,rob ver 1B,2013-05-04 22:08:00,
2013-05-04 15:09:00,94.4,25.8,29.12,South,172,13.2,20.5,8,-99.99,,,0.00,786,rob ver 1A,2013-05-04 22:09:00,
2013-05-04 15:10:00,88.0,32.3,29.23,SSE,168,14.7,21.5,13,-99.99,,,0.00,756,rob ver 1B,2013-05-04 22:10:00,
2013-05-04 15:11:00,87.1,32.1,29.23,SSE,167,12.3,17.3,14,-99.99,,,0.00,752,rob ver 1B,2013-05-04 22:11:00,
2013-05-04 15:12:00,86.7,32.2,29.23,SSE,147,11.7,15.3,14,-99.99,,,0.00,757,rob ver 1B,2013-05-04 22:12:00,
2013-05-04 15:13:00,87.2,32.4,29.23,SE,143,7.2,10.0,14,-99.99,,,0.00,761,rob ver 1B,2013-05-04 22:13:00,
2013-05-04 15:14:00,93.9,26.2,29.12,SSE,147,17.9,22.8,8,-99.99,,,0.00,762,rob ver 1A,2013-05-04 22:14:00,
2013-05-04 15:15:00,88.2,32.4,29.23,South,181,14.2,16.7,13,-99.99,,,0.00,760,rob ver 1B,2013-05-04 22:15:00,
2013-05-04 15:16:00,87.6,32.1,29.23,South,179,10.9,15.0,13,-99.99,,,0.00,755,rob ver 1B,2013-05-04 22:16:00,
2013-05-04 15:17:00,87.2,32.1,29.23,South,183,8.6,12.6,13,-99.99,,,0.00,752,rob ver 1B,2013-05-04 22:17:00,
2013-05-04 15:18:00,87.1,32.0,29.23,SSW,200,9.8,12.8,13,-99.99,,,0.00,738,rob ver 1B,2013-05-04 22:18:00,
2013-05-04 15:19:00,94.8,28.2,29.12,SSE,166,23.8,30.7,9,-99.99,,,0.00,772,rob ver 1A,2013-05-04 22:19:00,
2013-05-04 15:20:00,87.1,31.9,29.23,SE,146,11.1,13.4,13,-99.99,,,0.00,743,rob ver 1B,2013-05-04 22:20:00,
2013-05-04 15:21:00,86.7,31.9,29.23,SSE,163,7.2,10.6,14,-99.99,,,0.00,734,rob ver 1B,2013-05-04 22:21:00,
2013-05-04 15:22:00,86.8,32.0,29.23,SSE,150,5.5,7.2,14,-99.99,,,0.00,733,rob ver 1B,2013-05-04 22:22:00,
2013-05-04 15:23:00,86.8,32.0,29.23,SSE,161,3.1,6.0,14,-99.99,,,0.00,735,rob ver 1B,2013-05-04 22:23:00,
2013-05-04 15:24:00,94.3,26.5,29.12,SSE,156,17.0,21.5,8,-99.99,,,0.00,747,rob ver 1A,2013-05-04 22:24:00,
2013-05-04 15:25:00,87.8,32.2,29.23,SSW,198,13.0,16.6,13,-99.99,,,0.00,728,rob ver 1B,2013-05-04 22:25:00,
2013-05-04 15:26:00,88.0,31.9,29.23,SSW,194,16.3,22.5,13,-99.99,,,0.00,725,rob ver 1B,2013-05-04 22:26:00,
2013-05-04 15:27:00,87.8,31.9,29.23,South,189,15.8,21.8,13,-99.99,,,0.00,725,rob ver 1B,2013-05-04 22:27:00,
2013-05-04 15:28:00,88.2,32.1,29.23,SSW,192,17.2,21.3,13,-99.99,,,0.00,730,rob ver 1B,2013-05-04 22:28:00,
2013-05-04 15:29:00,94.4,28.4,29.12,SSE,166,16.1,24.5,9,-99.99,,,0.00,771,rob ver 1A,2013-05-04 22:29:00,
2013-05-04 15:30:00,87.5,31.7,29.23,SSW,195,10.9,13.0,13,-99.99,,,0.00,722,rob ver 1B,2013-05-04 22:30:00,
2013-05-04 15:31:00,87.4,31.6,29.23,SSW,192,10.8,14.7,13,-99.99,,,0.00,716,rob ver 1B,2013-05-04 22:31:00,
2013-05-04 15:32:00,87.9,31.7,29.23,SSW,204,12.8,15.8,13,-99.99,,,0.00,725,rob ver 1B,2013-05-04 22:32:00,
2013-05-04 15:33:00,88.2,32.2,29.23,South,183,15.7,19.0,13,-99.99,,,0.00,707,rob ver 1B,2013-05-04 22:33:00,
2013-05-04 15:34:00,93.8,27.4,29.12,SSE,161,12.3,22.7,9,-99.99,,,0.00,683.8,rob ver 1A,2013-05-04 22:34:00,
2013-05-04 15:35:00,88.8,32.5,29.23,SSE,157,9.4,13.3,13,-99.99,,,0.00,741,rob ver 1B,2013-05-04 22:35:00,
2013-05-04 15:36:00,88.7,32.3,29.23,SSE,164,15.6,20.5,13,-99.99,,,0.00,733,rob ver 1B,2013-05-04 22:36:00,
2013-05-04 15:37:00,88.1,32.2,29.23,SSE,166,14.1,19.6,13,-99.99,,,0.00,729,rob ver 1B,2013-05-04 22:37:00,
2013-05-04 15:38:00,87.9,32.1,29.23,SSE,158,12.4,16.5,13,-99.99,,,0.00,727,rob ver 1B,2013-05-04 22:38:00,
2013-05-04 15:39:00,94.0,29.6,29.12,South,179,18.1,21.5,9,-99.99,,,0.00,526.5,rob ver 1A,2013-05-04 22:39:00,
2013-05-04 15:40:00,87.4,32.0,29.23,South,179,12.7,15.0,13,-99.99,,,0.00,723,rob ver 1B,2013-05-04 22:40:00,
2013-05-04 15:41:00,87.2,31.9,29.23,South,177,14.6,21.8,13,-99.99,,,0.00,721,rob ver 1B,2013-05-04 22:41:00,
2013-05-04 15:42:00,87.3,32.0,29.23,SSE,165,11.4,15.5,13,-99.99,,,0.00,717,rob ver 1B,2013-05-04 22:42:00,
2013-05-04 15:43:00,87.4,32.1,29.23,South,177,12.2,17.1,13,-99.99,,,0.00,707,rob ver 1B,2013-05-04 22:43:00,
2013-05-04 15:44:00,93.9,28.9,29.12,South,187,15.3,18.7,9,-99.99,,,0.00,647.8,rob ver 1A,2013-05-04 22:44:00,
2013-05-04 15:45:00,87.9,32.1,29.23,SSW,193,12.8,14.6,13,-99.99,,,0.00,631.8,rob ver 1B,2013-05-04 22:45:00,
2013-05-04 15:46:00,87.7,32.0,29.23,South,191,11.7,16.6,13,-99.99,,,0.00,502.8,rob ver 1B,2013-05-04 22:46:00,
2013-05-04 15:47:00,87.6,31.9,29.23,SSW,206,11.9,16.6,13,-99.99,,,0.00,461.2,rob ver 1B,2013-05-04 22:47:00,
2013-05-04 15:48:00,87.3,31.9,29.23,SSW,205,7.4,11.5,13,-99.99,,,0.00,444,rob ver 1B,2013-05-04 22:48:00,
2013-05-04 15:49:00,87.5,31.8,29.23,SSW,198,8.5,11.2,13,-99.99,,,0.00,497.5,rob ver 1B,2013-05-04 22:49:00,
2013-05-04 15:50:00,94.0,30.9,29.12,SSE,163,17.1,21.6,10,-99.99,,,0.00,730,rob ver 1A,2013-05-04 22:50:00,
2013-05-04 15:51:00,87.1,31.7,29.23,South,176,12.2,17.6,13,-99.99,,,0.00,671.1,rob ver 1B,2013-05-04 22:51:00,
2013-05-04 15:52:00,87.9,32.0,29.23,South,179,13.4,17.0,13,-99.99,,,0.00,658.5,rob ver 1B,2013-05-04 22:52:00,
2013-05-04 15:53:00,87.9,32.0,29.23,South,177,13.7,16.5,13,-99.99,,,0.00,627.5,rob ver 1B,2013-05-04 22:53:00,
2013-05-04 15:54:00,88.2,32.1,29.23,SSE,167,16.5,19.8,13,-99.99,,,0.00,561.7,rob ver 1B,2013-05-04 22:54:00,
2013-05-04 15:55:00,95.3,29.8,29.12,SSE,154,15.5,19.5,9,-99.99,,,0.00,619.1,rob ver 1A,2013-05-04 22:55:00,
2013-05-04 15:56:00,87.4,31.6,29.23,SSE,158,12.6,15.9,13,-99.99,,,0.00,604.9,rob ver 1B,2013-05-04 22:56:00,
2013-05-04 15:57:00,87.5,31.8,29.23,South,169,14.7,17.3,13,-99.99,,,0.00,664.7,rob ver 1B,2013-05-04 22:57:00,
2013-05-04 15:58:00,87.6,31.8,29.23,SSE,163,15.7,19.2,13,-99.99,,,0.00,664.6,rob ver 1B,2013-05-04 22:58:00,
2013-05-04 15:59:00,87.0,31.5,29.23,SSE,158,10.3,14.5,13,-99.99,,,0.00,658,rob ver 1B,2013-05-04 22:59:00,
2013-05-04 16:00:00,94.1,26.4,29.12,SE,132,13.6,17.2,8,-99.99,,,0.00,315.3,rob ver 1A,2013-05-04 23:00:00,
2013-05-04 16:01:00,86.4,31.4,29.23,SSE,156,9.4,12.7,13,-99.99,,,0.00,649.3,rob ver 1B,2013-05-04 23:01:00,
2013-05-04 16:02:00,86.8,31.7,29.23,SSE,156,6.9,11.7,13,-99.99,,,0.00,650.3,rob ver 1B,2013-05-04 23:02:00,
2013-05-04 16:03:00,86.9,31.4,29.23,SSE,158,6.0,9.8,13,-99.99,,,0.00,601,rob ver 1B,2013-05-04 23:03:00,
2013-05-04 16:04:00,86.6,31.3,29.23,SE,136,5.9,7.1,13,-99.99,,,0.00,617.7,rob ver 1B,2013-05-04 23:04:00,
2013-05-04 16:05:00,94.3,26.9,29.12,SSE,154,14.3,21.9,9,-99.99,,,0.00,359.8,rob ver 1A,2013-05-04 23:05:00,
2013-05-04 16:06:00,86.9,31.5,29.23,SSE,148,6.1,12.4,13,-99.99,,,0.00,609.2,rob ver 1B,2013-05-04 23:06:00,
2013-05-04 16:07:00,87.5,31.5,29.23,SSE,152,14.2,18.5,13,-99.99,,,0.00,624.4,rob ver 1B,2013-05-04 23:07:00,
2013-05-04 16:08:00,87.1,31.4,29.23,SSE,161,12.1,14.8,13,-99.99,,,0.00,622.6,rob ver 1B,2013-05-04 23:08:00,
2013-05-04 16:09:00,86.8,31.3,29.23,SE,141,7.5,11.5,13,-99.99,,,0.00,578.1,rob ver 1B,2013-05-04 23:09:00,
2013-05-04 16:10:00,93.2,27.2,29.09,SE,145,21.9,25.2,9,-99.99,,,0.00,324.5,rob ver 1A,2013-05-04 23:10:00,
2013-05-04 16:11:00,87.6,31.1,29.23,South,183,16.4,20.5,13,-99.99,,,0.00,544.5,rob ver 1B,2013-05-04 23:11:00,
2013-05-04 16:12:00,87.8,31.1,29.23,South,179,15.4,20.0,13,-99.99,,,0.00,573.5,rob ver 1B,2013-05-04 23:12:00,
2013-05-04 16:13:00,88.0,31.1,29.23,SSW,194,15.2,20.1,13,-99.99,,,0.00,615.3,rob ver 1B,2013-05-04 23:13:00,
2013-05-04 16:14:00,87.4,30.9,29.23,South,185,8.8,12.0,13,-99.99,,,0.00,611.5,rob ver 1B,2013-05-04 23:14:00,
2013-05-04 16:15:00,93.6,27.7,29.12,SSE,157,16.5,18.9,9,-99.99,,,0.00,541.4,rob ver 1A,2013-05-04 23:15:00,
2013-05-04 16:16:00,88.0,30.6,29.23,SSE,167,14.9,17.5,12,-99.99,,,0.00,605.1,rob ver 1B,2013-05-04 23:16:00,
2013-05-04 16:17:00,88.4,30.6,29.23,South,173,16.1,20.9,12,-99.99,,,0.00,605.1,rob ver 1B,2013-05-04 23:17:00,
2013-05-04 16:18:00,87.8,30.4,29.23,South,174,13.8,16.2,12,-99.99,,,0.00,604.6,rob ver 1B,2013-05-04 23:18:00,
2013-05-04 16:19:00,87.7,30.8,29.23,SSE,163,16.5,21.2,13,-99.99,,,0.00,567.1,rob ver 1B,2013-05-04 23:19:00,
2013-05-04 16:20:00,93.3,28.1,29.12,South,176,11.0,15.8,9,-99.99,,,0.00,319.3,rob ver 1A,2013-05-04 23:20:00,
2013-05-04 16:21:00,87.9,30.9,29.23,South,172,16.5,19.6,13,-99.99,,,0.00,403,rob ver 1B,2013-05-04 23:21:00,
2013-05-04 16:22:00,87.8,30.8,29.23,South,173,16.8,22.2,13,-99.99,,,0.00,261.2,rob ver 1B,2013-05-04 23:22:00,
2013-05-04 16:23:00,87.3,30.7,29.23,South,179,15.5,22.0,13,-99.99,,,0.00,283.5,rob ver 1B,2013-05-04 23:23:00,
2013-05-04 16:24:00,87.0,30.7,29.23,South,187,11.9,15.1,13,-99.99,,,0.00,368,rob ver 1B,2013-05-04 23:24:00,
2013-05-04 16:25:00,93.3,26.9,29.12,SSE,149,17.9,21.5,9,-99.99,,,0.00,531.4,rob ver 1A,2013-05-04 23:25:00,
2013-05-04 16:26:00,86.8,30.5,29.23,SSW,195,13.5,18.8,13,-99.99,,,0.00,146.4,rob ver 1B,2013-05-04 23:26:00,
2013-05-04 16:27:00,86.9,30.5,29.23,South,181,14.7,18.7,13,-99.99,,,0.00,190.9,rob ver 1B,2013-05-04 23:27:00,
2013-05-04 16:28:00,86.8,30.5,29.23,SSW,195,13.9,15.6,13,-99.99,,,0.00,138.5,rob ver 1B,2013-05-04 23:28:00,
2013-05-04 16:29:00,86.7,30.2,29.23,SSW,205,13.8,16.6,12,-99.99,,,0.00,173.3,rob ver 1B,2013-05-04 23:29:00,
2013-05-04 16:30:00,93.8,26.1,29.12,SSE,149,16.8,20.4,8,-99.99,,,0.00,636.9,rob ver 1A,2013-05-04 23:30:00,
2013-05-04 16:31:00,86.5,29.4,29.23,SSW,199,16.3,19.5,12,-99.99,,,0.00,273.2,rob ver 1B,2013-05-04 23:31:00,
2013-05-04 16:32:00,86.5,29.7,29.23,South,188,14.4,18.6,13,-99.99,,,0.00,212.6,rob ver 1B,2013-05-04 23:32:00,
2013-05-04 16:33:00,86.6,30.1,29.23,SSW,195,13.9,17.5,13,-99.99,,,0.00,172.6,rob ver 1B,2013-05-04 23:33:00,
2013-05-04 16:34:00,86.4,30.0,29.23,South,186,13.2,15.4,13,-99.99,,,0.00,228.9,rob ver 1B,2013-05-04 23:34:00,
2013-05-04 16:35:00,94.2,25.4,29.12,SE,141,12.8,16.0,8,-99.99,,,0.00,547.8,rob ver 1A,2013-05-04 23:35:00,
2013-05-04 16:36:00,86.6,30.5,29.23,SSW,204,13.5,15.4,13,-99.99,,,0.00,305.6,rob ver 1B,2013-05-04 23:36:00,
2013-05-04 16:37:00,86.3,30.6,29.23,SSW,202,12.3,14.8,13,-99.99,,,0.00,219.1,rob ver 1B,2013-05-04 23:37:00,
2013-05-04 16:38:00,86.3,30.5,29.23,SSW,210,12.7,15.5,13,-99.99,,,0.00,284,rob ver 1B,2013-05-04 23:38:00,
2013-05-04 16:39:00,86.2,30.8,29.23,SSW,212,12.2,15.1,13,-99.99,,,0.00,232.9,rob ver 1B,2013-05-04 23:39:00,
2013-05-04 16:40:00,94.4,26.3,29.12,SE,145,14.9,18.3,8,-99.99,,,0.00,285.9,rob ver 1A,2013-05-04 23:40:00,
2013-05-04 16:41:00,85.8,30.7,29.23,SSW,212,11.1,13.0,13,-99.99,,,0.00,153,rob ver 1B,2013-05-04 23:41:00,
2013-05-04 16:42:00,85.9,31.2,29.23,SSW,207,12.7,17.2,14,-99.99,,,0.00,134.6,rob ver 1B,2013-05-04 23:42:00,
2013-05-04 16:43:00,85.8,31.3,29.23,SSW,206,13.6,16.8,14,-99.99,,,0.00,134.6,rob ver 1B,2013-05-04 23:43:00,
2013-05-04 16:44:00,85.4,31.4,29.23,SSW,209,9.6,12.0,14,-99.99,,,0.00,142.5,rob ver 1B,2013-05-04 23:44:00,
2013-05-04 16:45:00,93.5,26.0,29.12,SE,141,11.0,13.6,8,-99.99,,,0.00,556.2,rob ver 1A,2013-05-04 23:45:00,
2013-05-04 16:46:00,85.8,31.1,29.23,SW,218,9.9,13.4,13,-99.99,,,0.00,179.8,rob ver 1B,2013-05-04 23:46:00,
2013-05-04 16:47:00,85.9,30.9,29.23,SW,214,5.1,8.1,13,-99.99,,,0.00,342.3,rob ver 1B,2013-05-04 23:47:00,
2013-05-04 16:48:00,85.9,30.3,29.23,SSE,153,10.4,14.5,13,-99.99,,,0.00,411.7,rob ver 1B,2013-05-04 23:48:00,
2013-05-04 16:49:00,85.9,30.2,29.23,SSE,156,12.1,14.2,13,-99.99,,,0.00,303.6,rob ver 1B,2013-05-04 23:49:00,
2013-05-04 16:50:00,93.4,24.4,29.12,SSE,154,16.4,19.1,8,-99.99,,,0.00,139.8,rob ver 1A,2013-05-04 23:50:00,
2013-05-04 16:51:00,85.5,30.2,29.23,SSE,164,8.2,11.3,13,-99.99,,,0.00,227.6,rob ver 1B,2013-05-04 23:51:00,
2013-05-04 16:52:00,85.7,30.6,29.23,SSE,162,9.2,11.3,13,-99.99,,,0.00,282.2,rob ver 1B,2013-05-04 23:52:00,
2013-05-04 16:53:00,85.8,31.0,29.23,SSW,194,10.1,13.1,13,-99.99,,,0.00,299.7,rob ver 1B,2013-05-04 23:53:00,
2013-05-04 16:54:00,85.9,31.1,29.23,SSW,199,11.6,14.0,13,-99.99,,,0.00,237.5,rob ver 1B,2013-05-04 23:54:00,
2013-05-04 16:55:00,93.1,23.4,29.12,SSE,155,19.0,23.3,7,-99.99,,,0.00,469.1,rob ver 1A,2013-05-04 23:55:00,
2013-05-04 16:56:00,85.6,30.9,29.23,SSE,167,9.7,13.1,14,-99.99,,,0.00,208.5,rob ver 1B,2013-05-04 23:56:00,
2013-05-04 16:57:00,85.4,30.8,29.23,South,185,7.3,9.4,13,-99.99,,,0.00,233.2,rob ver 1B,2013-05-04 23:57:00,
2013-05-04 16:58:00,85.6,30.8,29.23,South,176,7.2,8.6,13,-99.99,,,0.00,289.2,rob ver 1B,2013-05-04 23:58:00,
2013-05-04 16:59:00,85.7,30.8,29.23,South,183,8.7,11.4,13,-99.99,,,0.00,527.2,rob ver 1B,2013-05-04 23:59:00,
2013-05-04 17:00:00,93.0,22.9,29.09,SE,136,15.6,20.6,7,-99.99,,,0.00,446.6,rob ver 1A,2013-05-05 00:00:00,
2013-05-04 17:01:00,86.4,30.9,29.23,South,183,9.2,12.0,13,-99.99,,,0.00,531.4,rob ver 1B,2013-05-05 00:01:00,
2013-05-04 17:02:00,86.9,31.1,29.23,SSE,166,9.1,11.8,13,-99.99,,,0.00,463.1,rob ver 1B,2013-05-05 00:02:00,
2013-05-04 17:03:00,86.7,31.2,29.23,South,171,11.1,14.3,13,-99.99,,,0.00,338,rob ver 1B,2013-05-05 00:03:00,
2013-05-04 17:04:00,86.4,31.5,29.23,SSW,201,13.1,15.6,14,-99.99,,,0.00,322.3,rob ver 1B,2013-05-05 00:04:00,
2013-05-04 17:05:00,93.6,23.2,29.12,SE,144,17.7,21.4,7,-99.99,,,0.00,462,rob ver 1A,2013-05-05 00:05:00,
2013-05-04 17:06:00,86.1,31.5,29.23,SSW,205,13.1,15.5,14,-99.99,,,0.00,211.3,rob ver 1B,2013-05-05 00:06:00,
2013-05-04 17:07:00,86.1,31.5,29.23,SSW,199,11.1,13.0,14,-99.99,,,0.00,401.3,rob ver 1B,2013-05-05 00:07:00,
2013-05-04 17:08:00,86.3,31.5,29.23,SSW,196,10.6,13.4,14,-99.99,,,0.00,453.3,rob ver 1B,2013-05-05 00:08:00,
2013-05-04 17:09:00,86.7,31.7,29.23,SW,214,12.3,15.2,13,-99.99,,,0.00,440.9,rob ver 1B,2013-05-05 00:09:00,
2013-05-04 17:10:00,93.8,22.3,29.12,SSE,162,12.3,17.0,7,-99.99,,,0.00,438.1,rob ver 1A,2013-05-05 00:10:00,
2013-05-04 17:11:00,86.1,31.6,29.23,SW,222,10.9,14.0,14,-99.99,,,0.00,412.4,rob ver 1B,2013-05-05 00:11:00,
2013-05-04 17:12:00,86.1,31.7,29.23,SW,216,9.8,11.8,13,-99.99,,,0.00,408.5,rob ver 1B,2013-05-05 00:12:00,
2013-05-04 17:13:00,86.7,31.8,29.23,SW,223,10.5,13.1,14,-99.99,,,0.00,408,rob ver 1B,2013-05-05 00:13:00,
2013-05-04 17:14:00,86.5,31.9,29.23,SW,226,12.6,14.3,14,-99.99,,,0.00,405.9,rob ver 1B,2013-05-05 00:14:00,
2013-05-04 17:15:00,93.2,21.1,29.09,SE,139,19.3,22.4,7,-99.99,,,0.00,342.9,rob ver 1A,2013-05-05 00:15:00,
2013-05-04 17:16:00,85.9,32.8,29.23,SW,223,10.1,12.8,15,-99.99,,,0.00,374.4,rob ver 1B,2013-05-05 00:16:00,
2013-05-04 17:17:00,85.7,32.9,29.23,SW,226,8.1,10.9,15,-99.99,,,0.00,345.4,rob ver 1B,2013-05-05 00:17:00,
2013-05-04 17:18:00,86.0,32.9,29.23,SSW,204,6.8,8.8,14,-99.99,,,0.00,375.7,rob ver 1B,2013-05-05 00:18:00,
2013-05-04 17:19:00,86.1,32.4,29.23,SSW,209,5.3,11.8,14,-99.99,,,0.00,204.1,rob ver 1B,2013-05-05 00:19:00,
2013-05-04 17:20:00,92.9,21.2,29.09,SE,129,15.9,19.6,7,-99.99,,,0.00,304.2,rob ver 1A,2013-05-05 00:20:00,
2013-05-04 17:21:00,86.0,31.6,29.23,SSW,193,4.9,6.2,14,-99.99,,,0.00,365.3,rob ver 1B,2013-05-05 00:21:00,
2013-05-04 17:22:00,86.0,31.9,29.23,South,185,4.6,7.1,14,-99.99,,,0.00,329.9,rob ver 1B,2013-05-05 00:22:00,
2013-05-04 17:23:00,86.0,32.2,29.23,SW,219,5.2,7.9,14,-99.99,,,0.00,277.8,rob ver 1B,2013-05-05 00:23:00,
2013-05-04 17:24:00,86.1,32.6,29.23,SW,226,8.5,14.8,14,-99.99,,,0.00,326.6,rob ver 1B,2013-05-05 00:24:00,
2013-05-04 17:25:00,93.1,20.9,29.12,SE,137,13.4,17.6,7,-99.99,,,0.00,395.9,rob ver 1A,2013-05-05 00:25:00,
2013-05-04 17:26:00,86.1,32.3,29.23,SSE,168,10.3,13.0,14,-99.99,,,0.00,356.7,rob ver 1B,2013-05-05 00:26:00,
2013-05-04 17:27:00,86.3,32.8,29.23,SSW,198,11.6,15.0,14,-99.99,,,0.00,340.4,rob ver 1B,2013-05-05 00:27:00,
2013-05-04 17:28:00,86.5,32.8,29.23,South,190,13.3,16.1,14,-99.99,,,0.00,346.9,rob ver 1B,2013-05-05 00:28:00,
2013-05-04 17:29:00,86.2,33.0,29.23,South,186,10.3,13.0,14,-99.99,,,0.00,350.5,rob ver 1B,2013-05-05 00:29:00,
2013-05-04 17:30:00,92.9,21.4,29.09,SE,139,13.9,18.7,7,-99.99,,,0.00,389.4,rob ver 1A,2013-05-05 00:30:00,
2013-05-04 17:31:00,86.0,33.1,29.23,South,191,9.1,12.3,15,-99.99,,,0.00,239,rob ver 1B,2013-05-05 00:31:00,
2013-05-04 17:32:00,86.0,33.1,29.23,South,188,9.7,12.1,15,-99.99,,,0.00,292.6,rob ver 1B,2013-05-05 00:32:00,
2013-05-04 17:33:00,85.8,33.1,29.23,South,191,8.8,10.6,15,-99.99,,,0.00,305.7,rob ver 1B,2013-05-05 00:33:00,
2013-05-04 17:34:00,85.7,33.1,29.23,South,190,7.2,9.3,15,-99.99,,,0.00,339.9,rob ver 1B,2013-05-05 00:34:00,
2013-05-04 17:35:00,92.7,21.2,29.12,SSE,153,15.6,19.4,7,-99.99,,,0.00,380.9,rob ver 1A,2013-05-05 00:35:00,
2013-05-04 17:36:00,85.7,33.0,29.23,SSE,165,6.9,9.4,15,-99.99,,,0.00,348.3,rob ver 1B,2013-05-05 00:36:00,
2013-05-04 17:37:00,85.7,32.9,29.23,South,175,6.9,9.9,15,-99.99,,,0.00,272.9,rob ver 1B,2013-05-05 00:37:00,
2013-05-04 17:38:00,85.7,32.9,29.23,SSE,166,2.6,4.4,15,-99.99,,,0.00,341.9,rob ver 1B,2013-05-05 00:38:00,
2013-05-04 17:39:00,85.8,32.8,29.23,ESE,115,1.4,2.2,14,-99.99,,,0.00,334.2,rob ver 1B,2013-05-05 00:39:00,
2013-05-04 17:40:00,92.8,20.8,29.09,SSE,165,15.8,19.9,7,-99.99,,,0.00,336.3,rob ver 1A,2013-05-05 00:40:00,
2013-05-04 17:41:00,86.3,32.8,29.23,ESE,117,1.5,4.8,14,-99.99,,,0.00,214.6,rob ver 1B,2013-05-05 00:41:00,
2013-05-04 17:42:00,86.3,32.6,29.23,SSW,198,3.5,5.1,14,-99.99,,,0.00,213.3,rob ver 1B,2013-05-05 00:42:00,
2013-05-04 17:43:00,86.2,32.4,29.23,SSW,201,5.6,9.7,13,-99.99,,,0.00,194,rob ver 1B,2013-05-05 00:43:00,
2013-05-04 17:44:00,86.0,31.4,29.23,South,191,7.4,9.5,14,-99.99,,,0.00,154.3,rob ver 1B,2013-05-05 00:44:00,
2013-05-04 17:45:00,92.7,20.4,29.12,SSE,151,15.1,18.5,7,-99.99,,,0.00,307.5,rob ver 1A,2013-05-05 00:45:00,
2013-05-04 17:46:00,85.6,32.7,29.23,SSW,199,9.2,11.9,15,-99.99,,,0.00,166.8,rob ver 1B,2013-05-05 00:46:00,
2013-05-04 17:47:00,85.4,32.8,29.23,SSW,204,7.4,10.3,15,-99.99,,,0.00,156.6,rob ver 1B,2013-05-05 00:47:00,
2013-05-04 17:48:00,85.6,32.7,29.23,SSW,213,9.8,12.5,14,-99.99,,,0.00,153,rob ver 1B,2013-05-05 00:48:00,
2013-05-04 17:49:00,85.4,32.7,29.23,SSW,213,10.0,12.3,15,-99.99,,,0.00,147.8,rob ver 1B,2013-05-05 00:49:00,
2013-05-04 17:50:00,92.2,20.8,29.09,SSE,163,14.8,18.0,7,-99.99,,,0.00,290.2,rob ver 1A,2013-05-05 00:50:00,
2013-05-04 17:51:00,85.1,32.6,29.23,SW,218,7.2,9.2,15,-99.99,,,0.00,146,rob ver 1B,2013-05-05 00:51:00,
2013-05-04 17:52:00,85.2,32.6,29.23,SSW,202,6.1,7.2,15,-99.99,,,0.00,142.5,rob ver 1B,2013-05-05 00:52:00,
2013-05-04 17:53:00,85.3,32.6,29.23,South,182,7.7,9.2,15,-99.99,,,0.00,140.9,rob ver 1B,2013-05-05 00:53:00,
2013-05-04 17:54:00,85.2,32.2,29.23,South,181,6.6,8.4,14,-99.99,,,0.00,137.3,rob ver 1B,2013-05-05 00:54:00,
2013-05-04 17:55:00,92.3,20.4,29.09,SE,138,14.0,17.0,7,-99.99,,,0.00,277.2,rob ver 1A,2013-05-05 00:55:00,
2013-05-04 17:56:00,85.0,31.7,29.23,SSE,164,6.5,8.1,14,-99.99,,,0.00,132,rob ver 1B,2013-05-05 00:56:00,
2013-05-04 17:57:00,85.3,31.5,29.23,South,172,8.4,11.1,14,-99.99,,,0.00,128.1,rob ver 1B,2013-05-05 00:57:00,
2013-05-04 17:58:00,85.3,32.0,29.23,SSW,200,8.2,9.8,14,-99.99,,,0.00,124.5,rob ver 1B,2013-05-05 00:58:00,
2013-05-04 17:59:00,85.2,32.4,29.23,SW,222,9.1,10.8,15,-99.99,,,0.00,123,rob ver 1B,2013-05-05 00:59:00,
2013-05-04 18:00:00,92.1,20.6,29.09,SSE,158,15.9,18.9,7,-99.99,,,0.00,256.4,rob ver 1A,2013-05-05 01:00:00,
2013-05-04 18:01:00,85.2,30.5,29.23,SSW,200,9.1,11.3,13,-99.99,,,0.00,123.2,rob ver 1B,2013-05-05 01:01:00,
2013-05-04 18:02:00,85.4,31.4,29.23,South,190,7.2,8.3,14,-99.99,,,0.00,123.5,rob ver 1B,2013-05-05 01:02:00,
2013-05-04 18:03:00,85.2,32.4,29.23,SSW,204,8.0,9.3,15,-99.99,,,0.00,123.4,rob ver 1B,2013-05-05 01:03:00,
2013-05-04 18:04:00,85.0,32.7,29.23,SSW,201,7.2,9.2,15,-99.99,,,0.00,120.9,rob ver 1B,2013-05-05 01:04:00,
2013-05-04 18:05:00,92.1,20.7,29.12,SE,135,14.7,19.6,7,-99.99,,,0.00,227,rob ver 1A,2013-05-05 01:05:00,
2013-05-04 18:06:00,84.8,33.3,29.23,SW,217,10.4,13.1,15,-99.99,,,0.00,120.9,rob ver 1B,2013-05-05 01:06:00,
2013-05-04 18:07:00,84.7,33.5,29.23,SW,216,9.2,11.4,16,-99.99,,,0.00,126.1,rob ver 1B,2013-05-05 01:07:00,
2013-05-04 18:08:00,84.8,33.9,29.23,SSW,207,9.9,11.4,16,-99.99,,,0.00,120.2,rob ver 1B,2013-05-05 01:08:00,
2013-05-04 18:09:00,84.9,34.0,29.23,SSW,210,8.4,10.5,16,-99.99,,,0.00,125.3,rob ver 1B,2013-05-05 01:09:00,
2013-05-04 18:10:00,91.4,20.6,29.09,SE,130,15.4,19.1,7,-99.99,,,0.00,199.6,rob ver 1A,2013-05-05 01:10:00,
2013-05-04 18:11:00,84.8,34.0,29.23,SSW,193,9.7,14.9,16,-99.99,,,0.00,116.3,rob ver 1B,2013-05-05 01:11:00,
2013-05-04 18:12:00,84.9,34.6,29.23,SSW,198,13.9,15.9,16,-99.99,,,0.00,111.7,rob ver 1B,2013-05-05 01:12:00,
2013-05-04 18:13:00,84.8,34.5,29.23,South,190,10.8,14.3,16,-99.99,,,0.00,102.9,rob ver 1B,2013-05-05 01:13:00,
2013-05-04 18:14:00,84.8,34.5,29.23,SSW,205,10.2,12.3,16,-99.99,,,0.00,120.3,rob ver 1B,2013-05-05 01:14:00,
2013-05-04 18:15:00,91.2,20.6,29.09,SE,140,13.4,20.1,7,-99.99,,,0.00,179.1,rob ver 1A,2013-05-05 01:15:00,
2013-05-04 18:16:00,84.8,35.7,29.21,SSW,204,11.1,16.1,17,-99.99,,,0.00,104.2,rob ver 1B,2013-05-05 01:16:00,
2013-05-04 18:17:00,84.9,35.7,29.21,SSW,200,11.8,15.3,17,-99.99,,,0.00,124.2,rob ver 1B,2013-05-05 01:17:00,
2013-05-04 18:18:00,85.1,35.9,29.21,SSW,205,15.7,19.0,17,-99.99,,,0.00,122.9,rob ver 1B,2013-05-05 01:18:00,
2013-05-04 18:19:00,85.0,36.1,29.21,SW,217,16.2,19.5,17,-99.99,,,0.00,117.1,rob ver 1B,2013-05-05 01:19:00,
2013-05-04 18:20:00,84.9,36.2,29.21,SW,216,16.2,19.7,17,-99.99,,,0.00,96.7,rob ver 1B,2013-05-05 01:20:00,
2013-05-04 18:21:00,90.8,20.6,29.09,SE,140,14.2,16.6,7,-99.99,,,0.00,159.5,rob ver 1A,2013-05-05 01:21:00,
2013-05-04 18:22:00,84.7,36.3,29.21,SSW,200,15.1,19.7,17,-99.99,,,0.00,104.5,rob ver 1B,2013-05-05 01:22:00,
2013-05-04 18:23:00,84.9,36.3,29.21,SSW,204,15.2,19.4,17,-99.99,,,0.00,96.5,rob ver 1B,2013-05-05 01:23:00,
2013-05-04 18:24:00,84.7,36.0,29.21,SSW,195,16.3,20.8,17,-99.99,,,0.00,98,rob ver 1B,2013-05-05 01:24:00,
2013-05-04 18:25:00,84.5,36.0,29.21,SSW,198,16.0,20.1,17,-99.99,,,0.00,89.8,rob ver 1B,2013-05-05 01:25:00,
2013-05-04 18:26:00,90.2,19.6,29.12,SE,143,12.7,16.7,7,-99.99,,,0.00,139.8,rob ver 1A,2013-05-05 01:26:00,
2013-05-04 18:27:00,84.4,36.8,29.21,SSW,195,17.1,21.4,18,-99.99,,,0.00,105.2,rob ver 1B,2013-05-05 01:27:00,
2013-05-04 18:28:00,84.1,37.7,29.21,SSW,195,20.2,24.8,19,-99.99,,,0.00,134.8,rob ver 1B,2013-05-05 01:28:00,
2013-05-04 18:29:00,83.7,38.0,29.21,SSW,193,20.7,26.9,19,-99.99,,,0.00,128.8,rob ver 1B,2013-05-05 01:29:00,
2013-05-04 18:30:00,83.6,38.0,29.21,SSW,194,20.2,26.8,19,-99.99,,,0.00,119.6,rob ver 1B,2013-05-05 01:30:00,
2013-05-04 18:31:00,90.1,19.4,29.12,SSE,149,12.6,15.3,7,-99.99,,,0.00,46.18,rob ver 1A,2013-05-05 01:31:00,
2013-05-04 18:32:00,83.7,37.9,29.23,SSW,197,19.3,24.8,19,-99.99,,,0.00,109.1,rob ver 1B,2013-05-05 01:32:00,
2013-05-04 18:33:00,83.7,38.0,29.21,SSW,199,20.2,25.0,19,-99.99,,,0.00,104.5,rob ver 1B,2013-05-05 01:33:00,
2013-05-04 18:34:00,83.8,37.9,29.23,SSW,197,17.2,23.0,19,-99.99,,,0.00,104.5,rob ver 1B,2013-05-05 01:34:00,
2013-05-04 18:35:00,83.8,37.8,29.23,SSW,192,19.8,26.4,19,-99.99,,,0.00,102.6,rob ver 1B,2013-05-05 01:35:00,
2013-05-04 18:36:00,90.0,19.3,29.12,SE,143,12.3,16.8,7,-99.99,,,0.00,64.85,rob ver 1A,2013-05-05 01:36:00,
2013-05-04 18:37:00,83.5,37.9,29.23,SSW,198,20.4,25.5,19,-99.99,,,0.00,97.5,rob ver 1B,2013-05-05 01:37:00,
2013-05-04 18:38:00,83.5,38.0,29.23,South,189,20.2,25.4,19,-99.99,,,0.00,96,rob ver 1B,2013-05-05 01:38:00,
2013-05-04 18:39:00,83.3,38.0,29.23,SSW,193,21.4,27.1,20,-99.99,,,0.00,95.4,rob ver 1B,2013-05-05 01:39:00,
2013-05-04 18:40:00,83.2,38.0,29.23,SSW,195,21.5,27.1,20,-99.99,,,0.00,91.4,rob ver 1B,2013-05-05 01:40:00,
2013-05-04 18:41:00,89.7,18.4,29.12,SSE,153,14.9,18.4,7,-99.99,,,0.00,71.1,rob ver 1A,2013-05-05 01:41:00,
2013-05-04 18:42:00,83.0,37.9,29.23,SSW,196,17.9,22.3,20,-99.99,,,0.00,68.98,rob ver 1B,2013-05-05 01:42:00,
2013-05-04 18:43:00,83.1,37.5,29.23,SSW,196,20.1,26.6,19,-99.99,,,0.00,75.9,rob ver 1B,2013-05-05 01:43:00,
2013-05-04 18:44:00,83.1,36.7,29.23,SSW,201,22.4,26.8,18,-99.99,,,0.00,68.81,rob ver 1B,2013-05-05 01:44:00,
2013-05-04 18:45:00,82.9,36.6,29.23,SSW,204,21.5,24.2,19,-99.99,,,0.00,72.4,rob ver 1B,2013-05-05 01:45:00,
2013-05-04 18:46:00,89.4,18.4,29.12,SSE,149,13.6,15.6,7,-99.99,,,0.00,50.77,rob ver 1A,2013-05-05 01:46:00,
2013-05-04 18:47:00,82.8,36.5,29.23,SSW,204,18.0,21.5,18,-99.99,,,0.00,79.6,rob ver 1B,2013-05-05 01:47:00,
2013-05-04 18:48:00,82.8,36.4,29.23,SSW,198,17.9,22.5,18,-99.99,,,0.00,81.1,rob ver 1B,2013-05-05 01:48:00,
2013-05-04 18:49:00,82.9,36.5,29.23,SSW,198,16.5,19.7,19,-99.99,,,0.00,81.8,rob ver 1B,2013-05-05 01:49:00,
2013-05-04 18:50:00,82.9,36.7,29.23,SSW,193,15.4,19.8,19,-99.99,,,0.00,80.9,rob ver 1B,2013-05-05 01:50:00,
2013-05-04 18:51:00,89.0,19.1,29.12,SSE,155,11.1,14.1,7,-99.99,,,0.00,40.94,rob ver 1A,2013-05-05 01:51:00,
2013-05-04 18:52:00,82.5,36.8,29.23,South,190,13.9,17.3,19,-99.99,,,0.00,80.9,rob ver 1B,2013-05-05 01:52:00,
2013-05-04 18:53:00,82.7,36.9,29.23,SSW,195,16.0,19.8,19,-99.99,,,0.00,79.6,rob ver 1B,2013-05-05 01:53:00,
2013-05-04 18:54:00,82.7,36.3,29.23,SSW,208,17.3,20.3,18,-99.99,,,0.00,77,rob ver 1B,2013-05-05 01:54:00,
2013-05-04 18:55:00,82.5,36.0,29.23,SSW,213,17.6,20.8,18,-99.99,,,0.00,73.4,rob ver 1B,2013-05-05 01:55:00,
2013-05-04 18:56:00,88.9,17.9,29.12,SE,135,11.7,14.8,7,-99.99,,,0.00,39.63,rob ver 1A,2013-05-05 01:56:00,
2013-05-04 18:57:00,82.2,36.1,29.23,SW,217,16.5,21.2,19,-99.99,,,0.00,67.34,rob ver 1B,2013-05-05 01:57:00,
2013-05-04 18:58:00,82.1,36.0,29.23,SSW,210,17.0,21.0,19,-99.99,,,0.00,65.21,rob ver 1B,2013-05-05 01:58:00,
2013-05-04 18:59:00,81.9,36.1,29.23,SSW,212,15.8,18.7,19,-99.99,,,0.00,62.59,rob ver 1B,2013-05-05 01:59:00,
2013-05-04 19:00:00,81.9,37.1,29.23,SSW,201,20.6,26.2,21,-99.99,,,0.00,60.62,rob ver 1B,2013-05-05 02:00:00,
2013-05-04 19:01:00,88.3,20.0,29.12,SSE,156,10.4,14.7,8,-99.99,,,0.00,32.1,rob ver 1A,2013-05-05 02:01:00,
2013-05-04 19:02:00,81.7,37.4,29.23,South,191,16.4,21.8,20,-99.99,,,0.00,58.66,rob ver 1B,2013-05-05 02:02:00,
2013-05-04 19:03:00,81.6,38.2,29.23,SSW,192,18.3,23.7,21,-99.99,,,0.00,58.66,rob ver 1B,2013-05-05 02:03:00,
2013-05-04 19:04:00,81.5,39.3,29.23,South,180,17.8,23.3,22,-99.99,,,0.00,58.82,rob ver 1B,2013-05-05 02:04:00,
2013-05-04 19:05:00,81.3,39.6,29.23,South,177,20.6,25.2,22,-99.99,,,0.00,57.67,rob ver 1B,2013-05-05 02:05:00,
2013-05-04 19:06:00,88.3,18.4,29.12,SE,146,10.8,13.2,7,-99.99,,,0.00,19,rob ver 1A,2013-05-05 02:06:00,
2013-05-04 19:07:00,80.8,40.0,29.23,South,177,19.1,23.6,23,-99.99,,,0.00,54.07,rob ver 1B,2013-05-05 02:07:00,
2013-05-04 19:08:00,80.9,40.0,29.23,South,178,19.4,25.7,23,-99.99,,,0.00,52.1,rob ver 1B,2013-05-05 02:08:00,
2013-05-04 19:09:00,80.8,40.1,29.23,South,174,20.6,24.5,23,-99.99,,,0.00,49.81,rob ver 1B,2013-05-05 02:09:00,
2013-05-04 19:10:00,80.8,40.0,29.23,South,173,18.6,23.4,23,-99.99,,,0.00,47.51,rob ver 1B,2013-05-05 02:10:00,
2013-05-04 19:11:00,87.8,19.5,29.12,SSE,152,9.2,11.5,8,-99.99,,,0.00,9.17,rob ver 1A,2013-05-05 02:11:00,
2013-05-04 19:12:00,80.7,40.0,29.23,South,176,20.1,23.8,23,-99.99,,,0.00,43.25,rob ver 1B,2013-05-05 02:12:00,
2013-05-04 19:13:00,80.8,40.1,29.23,South,175,16.2,19.8,23,-99.99,,,0.00,40.96,rob ver 1B,2013-05-05 02:13:00,
2013-05-04 19:14:00,80.8,39.9,29.23,South,173,19.6,23.9,23,-99.99,,,0.00,38.01,rob ver 1B,2013-05-05 02:14:00,
2013-05-04 19:15:00,80.6,39.9,29.23,South,181,21.7,26.6,23,-99.99,,,0.00,35.06,rob ver 1B,2013-05-05 02:15:00,
2013-05-04 19:16:00,87.3,19.9,29.12,SSE,154,9.4,11.3,8,-99.99,,,0.00,5.896,rob ver 1A,2013-05-05 02:16:00,
2013-05-04 19:17:00,80.5,39.9,29.23,South,175,21.3,27.7,23,-99.99,,,0.00,29.98,rob ver 1B,2013-05-05 02:17:00,
2013-05-04 19:18:00,80.3,39.9,29.23,South,174,23.2,27.5,23,-99.99,,,0.00,27.85,rob ver 1B,2013-05-05 02:18:00,
2013-05-04 19:19:00,80.2,40.0,29.23,South,176,22.2,27.6,23,-99.99,,,0.00,25.4,rob ver 1B,2013-05-05 02:19:00,
2013-05-04 19:20:00,80.2,40.0,29.23,South,179,22.6,27.2,23,-99.99,,,0.00,21.96,rob ver 1B,2013-05-05 02:20:00,
2013-05-04 19:21:00,87.3,19.2,29.12,SE,144,9.9,11.8,8,-99.99,,,0.00,3.603,rob ver 1A,2013-05-05 02:21:00,
2013-05-04 19:22:00,80.2,40.1,29.23,South,180,22.9,26.1,24,-99.99,,,0.00,11.47,rob ver 1B,2013-05-05 02:22:00,
2013-05-04 19:23:00,80.3,40.2,29.23,South,180,20.5,25.8,24,-99.99,,,0.00,7.37,rob ver 1B,2013-05-05 02:23:00,
2013-05-04 19:24:00,80.2,40.4,29.23,South,181,19.4,24.5,24,-99.99,,,0.00,4.588,rob ver 1B,2013-05-05 02:24:00,
2013-05-04 19:25:00,80.2,40.5,29.23,South,178,18.9,26.4,24,-99.99,,,0.00,2.949,rob ver 1B,2013-05-05 02:25:00,
2013-05-04 19:26:00,87.2,19.0,29.12,SE,144,9.3,11.6,8,-99.99,,,0.00,2.293,rob ver 1A,2013-05-05 02:26:00,
2013-05-04 19:27:00,80.0,41.1,29.23,South,179,21.8,25.0,25,-99.99,,,0.00,1.966,rob ver 1B,2013-05-05 02:27:00,
2013-05-04 19:28:00,79.9,41.2,29.23,South,182,18.8,22.1,25,-99.99,,,0.00,1.475,rob ver 1B,2013-05-05 02:28:00,
2013-05-04 19:29:00,79.8,41.5,29.23,South,184,18.8,24.0,25,-99.99,,,0.00,1.311,rob ver 1B,2013-05-05 02:29:00,
2013-05-04 19:30:00,79.9,41.5,29.26,South,183,16.5,19.7,25,-99.99,,,0.00,1.311,rob ver 1B,2013-05-05 02:30:00,
2013-05-04 19:31:00,87.0,18.9,29.12,SE,135,9.2,11.7,8,-99.99,,,0.00,1.311,rob ver 1A,2013-05-05 02:31:00,
2013-05-04 19:32:00,80.0,41.6,29.26,South,180,17.3,23.4,25,-99.99,,,0.00,.983,rob ver 1B,2013-05-05 02:32:00,
2013-05-04 19:33:00,80.0,41.7,29.23,South,177,19.7,24.0,25,-99.99,,,0.00,.819,rob ver 1B,2013-05-05 02:33:00,
2013-05-04 19:34:00,79.8,41.8,29.23,South,173,19.2,22.8,25,-99.99,,,0.00,.655,rob ver 1B,2013-05-05 02:34:00,
2013-05-04 19:35:00,79.7,41.8,29.23,South,173,19.8,23.0,26,-99.99,,,0.00,.655,rob ver 1B,2013-05-05 02:35:00,
2013-05-04 19:36:00,86.7,18.9,29.12,SE,141,8.3,10.2,8,-99.99,,,0.00,.328,rob ver 1A,2013-05-05 02:36:00,
2013-05-04 19:37:00,79.6,41.8,29.26,South,172,16.7,20.2,26,-99.99,,,0.00,.328,rob ver 1B,2013-05-05 02:37:00,
2013-05-04 19:38:00,79.6,41.8,29.26,South,174,15.1,18.9,25,-99.99,,,0.00,.328,rob ver 1B,2013-05-05 02:38:00,
2013-05-04 19:39:00,79.6,41.7,29.26,South,174,17.4,20.2,25,-99.99,,,0.00,.164,rob ver 1B,2013-05-05 02:39:00,
2013-05-04 19:40:00,79.6,41.8,29.26,South,175,16.9,19.4,26,-99.99,,,0.00,0,rob ver 1B,2013-05-05 02:40:00,
2013-05-04 19:41:00,86.3,19.7,29.12,SSE,150,8.0,10.5,8,-99.99,,,0.00,0,rob ver 1A,2013-05-05 02:41:00,
2013-05-04 19:42:00,79.5,42.1,29.26,South,186,16.2,19.1,26,-99.99,,,0.00,0,rob ver 1B,2013-05-05 02:42:00,
2013-05-04 19:43:00,79.4,42.2,29.26,SSW,193,16.8,19.8,26,-99.99,,,0.00,0,rob ver 1B,2013-05-05 02:43:00,
2013-05-04 19:44:00,79.3,42.0,29.26,SSW,201,15.7,19.1,25,-99.99,,,0.00,0,rob ver 1B,2013-05-05 02:44:00,
2013-05-04 19:45:00,79.3,40.5,29.26,SSW,201,16.0,18.9,23,-99.99,,,0.00,0,rob ver 1B,2013-05-05 02:45:00,
2013-05-04 19:46:00,85.6,19.8,29.12,SSE,160,7.2,8.5,8,-99.99,,,0.00,0,rob ver 1A,2013-05-05 02:46:00,
2013-05-04 19:47:00,78.8,37.4,29.26,SSW,209,15.5,19.3,22,-99.99,,,0.00,0,rob ver 1B,2013-05-05 02:47:00,
2013-05-04 19:48:00,78.6,37.5,29.26,SW,218,15.5,19.2,22,-99.99,,,0.00,0,rob ver 1B,2013-05-05 02:48:00,
2013-05-04 19:49:00,78.5,37.6,29.26,SW,221,15.7,18.9,23,-99.99,,,0.00,0,rob ver 1B,2013-05-05 02:49:00,
2013-05-04 19:50:00,78.4,38.3,29.26,SW,221,16.2,20.0,24,-99.99,,,0.00,0,rob ver 1B,2013-05-05 02:50:00,
2013-05-04 19:51:00,85.2,19.7,29.15,South,171,6.7,8.0,8,-99.99,,,0.00,0,rob ver 1A,2013-05-05 02:51:00,
2013-05-04 19:52:00,78.7,41.2,29.26,SSW,198,17.8,21.8,25,-99.99,,,0.00,0,rob ver 1B,2013-05-05 02:52:00,
2013-05-04 19:53:00,78.5,39.7,29.26,SSW,197,17.1,20.7,24,-99.99,,,0.00,0,rob ver 1B,2013-05-05 02:53:00,
2013-05-04 19:54:00,78.1,39.5,29.26,SSW,195,15.9,20.4,25,-99.99,,,0.00,0,rob ver 1B,2013-05-05 02:54:00,
2013-05-04 19:55:00,77.8,39.4,29.26,SSW,196,15.0,19.6,25,-99.99,,,0.00,0,rob ver 1B,2013-05-05 02:55:00,
2013-05-04 19:56:00,84.6,19.1,29.15,South,180,6.6,7.6,8,-99.99,,,0.00,0,rob ver 1A,2013-05-05 02:56:00,
2013-05-04 19:57:00,77.6,39.6,29.26,SSW,211,14.8,17.8,25,-99.99,,,0.00,0,rob ver 1B,2013-05-05 02:57:00,
2013-05-04 19:58:00,77.6,39.8,29.26,SW,226,15.8,19.9,26,-99.99,,,0.00,0,rob ver 1B,2013-05-05 02:58:00,
2013-05-04 19:59:00,77.4,39.9,29.26,SW,228,15.6,18.2,26,-99.99,,,0.00,0,rob ver 1B,2013-05-05 02:59:00,
2013-05-04 20:00:00,77.3,39.8,29.26,SW,227,16.0,20.1,26,-99.99,,,0.00,0,rob ver 1B,2013-05-05 03:00:00,
2013-05-04 20:01:00,84.3,19.2,29.15,South,188,5.7,7.3,9,-99.99,,,0.00,0,rob ver 1A,2013-05-05 03:01:00,
2013-05-04 20:02:00,76.9,39.6,29.26,SW,229,15.2,19.8,26,-99.99,,,0.00,0,rob ver 1B,2013-05-05 03:02:00,
2013-05-04 20:03:00,76.8,39.4,29.26,SW,235,16.7,20.3,26,-99.99,,,0.00,0,rob ver 1B,2013-05-05 03:03:00,
2013-05-04 20:04:00,76.7,39.4,29.26,SW,230,16.4,19.1,26,-99.99,,,0.00,0,rob ver 1B,2013-05-05 03:04:00,
2013-05-04 20:05:00,76.6,39.4,29.26,SW,232,15.3,19.1,26,-99.99,,,0.00,0,rob ver 1B,2013-05-05 03:05:00,
2013-05-04 20:06:00,83.6,21.7,29.15,SSW,209,7.0,8.5,10,-99.99,,,0.00,0,rob ver 1A,2013-05-05 03:06:00,
2013-05-04 20:07:00,76.5,39.2,29.26,SW,228,12.2,17.6,26,-99.99,,,0.00,0,rob ver 1B,2013-05-05 03:07:00,
2013-05-04 20:08:00,76.5,38.9,29.26,SW,227,15.5,18.3,25,-99.99,,,0.00,0,rob ver 1B,2013-05-05 03:08:00,
2013-05-04 20:09:00,76.4,38.6,29.26,SW,229,16.8,19.9,25,-99.99,,,0.00,0,rob ver 1B,2013-05-05 03:09:00,
2013-05-04 20:10:00,76.2,38.4,29.26,SW,234,16.7,18.6,25,-99.99,,,0.00,0,rob ver 1B,2013-05-05 03:10:00,
2013-05-04 20:11:00,83.3,22.8,29.15,SW,218,8.4,10.6,10,-99.99,,,0.00,0,rob ver 1A,2013-05-05 03:11:00,
2013-05-04 20:12:00,76.2,38.4,29.26,SW,233,14.0,18.2,25,-99.99,,,0.00,0,rob ver 1B,2013-05-05 03:12:00,
2013-05-04 20:13:00,76.2,38.4,29.26,SW,233,16.8,19.3,25,-99.99,,,0.00,0,rob ver 1B,2013-05-05 03:13:00,
2013-05-04 20:14:00,76.1,38.3,29.26,WSW,241,13.7,17.7,25,-99.99,,,0.00,0,rob ver 1B,2013-05-05 03:14:00,
2013-05-04 20:15:00,76.2,38.1,29.26,WSW,245,15.8,19.3,25,-99.99,,,0.00,0,rob ver 1B,2013-05-05 03:15:00,
2013-05-04 20:16:00,82.4,25.7,29.15,SW,226,15.7,18.5,12,-99.99,,,0.00,0,rob ver 1A,2013-05-05 03:16:00,
2013-05-04 20:17:00,76.1,37.7,29.26,WSW,240,14.4,17.6,24,-99.99,,,0.00,0,rob ver 1B,2013-05-05 03:17:00,
2013-05-04 20:18:00,76.0,37.1,29.26,SW,234,17.0,21.5,24,-99.99,,,0.00,0,rob ver 1B,2013-05-05 03:18:00,
2013-05-04 20:19:00,75.9,36.9,29.26,SW,235,15.7,23.9,24,-99.99,,,0.00,0,rob ver 1B,2013-05-05 03:19:00,
2013-05-04 20:20:00,75.8,36.3,29.26,WSW,247,17.6,21.9,23,-99.99,,,0.00,0,rob ver 1B,2013-05-05 03:20:00,
2013-05-04 20:21:00,81.3,27.5,29.15,SW,228,15.6,19.5,14,-99.99,,,0.00,0,rob ver 1A,2013-05-05 03:21:00,
2013-05-04 20:22:00,75.8,35.6,29.26,WSW,239,16.4,20.6,22,-99.99,,,0.00,0,rob ver 1B,2013-05-05 03:22:00,
2013-05-04 20:23:00,75.7,35.2,29.26,WSW,241,17.8,21.9,22,-99.99,,,0.00,0,rob ver 1B,2013-05-05 03:23:00,
2013-05-04 20:24:00,75.5,35.1,29.26,WSW,241,18.5,22.3,22,-99.99,,,0.00,0,rob ver 1B,2013-05-05 03:24:00,
2013-05-04 20:25:00,75.5,35.1,29.26,WSW,238,16.2,19.1,22,-99.99,,,0.00,0,rob ver 1B,2013-05-05 03:25:00,
2013-05-04 20:26:00,80.6,28.6,29.15,SW,219,16.2,20.6,14,-99.99,,,0.00,0,rob ver 1A,2013-05-05 03:26:00,
2013-05-04 20:27:00,75.5,35.0,29.29,SW,234,16.7,20.1,22,-99.99,,,0.00,0,rob ver 1B,2013-05-05 03:27:00,
2013-05-04 20:28:00,75.5,35.0,29.26,WSW,239,17.5,20.0,22,-99.99,,,0.00,0,rob ver 1B,2013-05-05 03:28:00,
2013-05-04 20:29:00,75.4,35.2,29.26,WSW,255,16.6,20.3,23,-99.99,,,0.00,0,rob ver 1B,2013-05-05 03:29:00,
2013-05-04 20:30:00,75.3,35.6,29.26,WSW,253,19.9,24.4,23,-99.99,,,0.00,0,rob ver 1B,2013-05-05 03:30:00,
2013-05-04 20:31:00,80.6,27.0,29.15,SW,223,15.4,18.7,13,-99.99,,,0.00,0,rob ver 1A,2013-05-05 03:31:00,
2013-05-04 20:32:00,75.1,36.1,29.29,WSW,248,16.6,21.1,24,-99.99,,,0.00,0,rob ver 1B,2013-05-05 03:32:00,
2013-05-04 20:33:00,75.0,36.5,29.29,WSW,253,18.3,21.3,24,-99.99,,,0.00,0,rob ver 1B,2013-05-05 03:33:00,
2013-05-04 20:34:00,74.9,36.8,29.29,WSW,249,15.9,20.4,25,-99.99,,,0.00,0,rob ver 1B,2013-05-05 03:34:00,
2013-05-04 20:35:00,74.8,37.0,29.29,WSW,253,17.4,23.3,25,-99.99,,,0.00,0,rob ver 1B,2013-05-05 03:35:00,
2013-05-04 20:36:00,80.7,26.5,29.15,SW,219,16.6,19.1,13,-99.99,,,0.00,0,rob ver 1A,2013-05-05 03:36:00,
2013-05-04 20:37:00,74.7,37.2,29.29,WSW,250,12.5,14.8,25,-99.99,,,0.00,0,rob ver 1B,2013-05-05 03:37:00,
2013-05-04 20:38:00,74.7,37.2,29.29,WSW,249,13.3,17.6,25,-99.99,,,0.00,0,rob ver 1B,2013-05-05 03:38:00,
2013-05-04 20:39:00,74.7,37.5,29.29,WSW,247,14.9,17.8,26,-99.99,,,0.00,0,rob ver 1B,2013-05-05 03:39:00,
2013-05-04 20:40:00,74.5,37.7,29.29,WSW,245,17.3,23.7,26,-99.99,,,0.00,0,rob ver 1B,2013-05-05 03:40:00,
2013-05-04 20:41:00,74.4,37.9,29.29,WSW,250,18.8,22.7,26,-99.99,,,0.00,0,rob ver 1B,2013-05-05 03:41:00,
2013-05-04 20:42:00,80.6,26.0,29.15,SW,216,14.6,17.0,13,-99.99,,,0.00,0,rob ver 1A,2013-05-05 03:42:00,
2013-05-04 20:43:00,74.2,37.9,29.29,WSW,249,17.1,24.7,26,-99.99,,,0.00,0,rob ver 1B,2013-05-05 03:43:00,
2013-05-04 20:44:00,74.2,37.9,29.29,WSW,248,16.6,21.3,26,-99.99,,,0.00,0,rob ver 1B,2013-05-05 03:44:00,
2013-05-04 20:45:00,74.1,37.9,29.29,WSW,249,15.3,18.8,26,-99.99,,,0.00,0,rob ver 1B,2013-05-05 03:45:00,
2013-05-04 20:46:00,74.1,37.9,29.29,WSW,245,13.0,16.8,26,-99.99,,,0.00,0,rob ver 1B,2013-05-05 03:46:00,
2013-05-04 20:47:00,80.6,25.7,29.15,SSW,213,16.4,18.6,13,-99.99,,,0.00,0,rob ver 1A,2013-05-05 03:47:00,
2013-05-04 20:48:00,74.1,38.0,29.29,WSW,255,12.3,16.6,27,-99.99,,,0.00,0,rob ver 1B,2013-05-05 03:48:00,
2013-05-04 20:49:00,74.0,38.0,29.29,WSW,250,13.5,16.4,27,-99.99,,,0.00,0,rob ver 1B,2013-05-05 03:49:00,
2013-05-04 20:50:00,73.9,38.0,29.29,WSW,256,15.6,19.7,27,-99.99,,,0.00,0,rob ver 1B,2013-05-05 03:50:00,
2013-05-04 20:51:00,73.9,38.0,29.29,WSW,251,14.7,18.4,27,-99.99,,,0.00,0,rob ver 1B,2013-05-05 03:51:00,
2013-05-04 20:52:00,80.4,25.9,29.18,SW,215,14.8,17.2,13,-99.99,,,0.00,0,rob ver 1A,2013-05-05 03:52:00,
2013-05-04 20:53:00,73.7,37.9,29.29,WSW,251,16.5,20.9,27,-99.99,,,0.00,0,rob ver 1B,2013-05-05 03:53:00,
2013-05-04 20:54:00,73.7,37.8,29.29,WSW,252,17.0,20.7,27,-99.99,,,0.00,0,rob ver 1B,2013-05-05 03:54:00,
2013-05-04 20:55:00,73.6,37.7,29.29,WSW,253,15.8,21.0,27,-99.99,,,0.00,0,rob ver 1B,2013-05-05 03:55:00,
2013-05-04 20:56:00,73.6,37.7,29.29,WSW,253,16.6,19.5,27,-99.99,,,0.00,0,rob ver 1B,2013-05-05 03:56:00,
2013-05-04 20:57:00,80.1,26.0,29.18,SSW,210,13.0,16.6,13,-99.99,,,0.00,0,rob ver 1A,2013-05-05 03:57:00,
2013-05-04 20:58:00,73.5,37.6,29.29,WSW,252,16.4,20.3,27,-99.99,,,0.00,0,rob ver 1B,2013-05-05 03:58:00,
2013-05-04 20:59:00,73.5,37.5,29.29,WSW,246,17.0,20.7,27,-99.99,,,0.00,0,rob ver 1B,2013-05-05 03:59:00,
2013-05-04 21:00:00,73.5,37.5,29.29,WSW,248,15.2,18.6,26,-99.99,,,0.00,0,rob ver 1B,2013-05-05 04:00:00,
2013-05-04 21:01:00,79.9,26.3,29.18,SSW,205,13.6,17.3,13,-99.99,,,0.00,0,rob ver 1A,2013-05-05 04:01:00,
2013-05-04 21:02:00,73.4,37.4,29.29,WSW,254,14.9,18.6,27,-99.99,,,0.00,0,rob ver 1B,2013-05-05 04:02:00,
2013-05-04 21:03:00,79.8,26.5,29.18,SSW,204,12.3,16.2,14,-99.99,,,0.00,0,rob ver 1A,2013-05-05 04:03:00,
2013-05-04 21:04:00,73.3,37.4,29.32,WSW,256,15.2,18.7,27,-99.99,,,0.00,0,rob ver 1B,2013-05-05 04:04:00,
2013-05-04 21:05:00,73.3,37.4,29.32,WSW,250,13.2,17.7,27,-99.99,,,0.00,0,rob ver 1B,2013-05-05 04:05:00,
2013-05-04 21:06:00,73.3,37.4,29.29,WSW,246,17.0,20.1,27,-99.99,,,0.00,0,rob ver 1B,2013-05-05 04:06:00,
2013-05-04 21:07:00,79.6,28.0,29.18,SSW,201,13.6,17.0,15,-99.99,,,0.00,0,rob ver 1A,2013-05-05 04:07:00,
2013-05-04 21:08:00,73.1,37.3,29.32,WSW,243,14.7,18.9,27,-99.99,,,0.00,0,rob ver 1B,2013-05-05 04:08:00,
2013-05-04 21:09:00,73.1,37.1,29.32,WSW,252,12.0,15.7,26,-99.99,,,0.00,0,rob ver 1B,2013-05-05 04:09:00,
2013-05-04 21:10:00,73.0,37.0,29.32,WSW,247,17.2,22.4,26,-99.99,,,0.00,0,rob ver 1B,2013-05-05 04:10:00,
2013-05-04 21:11:00,72.9,36.8,29.32,WSW,256,13.5,17.7,26,-99.99,,,0.00,0,rob ver 1B,2013-05-05 04:11:00,
2013-05-04 21:12:00,79.4,28.8,29.18,SSW,203,13.7,16.8,15,-99.99,,,0.00,0,rob ver 1A,2013-05-05 04:12:00,
2013-05-04 21:13:00,72.9,36.7,29.32,West,260,12.0,16.7,26,-99.99,,,0.00,0,rob ver 1B,2013-05-05 04:13:00,
2013-05-04 21:14:00,72.9,36.7,29.29,WSW,251,14.4,18.3,26,-99.99,,,0.00,0,rob ver 1B,2013-05-05 04:14:00,
2013-05-04 21:15:00,72.9,36.8,29.32,West,261,13.2,15.7,26,-99.99,,,0.00,0,rob ver 1B,2013-05-05 04:15:00,
2013-05-04 21:16:00,72.8,36.7,29.32,West,270,12.6,15.7,26,-99.99,,,0.00,0,rob ver 1B,2013-05-05 04:16:00,
2013-05-04 21:17:00,79.1,30.2,29.18,SSW,205,14.5,16.8,16,-99.99,,,0.00,0,rob ver 1A,2013-05-05 04:17:00,
2013-05-04 21:18:00,72.8,36.7,29.32,WSW,258,13.3,15.5,26,-99.99,,,0.00,0,rob ver 1B,2013-05-05 04:18:00,
2013-05-04 21:19:00,72.8,36.7,29.32,West,260,13.3,15.8,26,-99.99,,,0.00,0,rob ver 1B,2013-05-05 04:19:00,
2013-05-04 21:20:00,72.8,36.6,29.32,West,260,12.8,15.4,26,-99.99,,,0.00,0,rob ver 1B,2013-05-05 04:20:00,
2013-05-04 21:21:00,72.7,36.7,29.32,WSW,254,13.3,15.7,26,-99.99,,,0.00,0,rob ver 1B,2013-05-05 04:21:00,
2013-05-04 21:22:00,78.9,31.9,29.18,SSW,208,15.6,19.2,18,-99.99,,,0.00,0,rob ver 1A,2013-05-05 04:22:00,
2013-05-04 21:23:00,72.7,36.7,29.32,WSW,246,12.3,15.9,26,-99.99,,,0.00,0,rob ver 1B,2013-05-05 04:23:00,
2013-05-04 21:24:00,72.6,36.7,29.32,WSW,252,12.8,14.9,26,-99.99,,,0.00,0,rob ver 1B,2013-05-05 04:24:00,
2013-05-04 21:25:00,72.6,36.7,29.32,WSW,252,12.5,14.1,26,-99.99,,,0.00,0,rob ver 1B,2013-05-05 04:25:00,
2013-05-04 21:26:00,72.6,36.7,29.32,WSW,251,10.6,13.7,26,-99.99,,,0.00,0,rob ver 1B,2013-05-05 04:26:00,
2013-05-04 21:27:00,78.8,33.0,29.18,SSW,203,16.4,19.0,19,-99.99,,,0.00,0,rob ver 1A,2013-05-05 04:27:00,
2013-05-04 21:28:00,72.6,36.8,29.32,WSW,247,10.9,13.0,27,-99.99,,,0.00,0,rob ver 1B,2013-05-05 04:28:00,
2013-05-04 21:29:00,72.5,36.9,29.32,WSW,250,10.8,12.9,27,-99.99,,,0.00,0,rob ver 1B,2013-05-05 04:29:00,
2013-05-04 21:30:00,72.5,36.9,29.32,WSW,250,10.2,12.3,27,-99.99,,,0.00,0,rob ver 1B,2013-05-05 04:30:00,
2013-05-04 21:31:00,72.5,36.9,29.32,WSW,253,8.5,10.2,27,-99.99,,,0.00,0,rob ver 1B,2013-05-05 04:31:00,
2013-05-04 21:32:00,78.8,33.9,29.18,SSW,205,14.4,18.8,19,-99.99,,,0.00,0,rob ver 1A,2013-05-05 04:32:00,
2013-05-04 21:33:00,72.4,37.0,29.32,WSW,244,7.7,9.5,27,-99.99,,,0.00,0,rob ver 1B,2013-05-05 04:33:00,
2013-05-04 21:34:00,72.4,37.0,29.32,WSW,254,7.0,8.4,27,-99.99,,,0.00,0,rob ver 1B,2013-05-05 04:34:00,
2013-05-04 21:35:00,72.4,37.1,29.32,WSW,255,7.8,9.6,27,-99.99,,,0.00,0,rob ver 1B,2013-05-05 04:35:00,
2013-05-04 21:36:00,72.3,37.0,29.32,WSW,258,6.7,8.5,27,-99.99,,,0.00,0,rob ver 1B,2013-05-05 04:36:00,
2013-05-04 21:37:00,78.9,35.1,29.18,SSW,209,17.2,20.4,20,-99.99,,,0.00,0,rob ver 1A,2013-05-05 04:37:00,
2013-05-04 21:38:00,72.2,37.3,29.32,West,263,7.6,10.1,27,-99.99,,,0.00,0,rob ver 1B,2013-05-05 04:38:00,
2013-05-04 21:39:00,72.3,37.4,29.32,West,259,7.9,9.4,27,-99.99,,,0.00,0,rob ver 1B,2013-05-05 04:39:00,
2013-05-04 21:40:00,72.2,37.3,29.32,WSW,254,6.2,7.9,28,-99.99,,,0.00,0,rob ver 1B,2013-05-05 04:40:00,
2013-05-04 21:41:00,72.2,37.3,29.32,WSW,240,6.3,8.2,27,-99.99,,,0.00,0,rob ver 1B,2013-05-05 04:41:00,
2013-05-04 21:42:00,78.8,36.5,29.18,SSW,206,18.0,21.4,21,-99.99,,,0.00,0,rob ver 1A,2013-05-05 04:42:00,
2013-05-04 21:43:00,72.1,37.3,29.32,WSW,244,9.4,12.1,28,-99.99,,,0.00,0,rob ver 1B,2013-05-05 04:43:00,
2013-05-04 21:44:00,72.2,37.4,29.32,WSW,246,10.3,12.6,28,-99.99,,,0.00,0,rob ver 1B,2013-05-05 04:44:00,
2013-05-04 21:45:00,72.2,37.4,29.32,WSW,249,9.9,11.7,28,-99.99,,,0.00,0,rob ver 1B,2013-05-05 04:45:00,
2013-05-04 21:46:00,72.2,37.4,29.32,WSW,251,10.4,13.9,28,-99.99,,,0.00,0,rob ver 1B,2013-05-05 04:46:00,
2013-05-04 21:47:00,78.6,37.4,29.18,SSW,200,18.4,22.1,22,-99.99,,,0.00,0,rob ver 1A,2013-05-05 04:47:00,
2013-05-04 21:48:00,72.1,37.3,29.32,WSW,251,7.1,9.9,28,-99.99,,,0.00,0,rob ver 1B,2013-05-05 04:48:00,
2013-05-04 21:49:00,72.1,37.5,29.32,WSW,257,9.1,10.5,28,-99.99,,,0.00,0,rob ver 1B,2013-05-05 04:49:00,
2013-05-04 21:50:00,72.1,37.5,29.32,WSW,251,8.3,10.1,28,-99.99,,,0.00,0,rob ver 1B,2013-05-05 04:50:00,
2013-05-04 21:51:00,72.1,37.5,29.32,WSW,242,7.1,9.5,28,-99.99,,,0.00,0,rob ver 1B,2013-05-05 04:51:00,
2013-05-04 21:52:00,78.4,38.1,29.21,SSW,198,15.2,17.6,23,-99.99,,,0.00,0,rob ver 1A,2013-05-05 04:52:00,
2013-05-04 21:53:00,72.0,37.5,29.32,WSW,255,8.3,10.2,28,-99.99,,,0.00,0,rob ver 1B,2013-05-05 04:53:00,
2013-05-04 21:54:00,71.9,37.5,29.32,WSW,256,7.6,9.1,28,-99.99,,,0.00,0,rob ver 1B,2013-05-05 04:54:00,
2013-05-04 21:55:00,71.8,37.5,29.32,WSW,258,7.1,8.7,28,-99.99,,,0.00,0,rob ver 1B,2013-05-05 04:55:00,
2013-05-04 21:56:00,71.8,37.5,29.32,West,261,7.6,8.9,28,-99.99,,,0.00,0,rob ver 1B,2013-05-05 04:56:00,
2013-05-04 21:57:00,78.2,38.8,29.21,SSW,196,13.3,18.3,24,-99.99,,,0.00,0,rob ver 1A,2013-05-05 04:57:00,
2013-05-04 21:58:00,71.8,37.6,29.32,West,261,8.5,10.2,28,-99.99,,,0.00,0,rob ver 1B,2013-05-05 04:58:00,
2013-05-04 21:59:00,71.8,37.6,29.32,West,265,7.4,9.6,28,-99.99,,,0.00,0,rob ver 1B,2013-05-05 04:59:00,
2013-05-04 22:00:00,71.7,37.5,29.32,West,264,6.9,8.2,28,-99.99,,,0.00,0,rob ver 1B,2013-05-05 05:00:00,
2013-05-04 22:01:00,71.7,37.7,29.32,West,267,8.2,9.9,28,-99.99,,,0.00,0,rob ver 1B,2013-05-05 05:01:00,
2013-05-04 22:02:00,78.0,39.5,29.21,SSW,192,11.8,14.3,25,-99.99,,,0.00,0,rob ver 1A,2013-05-05 05:02:00,
2013-05-04 22:03:00,71.8,37.7,29.32,West,269,8.5,11.4,28,-99.99,,,0.00,0,rob ver 1B,2013-05-05 05:03:00,
2013-05-04 22:04:00,71.8,37.6,29.32,West,270,7.2,8.9,28,-99.99,,,0.00,0,rob ver 1B,2013-05-05 05:04:00,
2013-05-04 22:05:00,71.7,37.5,29.32,West,271,6.6,7.5,28,-99.99,,,0.00,0,rob ver 1B,2013-05-05 05:05:00,
2013-05-04 22:06:00,71.7,37.6,29.32,West,278,6.2,7.6,28,-99.99,,,0.00,0,rob ver 1B,2013-05-05 05:06:00,
2013-05-04 22:07:00,77.6,40.0,29.21,South,185,12.1,14.0,26,-99.99,,,0.00,0,rob ver 1A,2013-05-05 05:07:00,
2013-05-04 22:08:00,71.7,37.5,29.32,West,280,7.1,8.2,28,-99.99,,,0.00,0,rob ver 1B,2013-05-05 05:08:00,
2013-05-04 22:09:00,71.7,37.6,29.32,WNW,283,6.3,7.7,28,-99.99,,,0.00,0,rob ver 1B,2013-05-05 05:09:00,
2013-05-04 22:10:00,71.6,37.4,29.32,WNW,285,5.7,6.6,28,-99.99,,,0.00,0,rob ver 1B,2013-05-05 05:10:00,
2013-05-04 22:11:00,71.7,37.3,29.32,WNW,282,7.0,8.8,28,-99.99,,,0.00,0,rob ver 1B,2013-05-05 05:11:00,
2013-05-04 22:12:00,77.4,40.9,29.21,South,178,13.3,17.7,27,-99.99,,,0.00,0,rob ver 1A,2013-05-05 05:12:00,
2013-05-04 22:13:00,71.7,37.1,29.32,West,279,7.8,10.0,28,-99.99,,,0.00,0,rob ver 1B,2013-05-05 05:13:00,
2013-05-04 22:14:00,71.7,37.1,29.32,WNW,283,6.7,9.1,28,-99.99,,,0.00,0,rob ver 1B,2013-05-05 05:14:00,
2013-05-04 22:15:00,71.6,37.1,29.32,West,280,7.0,8.7,28,-99.99,,,0.00,0,rob ver 1B,2013-05-05 05:15:00,
2013-05-04 22:16:00,71.7,37.2,29.32,West,278,6.9,9.2,28,-99.99,,,0.00,0,rob ver 1B,2013-05-05 05:16:00,
2013-05-04 22:17:00,77.3,41.5,29.21,South,176,11.4,14.5,27,-99.99,,,0.00,0,rob ver 1A,2013-05-05 05:17:00,
2013-05-04 22:18:00,71.6,37.3,29.32,WNW,290,6.7,7.6,28,-99.99,,,0.00,0,rob ver 1B,2013-05-05 05:18:00,
2013-05-04 22:19:00,71.7,37.4,29.32,WNW,290,5.7,6.4,28,-99.99,,,0.00,0,rob ver 1B,2013-05-05 05:19:00,
2013-05-04 22:20:00,71.7,37.5,29.32,WNW,286,5.0,6.1,28,-99.99,,,0.00,0,rob ver 1B,2013-05-05 05:20:00,
2013-05-04 22:21:00,71.7,37.6,29.32,West,280,5.3,6.6,28,-99.99,,,0.00,0,rob ver 1B,2013-05-05 05:21:00,
2013-05-04 22:22:00,77.0,41.6,29.21,South,175,9.7,11.8,27,-99.99,,,0.00,0,rob ver 1A,2013-05-05 05:22:00,
2013-05-04 22:23:00,71.6,37.7,29.32,WNW,286,5.4,7.1,28,-99.99,,,0.00,0,rob ver 1B,2013-05-05 05:23:00,
2013-05-04 22:24:00,71.5,37.7,29.32,WNW,284,6.1,7.5,29,-99.99,,,0.00,0,rob ver 1B,2013-05-05 05:24:00,
2013-05-04 22:25:00,71.5,37.7,29.32,WNW,290,5.1,6.9,29,-99.99,,,0.00,0,rob ver 1B,2013-05-05 05:25:00,
2013-05-04 22:26:00,71.5,37.8,29.32,WNW,296,5.6,7.1,29,-99.99,,,0.00,0,rob ver 1B,2013-05-05 05:26:00,
2013-05-04 22:27:00,76.8,41.7,29.21,South,174,9.8,11.8,28,-99.99,,,0.00,0,rob ver 1A,2013-05-05 05:27:00,
2013-05-04 22:28:00,71.5,38.0,29.32,WNW,287,9.2,11.1,29,-99.99,,,0.00,0,rob ver 1B,2013-05-05 05:28:00,
2013-05-04 22:29:00,71.5,38.0,29.32,West,281,8.6,9.9,29,-99.99,,,0.00,0,rob ver 1B,2013-05-05 05:29:00,
2013-05-04 22:30:00,71.5,38.0,29.32,WNW,287,7.0,7.8,29,-99.99,,,0.00,0,rob ver 1B,2013-05-05 05:30:00,
2013-05-04 22:31:00,71.5,38.1,29.32,WNW,293,7.8,10.1,29,-99.99,,,0.00,0,rob ver 1B,2013-05-05 05:31:00,
2013-05-04 22:32:00,76.7,42.1,29.21,South,174,9.5,11.6,28,-99.99,,,0.00,0,rob ver 1A,2013-05-05 05:32:00,
2013-05-04 22:33:00,71.5,38.0,29.32,WNW,294,6.0,7.3,29,-99.99,,,0.00,0,rob ver 1B,2013-05-05 05:33:00,
2013-05-04 22:34:00,71.5,38.1,29.32,WNW,298,6.5,7.4,29,-99.99,,,0.00,0,rob ver 1B,2013-05-05 05:34:00,
2013-05-04 22:35:00,71.4,38.1,29.32,WNW,292,5.8,7.1,29,-99.99,,,0.00,0,rob ver 1B,2013-05-05 05:35:00,
2013-05-04 22:36:00,71.4,38.2,29.32,WNW,289,6.0,7.3,29,-99.99,,,0.00,0,rob ver 1B,2013-05-05 05:36:00,
2013-05-04 22:37:00,76.5,42.3,29.21,SSE,166,8.3,9.8,29,-99.99,,,0.00,0,rob ver 1A,2013-05-05 05:37:00,
2013-05-04 22:38:00,71.3,38.2,29.32,West,281,5.4,6.3,29,-99.99,,,0.00,0,rob ver 1B,2013-05-05 05:38:00,
2013-05-04 22:39:00,71.3,38.2,29.32,West,281,5.7,6.8,29,-99.99,,,0.00,0,rob ver 1B,2013-05-05 05:39:00,
2013-05-04 22:40:00,71.2,38.2,29.32,WNW,293,5.6,6.6,30,-99.99,,,0.00,0,rob ver 1B,2013-05-05 05:40:00,
2013-05-04 22:41:00,71.2,38.2,29.32,WNW,293,4.6,5.4,29,-99.99,,,0.00,0,rob ver 1B,2013-05-05 05:41:00,
2013-05-04 22:42:00,76.2,42.9,29.21,South,169,9.2,11.2,30,-99.99,,,0.00,0,rob ver 1A,2013-05-05 05:42:00,
2013-05-04 22:43:00,71.2,38.2,29.32,WNW,289,4.2,5.4,29,-99.99,,,0.00,0,rob ver 1B,2013-05-05 05:43:00,
2013-05-04 22:44:00,71.1,38.1,29.32,WNW,282,3.6,4.4,30,-99.99,,,0.00,0,rob ver 1B,2013-05-05 05:44:00,
2013-05-04 22:45:00,71.1,38.2,29.32,West,273,3.1,4.3,30,-99.99,,,0.00,0,rob ver 1B,2013-05-05 05:45:00,
2013-05-04 22:46:00,71.0,38.2,29.32,West,278,3.4,5.1,30,-99.99,,,0.00,0,rob ver 1B,2013-05-05 05:46:00,
2013-05-04 22:47:00,76.1,43.0,29.21,SSE,167,9.4,10.8,30,-99.99,,,0.00,0,rob ver 1A,2013-05-05 05:47:00,
2013-05-04 22:48:00,71.0,38.3,29.32,WNW,296,4.4,5.8,30,-99.99,,,0.00,0,rob ver 1B,2013-05-05 05:48:00,
2013-05-04 22:49:00,71.0,38.4,29.32,WNW,285,4.6,5.2,30,-99.99,,,0.00,0,rob ver 1B,2013-05-05 05:49:00,
2013-05-04 22:50:00,71.0,38.5,29.32,West,279,4.7,5.3,30,-99.99,,,0.00,0,rob ver 1B,2013-05-05 05:50:00,
2013-05-04 22:51:00,71.0,38.5,29.32,West,278,4.5,5.5,30,-99.99,,,0.00,0,rob ver 1B,2013-05-05 05:51:00,
2013-05-04 22:52:00,76.0,42.8,29.21,SSE,163,8.0,10.1,30,-99.99,,,0.00,0,rob ver 1A,2013-05-05 05:52:00,
2013-05-04 22:53:00,70.9,38.5,29.32,WNW,284,4.9,6.3,30,-99.99,,,0.00,0,rob ver 1B,2013-05-05 05:53:00,
2013-05-04 22:54:00,70.9,38.7,29.32,West,272,5.2,6.7,30,-99.99,,,0.00,0,rob ver 1B,2013-05-05 05:54:00,
2013-05-04 22:55:00,70.9,38.5,29.32,West,263,4.3,5.3,30,-99.99,,,0.00,0,rob ver 1B,2013-05-05 05:55:00,
2013-05-04 22:56:00,70.8,38.5,29.32,WSW,256,4.2,4.9,30,-99.99,,,0.00,0,rob ver 1B,2013-05-05 05:56:00,
2013-05-04 22:57:00,75.9,42.7,29.21,SSE,155,8.4,9.8,30,-99.99,,,0.00,0,rob ver 1A,2013-05-05 05:57:00,
2013-05-04 22:58:00,70.7,38.4,29.32,WSW,242,4.9,6.1,30,-99.99,,,0.00,0,rob ver 1B,2013-05-05 05:58:00,
2013-05-04 22:59:00,70.6,38.5,29.32,WSW,249,5.0,5.8,30,-99.99,,,0.00,0,rob ver 1B,2013-05-05 05:59:00,
2013-05-04 23:00:00,70.6,38.5,29.32,WSW,247,4.5,5.2,30,-99.99,,,0.00,0,rob ver 1B,2013-05-05 06:00:00,
2013-05-04 23:01:00,70.5,38.4,29.32,WSW,244,4.0,4.7,30,-99.99,,,0.00,0,rob ver 1B,2013-05-05 06:01:00,
2013-05-04 23:02:00,75.8,42.8,29.21,SSE,158,8.4,9.6,30,-99.99,,,0.00,0,rob ver 1A,2013-05-05 06:02:00,
2013-05-04 23:03:00,70.4,38.3,29.32,SW,235,3.8,4.7,30,-99.99,,,0.00,0,rob ver 1B,2013-05-05 06:03:00,
2013-05-04 23:04:00,70.3,38.3,29.32,WSW,238,3.4,4.2,31,-99.99,,,0.00,0,rob ver 1B,2013-05-05 06:04:00,
2013-05-04 23:05:00,70.2,38.3,29.32,WSW,239,3.4,4.4,31,-99.99,,,0.00,0,rob ver 1B,2013-05-05 06:05:00,
2013-05-04 23:06:00,70.2,38.3,29.32,WSW,245,3.1,4.3,31,-99.99,,,0.00,0,rob ver 1B,2013-05-05 06:06:00,
2013-05-04 23:07:00,70.2,38.3,29.32,SW,233,3.3,3.9,31,-99.99,,,0.00,0,rob ver 1B,2013-05-05 06:07:00,
2013-05-04 23:08:00,75.6,42.7,29.21,SSE,163,7.3,8.3,30,-99.99,,,0.00,0,rob ver 1A,2013-05-05 06:08:00,
2013-05-04 23:09:00,70.1,38.4,29.32,SW,229,3.6,4.3,31,-99.99,,,0.00,0,rob ver 1B,2013-05-05 06:09:00,
2013-05-04 23:10:00,70.1,38.3,29.32,SW,220,3.8,4.3,31,-99.99,,,0.00,0,rob ver 1B,2013-05-05 06:10:00,
2013-05-04 23:11:00,70.0,38.2,29.32,SW,218,3.9,4.3,31,-99.99,,,0.00,0,rob ver 1B,2013-05-05 06:11:00,
2013-05-04 23:12:00,69.9,38.1,29.32,SW,217,3.4,4.1,31,-99.99,,,0.00,0,rob ver 1B,2013-05-05 06:12:00,
2013-05-04 23:13:00,75.5,42.7,29.21,SSE,168,8.2,10.1,30,-99.99,,,0.00,0,rob ver 1A,2013-05-05 06:13:00,
2013-05-04 23:14:00,69.9,38.1,29.32,SSW,211,3.1,3.5,31,-99.99,,,0.00,0,rob ver 1B,2013-05-05 06:14:00,
2013-05-04 23:15:00,69.8,38.2,29.32,SW,215,2.8,3.8,31,-99.99,,,0.00,0,rob ver 1B,2013-05-05 06:15:00,
2013-05-04 23:16:00,69.8,38.1,29.32,SW,216,2.2,3.0,31,-99.99,,,0.00,0,rob ver 1B,2013-05-05 06:16:00,
2013-05-04 23:17:00,69.8,38.1,29.32,SSW,212,2.1,2.6,31,-99.99,,,0.00,0,rob ver 1B,2013-05-05 06:17:00,
2013-05-04 23:18:00,75.6,42.6,29.21,South,172,8.4,10.8,30,-99.99,,,0.00,0,rob ver 1A,2013-05-05 06:18:00,
2013-05-04 23:19:00,69.7,37.8,29.32,SSW,202,1.6,2.0,31,-99.99,,,0.00,0,rob ver 1B,2013-05-05 06:19:00,
2013-05-04 23:20:00,69.6,37.8,29.32,SSW,193,1.2,1.8,31,-99.99,,,0.00,0,rob ver 1B,2013-05-05 06:20:00,
2013-05-04 23:21:00,69.6,37.8,29.32,SSW,197,1.3,1.8,31,-99.99,,,0.00,0,rob ver 1B,2013-05-05 06:21:00,
2013-05-04 23:22:00,69.5,37.9,29.32,SSW,193,1.8,2.5,31,-99.99,,,0.00,0,rob ver 1B,2013-05-05 06:22:00,
2013-05-04 23:23:00,75.6,42.3,29.21,South,181,8.7,10.5,30,-99.99,,,0.00,0,rob ver 1A,2013-05-05 06:23:00,
2013-05-04 23:24:00,69.4,38.3,29.32,South,189,2.8,3.3,31,-99.99,,,0.00,0,rob ver 1B,2013-05-05 06:24:00,
2013-05-04 23:25:00,69.4,38.3,29.32,South,186,2.4,2.9,32,-99.99,,,0.00,0,rob ver 1B,2013-05-05 06:25:00,
2013-05-04 23:26:00,69.3,38.2,29.32,South,175,2.1,2.5,31,-99.99,,,0.00,0,rob ver 1B,2013-05-05 06:26:00,
2013-05-04 23:27:00,69.3,38.0,29.32,South,170,2.1,2.5,31,-99.99,,,0.00,0,rob ver 1B,2013-05-05 06:27:00,
2013-05-04 23:28:00,75.6,41.9,29.21,South,183,9.7,12.5,29,-99.99,,,0.00,0,rob ver 1A,2013-05-05 06:28:00,
2013-05-04 23:29:00,69.2,37.9,29.32,SSE,160,1.8,2.2,31,-99.99,,,0.00,0,rob ver 1B,2013-05-05 06:29:00,
2013-05-04 23:30:00,69.1,38.0,29.32,SSE,163,1.5,1.9,32,-99.99,,,0.00,0,rob ver 1B,2013-05-05 06:30:00,
2013-05-04 23:31:00,69.1,38.0,29.32,SSE,159,1.7,2.0,32,-99.99,,,0.00,0,rob ver 1B,2013-05-05 06:31:00,
2013-05-04 23:32:00,69.0,38.1,29.32,South,172,1.4,1.9,32,-99.99,,,0.00,0,rob ver 1B,2013-05-05 06:32:00,
2013-05-04 23:33:00,75.7,42.0,29.21,South,182,10.4,13.0,29,-99.99,,,0.00,0,rob ver 1A,2013-05-05 06:33:00,
2013-05-04 23:34:00,69.0,38.2,29.32,South,189,1.7,2.4,32,-99.99,,,0.00,0,rob ver 1B,2013-05-05 06:34:00,
2013-05-04 23:35:00,68.9,38.3,29.32,SSW,194,1.6,1.9,32,-99.99,,,0.00,0,rob ver 1B,2013-05-05 06:35:00,
2013-05-04 23:36:00,68.9,38.3,29.32,SSW,201,1.3,1.6,32,-99.99,,,0.00,0,rob ver 1B,2013-05-05 06:36:00,
2013-05-04 23:37:00,68.9,38.2,29.32,SSW,201,1.0,1.3,32,-99.99,,,0.00,0,rob ver 1B,2013-05-05 06:37:00,
2013-05-04 23:38:00,75.5,41.8,29.21,South,177,9.1,12.3,29,-99.99,,,0.00,0,rob ver 1A,2013-05-05 06:38:00,
2013-05-04 23:39:00,68.7,38.1,29.32,SSW,212,0.8,1.0,32,-99.99,,,0.00,0,rob ver 1B,2013-05-05 06:39:00,
2013-05-04 23:40:00,68.7,38.1,29.32,SW,216,0.5,0.6,32,-99.99,,,0.00,0,rob ver 1B,2013-05-05 06:40:00,
2013-05-04 23:41:00,68.6,38.2,29.32,SW,235,0.8,1.4,32,-99.99,,,0.00,0,rob ver 1B,2013-05-05 06:41:00,
2013-05-04 23:42:00,68.6,38.2,29.32,SW,221,1.0,1.3,32,-99.99,,,0.00,0,rob ver 1B,2013-05-05 06:42:00,
2013-05-04 23:43:00,75.4,41.5,29.21,South,178,9.5,11.4,29,-99.99,,,0.00,0,rob ver 1A,2013-05-05 06:43:00,
2013-05-04 23:44:00,68.6,38.2,29.32,SW,230,1.9,2.6,32,-99.99,,,0.00,0,rob ver 1B,2013-05-05 06:44:00,
2013-05-04 23:45:00,68.7,38.5,29.32,SW,221,3.1,3.9,33,-99.99,,,0.00,0,rob ver 1B,2013-05-05 06:45:00,
2013-05-04 23:46:00,68.6,38.5,29.32,SW,224,3.0,4.1,32,-99.99,,,0.00,0,rob ver 1B,2013-05-05 06:46:00,
2013-05-04 23:47:00,68.6,38.8,29.32,SW,224,3.8,5.4,33,-99.99,,,0.00,0,rob ver 1B,2013-05-05 06:47:00,
2013-05-04 23:48:00,75.1,40.8,29.21,South,180,8.5,9.9,29,-99.99,,,0.00,0,rob ver 1A,2013-05-05 06:48:00,
2013-05-04 23:49:00,68.6,39.5,29.32,SW,218,4.6,5.2,34,-99.99,,,0.00,0,rob ver 1B,2013-05-05 06:49:00,
2013-05-04 23:50:00,68.6,39.9,29.32,SW,218,5.5,7.2,35,-99.99,,,0.00,0,rob ver 1B,2013-05-05 06:50:00,
2013-05-04 23:51:00,68.6,40.5,29.32,SW,224,6.6,8.9,36,-99.99,,,0.00,0,rob ver 1B,2013-05-05 06:51:00,
2013-05-04 23:52:00,68.6,40.6,29.32,SW,221,5.4,6.2,35,-99.99,,,0.00,0,rob ver 1B,2013-05-05 06:52:00,
2013-05-04 23:53:00,74.8,40.6,29.21,South,185,7.9,9.5,29,-99.99,,,0.00,0,rob ver 1A,2013-05-05 06:53:00,
2013-05-04 23:54:00,68.4,40.9,29.32,SW,222,7.8,9.4,36,-99.99,,,0.00,0,rob ver 1B,2013-05-05 06:54:00,
2013-05-04 23:55:00,68.4,41.1,29.32,SW,222,11.5,14.0,36,-99.99,,,0.00,0,rob ver 1B,2013-05-05 06:55:00,
2013-05-04 23:56:00,68.4,41.1,29.32,SW,219,11.3,13.7,36,-99.99,,,0.00,0,rob ver 1B,2013-05-05 06:56:00,
2013-05-04 23:57:00,68.3,41.1,29.32,SW,220,12.2,15.2,37,-99.99,,,0.00,0,rob ver 1B,2013-05-05 06:57:00,
2013-05-04 23:58:00,74.6,40.6,29.21,South,177,8.5,10.5,29,-99.99,,,0.00,0,rob ver 1A,2013-05-05 06:58:00,
2013-05-04 23:59:00,68.3,41.2,29.32,SW,215,14.4,16.3,37,-99.99,,,0.00,0,rob ver 1B,2013-05-05 06:59:00,